<?xml version="1.0" encoding="UTF-8" standalone="no" ?>
<gpx xmlns="http://www.topografix.com/GPX/1/1" xmlns:xsi="http://www.w3.org/2001/XMLSchema-instance" xsi:schemaLocation="http://www.topografix.com/GPX/1/1 http://www.topografix.com/GPX/1/1/gpx.xsd" version="1.1" creator="VisuGPX - https://www.visugpx.com">
  <metadata>
    <name>ANCERVILLE</name>
    <desc><![CDATA[SORTIE DU 24/06/10]]></desc>
  </metadata>
  <trk>
    <name><![CDATA[ANCERVILLE]]></name>
    <trkseg>
      <trkpt lat="48.63686" lon="5.02295">
        <ele>183.75</ele>
        <time>2010-06-24T14:55:25Z</time>
      </trkpt>
      <trkpt lat="48.63686" lon="5.02296">
        <ele>179.42</ele>
        <time>2010-06-24T14:55:27Z</time>
      </trkpt>
      <trkpt lat="48.63686" lon="5.02296">
        <ele>190.48</ele>
        <time>2010-06-24T14:55:28Z</time>
      </trkpt>
      <trkpt lat="48.63686" lon="5.02296">
        <ele>186.15</ele>
        <time>2010-06-24T14:55:29Z</time>
      </trkpt>
      <trkpt lat="48.63686" lon="5.02296">
        <ele>189.52</ele>
        <time>2010-06-24T14:55:32Z</time>
      </trkpt>
      <trkpt lat="48.63686" lon="5.02296">
        <ele>191.44</ele>
        <time>2010-06-24T14:55:35Z</time>
      </trkpt>
      <trkpt lat="48.63686" lon="5.02296">
        <ele>193.36</ele>
        <time>2010-06-24T14:55:39Z</time>
      </trkpt>
      <trkpt lat="48.63687" lon="5.02294">
        <ele>196.25</ele>
        <time>2010-06-24T14:55:45Z</time>
      </trkpt>
      <trkpt lat="48.63688" lon="5.02295">
        <ele>196.73</ele>
        <time>2010-06-24T14:55:47Z</time>
      </trkpt>
      <trkpt lat="48.63693" lon="5.02312">
        <ele>200.09</ele>
        <time>2010-06-24T14:55:55Z</time>
      </trkpt>
      <trkpt lat="48.63701" lon="5.02342">
        <ele>202.01</ele>
        <time>2010-06-24T14:56:03Z</time>
      </trkpt>
      <trkpt lat="48.63706" lon="5.02364">
        <ele>203.94</ele>
        <time>2010-06-24T14:56:10Z</time>
      </trkpt>
      <trkpt lat="48.63711" lon="5.02394">
        <ele>205.86</ele>
        <time>2010-06-24T14:56:18Z</time>
      </trkpt>
      <trkpt lat="48.63716" lon="5.02427">
        <ele>207.3</ele>
        <time>2010-06-24T14:56:27Z</time>
      </trkpt>
      <trkpt lat="48.63719" lon="5.02463">
        <ele>208.26</ele>
        <time>2010-06-24T14:56:36Z</time>
      </trkpt>
      <trkpt lat="48.63717" lon="5.02498">
        <ele>209.7</ele>
        <time>2010-06-24T14:56:44Z</time>
      </trkpt>
      <trkpt lat="48.63712" lon="5.02541">
        <ele>210.67</ele>
        <time>2010-06-24T14:56:54Z</time>
      </trkpt>
      <trkpt lat="48.63708" lon="5.02576">
        <ele>211.63</ele>
        <time>2010-06-24T14:57:02Z</time>
      </trkpt>
      <trkpt lat="48.63702" lon="5.02605">
        <ele>212.11</ele>
        <time>2010-06-24T14:57:09Z</time>
      </trkpt>
      <trkpt lat="48.63691" lon="5.02637">
        <ele>212.59</ele>
        <time>2010-06-24T14:57:17Z</time>
      </trkpt>
      <trkpt lat="48.63681" lon="5.02661">
        <ele>213.07</ele>
        <time>2010-06-24T14:57:24Z</time>
      </trkpt>
      <trkpt lat="48.63672" lon="5.02684">
        <ele>213.07</ele>
        <time>2010-06-24T14:57:30Z</time>
      </trkpt>
      <trkpt lat="48.63688" lon="5.02715">
        <ele>214.51</ele>
        <time>2010-06-24T14:57:37Z</time>
      </trkpt>
      <trkpt lat="48.637" lon="5.02738">
        <ele>215.95</ele>
        <time>2010-06-24T14:57:43Z</time>
      </trkpt>
      <trkpt lat="48.63712" lon="5.02752">
        <ele>217.4</ele>
        <time>2010-06-24T14:57:49Z</time>
      </trkpt>
      <trkpt lat="48.63725" lon="5.02766">
        <ele>218.36</ele>
        <time>2010-06-24T14:57:55Z</time>
      </trkpt>
      <trkpt lat="48.63726" lon="5.0277">
        <ele>218.84</ele>
        <time>2010-06-24T14:57:56Z</time>
      </trkpt>
      <trkpt lat="48.63731" lon="5.02808">
        <ele>219.32</ele>
        <time>2010-06-24T14:58:05Z</time>
      </trkpt>
      <trkpt lat="48.63733" lon="5.02845">
        <ele>220.28</ele>
        <time>2010-06-24T14:58:14Z</time>
      </trkpt>
      <trkpt lat="48.63735" lon="5.02872">
        <ele>220.76</ele>
        <time>2010-06-24T14:58:21Z</time>
      </trkpt>
      <trkpt lat="48.63737" lon="5.02895">
        <ele>221.24</ele>
        <time>2010-06-24T14:58:26Z</time>
      </trkpt>
      <trkpt lat="48.63741" lon="5.02925">
        <ele>221.72</ele>
        <time>2010-06-24T14:58:32Z</time>
      </trkpt>
      <trkpt lat="48.63745" lon="5.02973">
        <ele>222.2</ele>
        <time>2010-06-24T14:58:41Z</time>
      </trkpt>
      <trkpt lat="48.6375" lon="5.03009">
        <ele>223.16</ele>
        <time>2010-06-24T14:58:48Z</time>
      </trkpt>
      <trkpt lat="48.6375" lon="5.03025">
        <ele>223.64</ele>
        <time>2010-06-24T14:58:51Z</time>
      </trkpt>
      <trkpt lat="48.63736" lon="5.03028">
        <ele>223.64</ele>
        <time>2010-06-24T14:58:56Z</time>
      </trkpt>
      <trkpt lat="48.63728" lon="5.03027">
        <ele>223.16</ele>
        <time>2010-06-24T14:59:01Z</time>
      </trkpt>
      <trkpt lat="48.63728" lon="5.03027">
        <ele>223.64</ele>
        <time>2010-06-24T14:59:18Z</time>
      </trkpt>
      <trkpt lat="48.63728" lon="5.03027">
        <ele>223.16</ele>
        <time>2010-06-24T14:59:31Z</time>
      </trkpt>
      <trkpt lat="48.63728" lon="5.03027">
        <ele>223.16</ele>
        <time>2010-06-24T14:59:48Z</time>
      </trkpt>
      <trkpt lat="48.63728" lon="5.03027">
        <ele>223.16</ele>
        <time>2010-06-24T14:59:55Z</time>
      </trkpt>
      <trkpt lat="48.63719" lon="5.03033">
        <ele>222.2</ele>
        <time>2010-06-24T15:00:00Z</time>
      </trkpt>
      <trkpt lat="48.63692" lon="5.03043">
        <ele>221.24</ele>
        <time>2010-06-24T15:00:07Z</time>
      </trkpt>
      <trkpt lat="48.63662" lon="5.03048">
        <ele>219.8</ele>
        <time>2010-06-24T15:00:12Z</time>
      </trkpt>
      <trkpt lat="48.6361" lon="5.03056">
        <ele>216.91</ele>
        <time>2010-06-24T15:00:19Z</time>
      </trkpt>
      <trkpt lat="48.6359" lon="5.03069">
        <ele>216.43</ele>
        <time>2010-06-24T15:00:23Z</time>
      </trkpt>
      <trkpt lat="48.63586" lon="5.03076">
        <ele>216.43</ele>
        <time>2010-06-24T15:00:25Z</time>
      </trkpt>
      <trkpt lat="48.63581" lon="5.03084">
        <ele>215.47</ele>
        <time>2010-06-24T15:00:27Z</time>
      </trkpt>
      <trkpt lat="48.63568" lon="5.03113">
        <ele>214.99</ele>
        <time>2010-06-24T15:00:32Z</time>
      </trkpt>
      <trkpt lat="48.63563" lon="5.03177">
        <ele>214.99</ele>
        <time>2010-06-24T15:00:41Z</time>
      </trkpt>
      <trkpt lat="48.63557" lon="5.03214">
        <ele>214.99</ele>
        <time>2010-06-24T15:00:47Z</time>
      </trkpt>
      <trkpt lat="48.63559" lon="5.03242">
        <ele>215.47</ele>
        <time>2010-06-24T15:00:52Z</time>
      </trkpt>
      <trkpt lat="48.63563" lon="5.03273">
        <ele>215.47</ele>
        <time>2010-06-24T15:00:59Z</time>
      </trkpt>
      <trkpt lat="48.6356" lon="5.03303">
        <ele>214.99</ele>
        <time>2010-06-24T15:01:03Z</time>
      </trkpt>
      <trkpt lat="48.63545" lon="5.03341">
        <ele>214.51</ele>
        <time>2010-06-24T15:01:10Z</time>
      </trkpt>
      <trkpt lat="48.63544" lon="5.03381">
        <ele>215.47</ele>
        <time>2010-06-24T15:01:16Z</time>
      </trkpt>
      <trkpt lat="48.63543" lon="5.0342">
        <ele>217.4</ele>
        <time>2010-06-24T15:01:23Z</time>
      </trkpt>
      <trkpt lat="48.63543" lon="5.03429">
        <ele>217.4</ele>
        <time>2010-06-24T15:01:25Z</time>
      </trkpt>
      <trkpt lat="48.63537" lon="5.03436">
        <ele>217.88</ele>
        <time>2010-06-24T15:01:29Z</time>
      </trkpt>
      <trkpt lat="48.63532" lon="5.03452">
        <ele>220.28</ele>
        <time>2010-06-24T15:01:36Z</time>
      </trkpt>
      <trkpt lat="48.63527" lon="5.03462">
        <ele>220.76</ele>
        <time>2010-06-24T15:01:40Z</time>
      </trkpt>
      <trkpt lat="48.63526" lon="5.03466">
        <ele>221.24</ele>
        <time>2010-06-24T15:01:42Z</time>
      </trkpt>
      <trkpt lat="48.63523" lon="5.0347">
        <ele>221.72</ele>
        <time>2010-06-24T15:01:44Z</time>
      </trkpt>
      <trkpt lat="48.6351" lon="5.03484">
        <ele>223.16</ele>
        <time>2010-06-24T15:01:49Z</time>
      </trkpt>
      <trkpt lat="48.63501" lon="5.03513">
        <ele>224.12</ele>
        <time>2010-06-24T15:01:56Z</time>
      </trkpt>
      <trkpt lat="48.63492" lon="5.03538">
        <ele>225.09</ele>
        <time>2010-06-24T15:02:01Z</time>
      </trkpt>
      <trkpt lat="48.63488" lon="5.0355">
        <ele>225.57</ele>
        <time>2010-06-24T15:02:04Z</time>
      </trkpt>
      <trkpt lat="48.63475" lon="5.03565">
        <ele>225.57</ele>
        <time>2010-06-24T15:02:12Z</time>
      </trkpt>
      <trkpt lat="48.63473" lon="5.03568">
        <ele>225.57</ele>
        <time>2010-06-24T15:02:15Z</time>
      </trkpt>
      <trkpt lat="48.6347" lon="5.03579">
        <ele>226.53</ele>
        <time>2010-06-24T15:02:21Z</time>
      </trkpt>
      <trkpt lat="48.63466" lon="5.03589">
        <ele>227.01</ele>
        <time>2010-06-24T15:02:25Z</time>
      </trkpt>
      <trkpt lat="48.63462" lon="5.03598">
        <ele>227.49</ele>
        <time>2010-06-24T15:02:29Z</time>
      </trkpt>
      <trkpt lat="48.6346" lon="5.03617">
        <ele>228.45</ele>
        <time>2010-06-24T15:02:36Z</time>
      </trkpt>
      <trkpt lat="48.6346" lon="5.03638">
        <ele>228.93</ele>
        <time>2010-06-24T15:02:42Z</time>
      </trkpt>
      <trkpt lat="48.63461" lon="5.03645">
        <ele>229.41</ele>
        <time>2010-06-24T15:02:44Z</time>
      </trkpt>
      <trkpt lat="48.63441" lon="5.03659">
        <ele>229.89</ele>
        <time>2010-06-24T15:02:52Z</time>
      </trkpt>
      <trkpt lat="48.63435" lon="5.03668">
        <ele>229.89</ele>
        <time>2010-06-24T15:02:56Z</time>
      </trkpt>
      <trkpt lat="48.63424" lon="5.03685">
        <ele>229.89</ele>
        <time>2010-06-24T15:03:03Z</time>
      </trkpt>
      <trkpt lat="48.63422" lon="5.03695">
        <ele>230.85</ele>
        <time>2010-06-24T15:03:07Z</time>
      </trkpt>
      <trkpt lat="48.63417" lon="5.03724">
        <ele>230.37</ele>
        <time>2010-06-24T15:03:16Z</time>
      </trkpt>
      <trkpt lat="48.63416" lon="5.03733">
        <ele>229.89</ele>
        <time>2010-06-24T15:03:19Z</time>
      </trkpt>
      <trkpt lat="48.63409" lon="5.03743">
        <ele>229.89</ele>
        <time>2010-06-24T15:03:24Z</time>
      </trkpt>
      <trkpt lat="48.63401" lon="5.03744">
        <ele>229.41</ele>
        <time>2010-06-24T15:03:28Z</time>
      </trkpt>
      <trkpt lat="48.63386" lon="5.03744">
        <ele>228.45</ele>
        <time>2010-06-24T15:03:35Z</time>
      </trkpt>
      <trkpt lat="48.63376" lon="5.03756">
        <ele>227.49</ele>
        <time>2010-06-24T15:03:40Z</time>
      </trkpt>
      <trkpt lat="48.63371" lon="5.03763">
        <ele>227.97</ele>
        <time>2010-06-24T15:03:42Z</time>
      </trkpt>
      <trkpt lat="48.63357" lon="5.03777">
        <ele>227.49</ele>
        <time>2010-06-24T15:03:48Z</time>
      </trkpt>
      <trkpt lat="48.63341" lon="5.03779">
        <ele>227.49</ele>
        <time>2010-06-24T15:03:57Z</time>
      </trkpt>
      <trkpt lat="48.63334" lon="5.03783">
        <ele>227.01</ele>
        <time>2010-06-24T15:04:04Z</time>
      </trkpt>
      <trkpt lat="48.63331" lon="5.03787">
        <ele>227.01</ele>
        <time>2010-06-24T15:04:11Z</time>
      </trkpt>
      <trkpt lat="48.6333" lon="5.03789">
        <ele>227.01</ele>
        <time>2010-06-24T15:04:14Z</time>
      </trkpt>
      <trkpt lat="48.63326" lon="5.03803">
        <ele>225.57</ele>
        <time>2010-06-24T15:04:19Z</time>
      </trkpt>
      <trkpt lat="48.63315" lon="5.03838">
        <ele>224.12</ele>
        <time>2010-06-24T15:04:25Z</time>
      </trkpt>
      <trkpt lat="48.63313" lon="5.03843">
        <ele>222.68</ele>
        <time>2010-06-24T15:04:26Z</time>
      </trkpt>
      <trkpt lat="48.63297" lon="5.03881">
        <ele>221.24</ele>
        <time>2010-06-24T15:04:33Z</time>
      </trkpt>
      <trkpt lat="48.63288" lon="5.03901">
        <ele>219.8</ele>
        <time>2010-06-24T15:04:36Z</time>
      </trkpt>
      <trkpt lat="48.63278" lon="5.03918">
        <ele>219.8</ele>
        <time>2010-06-24T15:04:40Z</time>
      </trkpt>
      <trkpt lat="48.63271" lon="5.03938">
        <ele>216.43</ele>
        <time>2010-06-24T15:04:45Z</time>
      </trkpt>
      <trkpt lat="48.63267" lon="5.0396">
        <ele>213.07</ele>
        <time>2010-06-24T15:04:49Z</time>
      </trkpt>
      <trkpt lat="48.63265" lon="5.03967">
        <ele>213.07</ele>
        <time>2010-06-24T15:04:50Z</time>
      </trkpt>
      <trkpt lat="48.6326" lon="5.03989">
        <ele>214.51</ele>
        <time>2010-06-24T15:04:55Z</time>
      </trkpt>
      <trkpt lat="48.63243" lon="5.04">
        <ele>214.99</ele>
        <time>2010-06-24T15:04:58Z</time>
      </trkpt>
      <trkpt lat="48.63233" lon="5.0401">
        <ele>216.43</ele>
        <time>2010-06-24T15:05:02Z</time>
      </trkpt>
      <trkpt lat="48.63229" lon="5.04021">
        <ele>216.91</ele>
        <time>2010-06-24T15:05:06Z</time>
      </trkpt>
      <trkpt lat="48.6322" lon="5.04039">
        <ele>217.88</ele>
        <time>2010-06-24T15:05:13Z</time>
      </trkpt>
      <trkpt lat="48.63213" lon="5.04055">
        <ele>219.32</ele>
        <time>2010-06-24T15:05:20Z</time>
      </trkpt>
      <trkpt lat="48.63206" lon="5.04066">
        <ele>220.28</ele>
        <time>2010-06-24T15:05:25Z</time>
      </trkpt>
      <trkpt lat="48.63198" lon="5.04085">
        <ele>221.24</ele>
        <time>2010-06-24T15:05:33Z</time>
      </trkpt>
      <trkpt lat="48.63193" lon="5.04108">
        <ele>222.68</ele>
        <time>2010-06-24T15:05:40Z</time>
      </trkpt>
      <trkpt lat="48.63187" lon="5.04126">
        <ele>223.16</ele>
        <time>2010-06-24T15:05:47Z</time>
      </trkpt>
      <trkpt lat="48.63186" lon="5.04138">
        <ele>222.68</ele>
        <time>2010-06-24T15:05:56Z</time>
      </trkpt>
      <trkpt lat="48.63185" lon="5.04144">
        <ele>223.16</ele>
        <time>2010-06-24T15:06:05Z</time>
      </trkpt>
      <trkpt lat="48.63183" lon="5.04161">
        <ele>224.12</ele>
        <time>2010-06-24T15:06:10Z</time>
      </trkpt>
      <trkpt lat="48.63181" lon="5.04194">
        <ele>226.05</ele>
        <time>2010-06-24T15:06:18Z</time>
      </trkpt>
      <trkpt lat="48.63186" lon="5.04227">
        <ele>227.01</ele>
        <time>2010-06-24T15:06:26Z</time>
      </trkpt>
      <trkpt lat="48.63192" lon="5.04234">
        <ele>227.01</ele>
        <time>2010-06-24T15:06:31Z</time>
      </trkpt>
      <trkpt lat="48.63192" lon="5.04234">
        <ele>225.09</ele>
        <time>2010-06-24T15:06:42Z</time>
      </trkpt>
      <trkpt lat="48.63192" lon="5.04234">
        <ele>228.45</ele>
        <time>2010-06-24T15:06:43Z</time>
      </trkpt>
      <trkpt lat="48.63195" lon="5.04235">
        <ele>227.01</ele>
        <time>2010-06-24T15:06:53Z</time>
      </trkpt>
      <trkpt lat="48.63196" lon="5.04238">
        <ele>227.01</ele>
        <time>2010-06-24T15:07:02Z</time>
      </trkpt>
      <trkpt lat="48.63198" lon="5.04246">
        <ele>227.01</ele>
        <time>2010-06-24T15:07:09Z</time>
      </trkpt>
      <trkpt lat="48.63199" lon="5.04254">
        <ele>227.97</ele>
        <time>2010-06-24T15:07:15Z</time>
      </trkpt>
      <trkpt lat="48.632" lon="5.04268">
        <ele>228.93</ele>
        <time>2010-06-24T15:07:22Z</time>
      </trkpt>
      <trkpt lat="48.63201" lon="5.04288">
        <ele>228.93</ele>
        <time>2010-06-24T15:07:29Z</time>
      </trkpt>
      <trkpt lat="48.63204" lon="5.04312">
        <ele>229.89</ele>
        <time>2010-06-24T15:07:35Z</time>
      </trkpt>
      <trkpt lat="48.63205" lon="5.04338">
        <ele>230.37</ele>
        <time>2010-06-24T15:07:41Z</time>
      </trkpt>
      <trkpt lat="48.63207" lon="5.04375">
        <ele>231.81</ele>
        <time>2010-06-24T15:07:50Z</time>
      </trkpt>
      <trkpt lat="48.6321" lon="5.04404">
        <ele>232.3</ele>
        <time>2010-06-24T15:07:57Z</time>
      </trkpt>
      <trkpt lat="48.63211" lon="5.04437">
        <ele>233.26</ele>
        <time>2010-06-24T15:08:05Z</time>
      </trkpt>
      <trkpt lat="48.63214" lon="5.04468">
        <ele>234.22</ele>
        <time>2010-06-24T15:08:13Z</time>
      </trkpt>
      <trkpt lat="48.63216" lon="5.04493">
        <ele>235.18</ele>
        <time>2010-06-24T15:08:20Z</time>
      </trkpt>
      <trkpt lat="48.63218" lon="5.04521">
        <ele>236.14</ele>
        <time>2010-06-24T15:08:27Z</time>
      </trkpt>
      <trkpt lat="48.63222" lon="5.04556">
        <ele>237.1</ele>
        <time>2010-06-24T15:08:36Z</time>
      </trkpt>
      <trkpt lat="48.63224" lon="5.04584">
        <ele>237.58</ele>
        <time>2010-06-24T15:08:43Z</time>
      </trkpt>
      <trkpt lat="48.63225" lon="5.04621">
        <ele>238.54</ele>
        <time>2010-06-24T15:08:51Z</time>
      </trkpt>
      <trkpt lat="48.63231" lon="5.04651">
        <ele>239.02</ele>
        <time>2010-06-24T15:08:58Z</time>
      </trkpt>
      <trkpt lat="48.63231" lon="5.04678">
        <ele>239.02</ele>
        <time>2010-06-24T15:09:05Z</time>
      </trkpt>
      <trkpt lat="48.63237" lon="5.0471">
        <ele>239.02</ele>
        <time>2010-06-24T15:09:12Z</time>
      </trkpt>
      <trkpt lat="48.63243" lon="5.04741">
        <ele>239.51</ele>
        <time>2010-06-24T15:09:18Z</time>
      </trkpt>
      <trkpt lat="48.63247" lon="5.04763">
        <ele>239.02</ele>
        <time>2010-06-24T15:09:22Z</time>
      </trkpt>
      <trkpt lat="48.63252" lon="5.04822">
        <ele>237.1</ele>
        <time>2010-06-24T15:09:31Z</time>
      </trkpt>
      <trkpt lat="48.63252" lon="5.04865">
        <ele>236.14</ele>
        <time>2010-06-24T15:09:37Z</time>
      </trkpt>
      <trkpt lat="48.63253" lon="5.04914">
        <ele>234.7</ele>
        <time>2010-06-24T15:09:45Z</time>
      </trkpt>
      <trkpt lat="48.63254" lon="5.04955">
        <ele>233.74</ele>
        <time>2010-06-24T15:09:53Z</time>
      </trkpt>
      <trkpt lat="48.63258" lon="5.04978">
        <ele>233.26</ele>
        <time>2010-06-24T15:09:59Z</time>
      </trkpt>
      <trkpt lat="48.63259" lon="5.04987">
        <ele>233.26</ele>
        <time>2010-06-24T15:10:01Z</time>
      </trkpt>
      <trkpt lat="48.63263" lon="5.05027">
        <ele>232.3</ele>
        <time>2010-06-24T15:10:08Z</time>
      </trkpt>
      <trkpt lat="48.63263" lon="5.0505">
        <ele>230.85</ele>
        <time>2010-06-24T15:10:12Z</time>
      </trkpt>
      <trkpt lat="48.63263" lon="5.05057">
        <ele>230.85</ele>
        <time>2010-06-24T15:10:13Z</time>
      </trkpt>
      <trkpt lat="48.63263" lon="5.05086">
        <ele>230.85</ele>
        <time>2010-06-24T15:10:17Z</time>
      </trkpt>
      <trkpt lat="48.63264" lon="5.05093">
        <ele>230.85</ele>
        <time>2010-06-24T15:10:18Z</time>
      </trkpt>
      <trkpt lat="48.63265" lon="5.05099">
        <ele>230.85</ele>
        <time>2010-06-24T15:10:19Z</time>
      </trkpt>
      <trkpt lat="48.63266" lon="5.05126">
        <ele>229.89</ele>
        <time>2010-06-24T15:10:23Z</time>
      </trkpt>
      <trkpt lat="48.63267" lon="5.05156">
        <ele>227.97</ele>
        <time>2010-06-24T15:10:28Z</time>
      </trkpt>
      <trkpt lat="48.63282" lon="5.05172">
        <ele>229.89</ele>
        <time>2010-06-24T15:10:36Z</time>
      </trkpt>
      <trkpt lat="48.63297" lon="5.05183">
        <ele>230.37</ele>
        <time>2010-06-24T15:10:42Z</time>
      </trkpt>
      <trkpt lat="48.63312" lon="5.05194">
        <ele>230.85</ele>
        <time>2010-06-24T15:10:47Z</time>
      </trkpt>
      <trkpt lat="48.63327" lon="5.05203">
        <ele>231.33</ele>
        <time>2010-06-24T15:10:52Z</time>
      </trkpt>
      <trkpt lat="48.63342" lon="5.05219">
        <ele>231.81</ele>
        <time>2010-06-24T15:10:59Z</time>
      </trkpt>
      <trkpt lat="48.63351" lon="5.05235">
        <ele>232.78</ele>
        <time>2010-06-24T15:11:05Z</time>
      </trkpt>
      <trkpt lat="48.63359" lon="5.05253">
        <ele>233.26</ele>
        <time>2010-06-24T15:11:11Z</time>
      </trkpt>
      <trkpt lat="48.63371" lon="5.05279">
        <ele>234.7</ele>
        <time>2010-06-24T15:11:18Z</time>
      </trkpt>
      <trkpt lat="48.63378" lon="5.05298">
        <ele>234.7</ele>
        <time>2010-06-24T15:11:24Z</time>
      </trkpt>
      <trkpt lat="48.63381" lon="5.05321">
        <ele>235.66</ele>
        <time>2010-06-24T15:11:32Z</time>
      </trkpt>
      <trkpt lat="48.63386" lon="5.05346">
        <ele>236.14</ele>
        <time>2010-06-24T15:11:40Z</time>
      </trkpt>
      <trkpt lat="48.63386" lon="5.05349">
        <ele>236.14</ele>
        <time>2010-06-24T15:11:41Z</time>
      </trkpt>
      <trkpt lat="48.63386" lon="5.05358">
        <ele>236.62</ele>
        <time>2010-06-24T15:11:48Z</time>
      </trkpt>
      <trkpt lat="48.63386" lon="5.05358">
        <ele>236.14</ele>
        <time>2010-06-24T15:11:54Z</time>
      </trkpt>
      <trkpt lat="48.63378" lon="5.05367">
        <ele>236.14</ele>
        <time>2010-06-24T15:11:59Z</time>
      </trkpt>
      <trkpt lat="48.63366" lon="5.05377">
        <ele>237.1</ele>
        <time>2010-06-24T15:12:06Z</time>
      </trkpt>
      <trkpt lat="48.63353" lon="5.05376">
        <ele>236.62</ele>
        <time>2010-06-24T15:12:14Z</time>
      </trkpt>
      <trkpt lat="48.63352" lon="5.05376">
        <ele>236.14</ele>
        <time>2010-06-24T15:12:15Z</time>
      </trkpt>
      <trkpt lat="48.63345" lon="5.0537">
        <ele>235.66</ele>
        <time>2010-06-24T15:12:19Z</time>
      </trkpt>
      <trkpt lat="48.63332" lon="5.05381">
        <ele>236.62</ele>
        <time>2010-06-24T15:12:24Z</time>
      </trkpt>
      <trkpt lat="48.63329" lon="5.05392">
        <ele>236.62</ele>
        <time>2010-06-24T15:12:27Z</time>
      </trkpt>
      <trkpt lat="48.63315" lon="5.05413">
        <ele>237.1</ele>
        <time>2010-06-24T15:12:32Z</time>
      </trkpt>
      <trkpt lat="48.63308" lon="5.0544">
        <ele>237.58</ele>
        <time>2010-06-24T15:12:39Z</time>
      </trkpt>
      <trkpt lat="48.63307" lon="5.05447">
        <ele>238.06</ele>
        <time>2010-06-24T15:12:41Z</time>
      </trkpt>
      <trkpt lat="48.63305" lon="5.05454">
        <ele>239.02</ele>
        <time>2010-06-24T15:12:44Z</time>
      </trkpt>
      <trkpt lat="48.63305" lon="5.05483">
        <ele>239.02</ele>
        <time>2010-06-24T15:12:52Z</time>
      </trkpt>
      <trkpt lat="48.63299" lon="5.0551">
        <ele>239.99</ele>
        <time>2010-06-24T15:12:57Z</time>
      </trkpt>
      <trkpt lat="48.63287" lon="5.05535">
        <ele>239.99</ele>
        <time>2010-06-24T15:13:04Z</time>
      </trkpt>
      <trkpt lat="48.6328" lon="5.05572">
        <ele>239.51</ele>
        <time>2010-06-24T15:13:11Z</time>
      </trkpt>
      <trkpt lat="48.63274" lon="5.05605">
        <ele>239.51</ele>
        <time>2010-06-24T15:13:17Z</time>
      </trkpt>
      <trkpt lat="48.63277" lon="5.05638">
        <ele>239.99</ele>
        <time>2010-06-24T15:13:23Z</time>
      </trkpt>
      <trkpt lat="48.63274" lon="5.05675">
        <ele>239.51</ele>
        <time>2010-06-24T15:13:30Z</time>
      </trkpt>
      <trkpt lat="48.63274" lon="5.05687">
        <ele>239.99</ele>
        <time>2010-06-24T15:13:32Z</time>
      </trkpt>
      <trkpt lat="48.63275" lon="5.05701">
        <ele>239.51</ele>
        <time>2010-06-24T15:13:36Z</time>
      </trkpt>
      <trkpt lat="48.63263" lon="5.05711">
        <ele>239.51</ele>
        <time>2010-06-24T15:13:42Z</time>
      </trkpt>
      <trkpt lat="48.63245" lon="5.05725">
        <ele>239.51</ele>
        <time>2010-06-24T15:13:49Z</time>
      </trkpt>
      <trkpt lat="48.6323" lon="5.05732">
        <ele>239.99</ele>
        <time>2010-06-24T15:13:54Z</time>
      </trkpt>
      <trkpt lat="48.63218" lon="5.0574">
        <ele>240.47</ele>
        <time>2010-06-24T15:13:58Z</time>
      </trkpt>
      <trkpt lat="48.63201" lon="5.05749">
        <ele>240.47</ele>
        <time>2010-06-24T15:14:04Z</time>
      </trkpt>
      <trkpt lat="48.63179" lon="5.05757">
        <ele>240.47</ele>
        <time>2010-06-24T15:14:11Z</time>
      </trkpt>
      <trkpt lat="48.63138" lon="5.05764">
        <ele>239.99</ele>
        <time>2010-06-24T15:14:19Z</time>
      </trkpt>
      <trkpt lat="48.63112" lon="5.05769">
        <ele>239.99</ele>
        <time>2010-06-24T15:14:26Z</time>
      </trkpt>
      <trkpt lat="48.63079" lon="5.05781">
        <ele>239.51</ele>
        <time>2010-06-24T15:14:34Z</time>
      </trkpt>
      <trkpt lat="48.63051" lon="5.05789">
        <ele>239.02</ele>
        <time>2010-06-24T15:14:41Z</time>
      </trkpt>
      <trkpt lat="48.63027" lon="5.058">
        <ele>239.02</ele>
        <time>2010-06-24T15:14:49Z</time>
      </trkpt>
      <trkpt lat="48.62996" lon="5.05802">
        <ele>238.54</ele>
        <time>2010-06-24T15:14:56Z</time>
      </trkpt>
      <trkpt lat="48.62973" lon="5.05805">
        <ele>239.02</ele>
        <time>2010-06-24T15:15:02Z</time>
      </trkpt>
      <trkpt lat="48.62944" lon="5.05808">
        <ele>238.54</ele>
        <time>2010-06-24T15:15:10Z</time>
      </trkpt>
      <trkpt lat="48.6291" lon="5.05811">
        <ele>238.54</ele>
        <time>2010-06-24T15:15:18Z</time>
      </trkpt>
      <trkpt lat="48.6288" lon="5.05817">
        <ele>238.06</ele>
        <time>2010-06-24T15:15:26Z</time>
      </trkpt>
      <trkpt lat="48.62853" lon="5.05821">
        <ele>238.06</ele>
        <time>2010-06-24T15:15:33Z</time>
      </trkpt>
      <trkpt lat="48.62845" lon="5.05822">
        <ele>238.06</ele>
        <time>2010-06-24T15:15:35Z</time>
      </trkpt>
      <trkpt lat="48.62841" lon="5.05824">
        <ele>238.06</ele>
        <time>2010-06-24T15:15:36Z</time>
      </trkpt>
      <trkpt lat="48.62837" lon="5.05825">
        <ele>238.06</ele>
        <time>2010-06-24T15:15:37Z</time>
      </trkpt>
      <trkpt lat="48.62833" lon="5.05825">
        <ele>237.1</ele>
        <time>2010-06-24T15:15:38Z</time>
      </trkpt>
      <trkpt lat="48.6283" lon="5.05825">
        <ele>237.58</ele>
        <time>2010-06-24T15:15:39Z</time>
      </trkpt>
      <trkpt lat="48.62826" lon="5.05825">
        <ele>237.1</ele>
        <time>2010-06-24T15:15:40Z</time>
      </trkpt>
      <trkpt lat="48.62823" lon="5.05824">
        <ele>237.1</ele>
        <time>2010-06-24T15:15:41Z</time>
      </trkpt>
      <trkpt lat="48.62818" lon="5.05822">
        <ele>237.1</ele>
        <time>2010-06-24T15:15:42Z</time>
      </trkpt>
      <trkpt lat="48.628" lon="5.05817">
        <ele>235.66</ele>
        <time>2010-06-24T15:15:46Z</time>
      </trkpt>
      <trkpt lat="48.62797" lon="5.05819">
        <ele>235.18</ele>
        <time>2010-06-24T15:15:47Z</time>
      </trkpt>
      <trkpt lat="48.62794" lon="5.05822">
        <ele>235.66</ele>
        <time>2010-06-24T15:15:48Z</time>
      </trkpt>
      <trkpt lat="48.62792" lon="5.05826">
        <ele>235.18</ele>
        <time>2010-06-24T15:15:49Z</time>
      </trkpt>
      <trkpt lat="48.62785" lon="5.05833">
        <ele>235.18</ele>
        <time>2010-06-24T15:15:52Z</time>
      </trkpt>
      <trkpt lat="48.62783" lon="5.05833">
        <ele>235.66</ele>
        <time>2010-06-24T15:15:53Z</time>
      </trkpt>
      <trkpt lat="48.62765" lon="5.05814">
        <ele>235.18</ele>
        <time>2010-06-24T15:15:58Z</time>
      </trkpt>
      <trkpt lat="48.62754" lon="5.05808">
        <ele>234.22</ele>
        <time>2010-06-24T15:16:01Z</time>
      </trkpt>
      <trkpt lat="48.62724" lon="5.05805">
        <ele>233.74</ele>
        <time>2010-06-24T15:16:08Z</time>
      </trkpt>
      <trkpt lat="48.62706" lon="5.05808">
        <ele>234.22</ele>
        <time>2010-06-24T15:16:13Z</time>
      </trkpt>
      <trkpt lat="48.62682" lon="5.05809">
        <ele>233.74</ele>
        <time>2010-06-24T15:16:20Z</time>
      </trkpt>
      <trkpt lat="48.62668" lon="5.05812">
        <ele>233.26</ele>
        <time>2010-06-24T15:16:26Z</time>
      </trkpt>
      <trkpt lat="48.62664" lon="5.05814">
        <ele>232.78</ele>
        <time>2010-06-24T15:16:27Z</time>
      </trkpt>
      <trkpt lat="48.62659" lon="5.05814">
        <ele>232.3</ele>
        <time>2010-06-24T15:16:28Z</time>
      </trkpt>
      <trkpt lat="48.62653" lon="5.05814">
        <ele>232.3</ele>
        <time>2010-06-24T15:16:29Z</time>
      </trkpt>
      <trkpt lat="48.62647" lon="5.05815">
        <ele>232.3</ele>
        <time>2010-06-24T15:16:30Z</time>
      </trkpt>
      <trkpt lat="48.62641" lon="5.05815">
        <ele>232.78</ele>
        <time>2010-06-24T15:16:31Z</time>
      </trkpt>
      <trkpt lat="48.62604" lon="5.05821">
        <ele>231.81</ele>
        <time>2010-06-24T15:16:38Z</time>
      </trkpt>
      <trkpt lat="48.62554" lon="5.05828">
        <ele>230.37</ele>
        <time>2010-06-24T15:16:46Z</time>
      </trkpt>
      <trkpt lat="48.62544" lon="5.05831">
        <ele>230.37</ele>
        <time>2010-06-24T15:16:48Z</time>
      </trkpt>
      <trkpt lat="48.62521" lon="5.05842">
        <ele>229.89</ele>
        <time>2010-06-24T15:16:54Z</time>
      </trkpt>
      <trkpt lat="48.62517" lon="5.05841">
        <ele>230.37</ele>
        <time>2010-06-24T15:16:55Z</time>
      </trkpt>
      <trkpt lat="48.62513" lon="5.05839">
        <ele>230.85</ele>
        <time>2010-06-24T15:16:56Z</time>
      </trkpt>
      <trkpt lat="48.6251" lon="5.05837">
        <ele>231.81</ele>
        <time>2010-06-24T15:16:57Z</time>
      </trkpt>
      <trkpt lat="48.62492" lon="5.05841">
        <ele>234.22</ele>
        <time>2010-06-24T15:17:03Z</time>
      </trkpt>
      <trkpt lat="48.62469" lon="5.05842">
        <ele>236.62</ele>
        <time>2010-06-24T15:17:09Z</time>
      </trkpt>
      <trkpt lat="48.62465" lon="5.05842">
        <ele>236.62</ele>
        <time>2010-06-24T15:17:10Z</time>
      </trkpt>
      <trkpt lat="48.62446" lon="5.05847">
        <ele>237.58</ele>
        <time>2010-06-24T15:17:17Z</time>
      </trkpt>
      <trkpt lat="48.62424" lon="5.05849">
        <ele>237.58</ele>
        <time>2010-06-24T15:17:23Z</time>
      </trkpt>
      <trkpt lat="48.6241" lon="5.05847">
        <ele>238.06</ele>
        <time>2010-06-24T15:17:27Z</time>
      </trkpt>
      <trkpt lat="48.62408" lon="5.05845">
        <ele>237.1</ele>
        <time>2010-06-24T15:17:28Z</time>
      </trkpt>
      <trkpt lat="48.62406" lon="5.05843">
        <ele>237.58</ele>
        <time>2010-06-24T15:17:29Z</time>
      </trkpt>
      <trkpt lat="48.62405" lon="5.0584">
        <ele>237.1</ele>
        <time>2010-06-24T15:17:30Z</time>
      </trkpt>
      <trkpt lat="48.62399" lon="5.05811">
        <ele>237.1</ele>
        <time>2010-06-24T15:17:37Z</time>
      </trkpt>
      <trkpt lat="48.62395" lon="5.05785">
        <ele>236.62</ele>
        <time>2010-06-24T15:17:43Z</time>
      </trkpt>
      <trkpt lat="48.62393" lon="5.05778">
        <ele>236.62</ele>
        <time>2010-06-24T15:17:44Z</time>
      </trkpt>
      <trkpt lat="48.62392" lon="5.05769">
        <ele>236.62</ele>
        <time>2010-06-24T15:17:47Z</time>
      </trkpt>
      <trkpt lat="48.62397" lon="5.05729">
        <ele>235.66</ele>
        <time>2010-06-24T15:17:54Z</time>
      </trkpt>
      <trkpt lat="48.62395" lon="5.05689">
        <ele>235.18</ele>
        <time>2010-06-24T15:18:00Z</time>
      </trkpt>
      <trkpt lat="48.62394" lon="5.05641">
        <ele>234.7</ele>
        <time>2010-06-24T15:18:07Z</time>
      </trkpt>
      <trkpt lat="48.62405" lon="5.05587">
        <ele>233.74</ele>
        <time>2010-06-24T15:18:15Z</time>
      </trkpt>
      <trkpt lat="48.624" lon="5.05536">
        <ele>232.78</ele>
        <time>2010-06-24T15:18:21Z</time>
      </trkpt>
      <trkpt lat="48.62395" lon="5.05507">
        <ele>232.3</ele>
        <time>2010-06-24T15:18:25Z</time>
      </trkpt>
      <trkpt lat="48.62392" lon="5.05462">
        <ele>231.33</ele>
        <time>2010-06-24T15:18:31Z</time>
      </trkpt>
      <trkpt lat="48.62389" lon="5.05443">
        <ele>231.33</ele>
        <time>2010-06-24T15:18:33Z</time>
      </trkpt>
      <trkpt lat="48.62385" lon="5.05435">
        <ele>231.33</ele>
        <time>2010-06-24T15:18:35Z</time>
      </trkpt>
      <trkpt lat="48.62366" lon="5.05431">
        <ele>231.81</ele>
        <time>2010-06-24T15:18:41Z</time>
      </trkpt>
      <trkpt lat="48.62337" lon="5.05423">
        <ele>231.81</ele>
        <time>2010-06-24T15:18:49Z</time>
      </trkpt>
      <trkpt lat="48.62313" lon="5.05419">
        <ele>231.33</ele>
        <time>2010-06-24T15:18:58Z</time>
      </trkpt>
      <trkpt lat="48.62288" lon="5.05416">
        <ele>231.33</ele>
        <time>2010-06-24T15:19:07Z</time>
      </trkpt>
      <trkpt lat="48.62255" lon="5.05413">
        <ele>231.33</ele>
        <time>2010-06-24T15:19:16Z</time>
      </trkpt>
      <trkpt lat="48.62216" lon="5.05409">
        <ele>230.37</ele>
        <time>2010-06-24T15:19:26Z</time>
      </trkpt>
      <trkpt lat="48.62178" lon="5.05405">
        <ele>230.37</ele>
        <time>2010-06-24T15:19:35Z</time>
      </trkpt>
      <trkpt lat="48.6215" lon="5.05403">
        <ele>229.89</ele>
        <time>2010-06-24T15:19:42Z</time>
      </trkpt>
      <trkpt lat="48.62115" lon="5.05399">
        <ele>229.41</ele>
        <time>2010-06-24T15:19:50Z</time>
      </trkpt>
      <trkpt lat="48.62063" lon="5.05392">
        <ele>227.97</ele>
        <time>2010-06-24T15:20:00Z</time>
      </trkpt>
      <trkpt lat="48.62047" lon="5.05386">
        <ele>227.97</ele>
        <time>2010-06-24T15:20:03Z</time>
      </trkpt>
      <trkpt lat="48.62029" lon="5.05372">
        <ele>228.45</ele>
        <time>2010-06-24T15:20:07Z</time>
      </trkpt>
      <trkpt lat="48.62024" lon="5.05368">
        <ele>228.45</ele>
        <time>2010-06-24T15:20:08Z</time>
      </trkpt>
      <trkpt lat="48.62002" lon="5.05348">
        <ele>229.41</ele>
        <time>2010-06-24T15:20:13Z</time>
      </trkpt>
      <trkpt lat="48.61977" lon="5.05328">
        <ele>228.93</ele>
        <time>2010-06-24T15:20:18Z</time>
      </trkpt>
      <trkpt lat="48.61935" lon="5.05301">
        <ele>227.97</ele>
        <time>2010-06-24T15:20:25Z</time>
      </trkpt>
      <trkpt lat="48.61881" lon="5.05276">
        <ele>227.49</ele>
        <time>2010-06-24T15:20:33Z</time>
      </trkpt>
      <trkpt lat="48.61821" lon="5.05265">
        <ele>225.57</ele>
        <time>2010-06-24T15:20:41Z</time>
      </trkpt>
      <trkpt lat="48.61765" lon="5.05264">
        <ele>225.09</ele>
        <time>2010-06-24T15:20:48Z</time>
      </trkpt>
      <trkpt lat="48.61702" lon="5.05261">
        <ele>224.12</ele>
        <time>2010-06-24T15:20:56Z</time>
      </trkpt>
      <trkpt lat="48.61619" lon="5.05246">
        <ele>223.64</ele>
        <time>2010-06-24T15:21:07Z</time>
      </trkpt>
      <trkpt lat="48.61561" lon="5.05226">
        <ele>222.68</ele>
        <time>2010-06-24T15:21:15Z</time>
      </trkpt>
      <trkpt lat="48.61512" lon="5.05205">
        <ele>221.72</ele>
        <time>2010-06-24T15:21:22Z</time>
      </trkpt>
      <trkpt lat="48.61461" lon="5.05178">
        <ele>219.8</ele>
        <time>2010-06-24T15:21:29Z</time>
      </trkpt>
      <trkpt lat="48.61429" lon="5.05163">
        <ele>217.4</ele>
        <time>2010-06-24T15:21:33Z</time>
      </trkpt>
      <trkpt lat="48.6142" lon="5.05159">
        <ele>216.43</ele>
        <time>2010-06-24T15:21:34Z</time>
      </trkpt>
      <trkpt lat="48.61412" lon="5.05156">
        <ele>216.43</ele>
        <time>2010-06-24T15:21:35Z</time>
      </trkpt>
      <trkpt lat="48.6136" lon="5.05135">
        <ele>213.07</ele>
        <time>2010-06-24T15:21:41Z</time>
      </trkpt>
      <trkpt lat="48.61351" lon="5.05132">
        <ele>212.59</ele>
        <time>2010-06-24T15:21:42Z</time>
      </trkpt>
      <trkpt lat="48.61323" lon="5.05123">
        <ele>210.67</ele>
        <time>2010-06-24T15:21:45Z</time>
      </trkpt>
      <trkpt lat="48.61314" lon="5.05122">
        <ele>209.22</ele>
        <time>2010-06-24T15:21:46Z</time>
      </trkpt>
      <trkpt lat="48.61289" lon="5.0512">
        <ele>207.3</ele>
        <time>2010-06-24T15:21:49Z</time>
      </trkpt>
      <trkpt lat="48.61275" lon="5.05116">
        <ele>205.38</ele>
        <time>2010-06-24T15:21:51Z</time>
      </trkpt>
      <trkpt lat="48.61268" lon="5.05113">
        <ele>204.9</ele>
        <time>2010-06-24T15:21:52Z</time>
      </trkpt>
      <trkpt lat="48.61262" lon="5.05109">
        <ele>203.94</ele>
        <time>2010-06-24T15:21:53Z</time>
      </trkpt>
      <trkpt lat="48.61255" lon="5.05103">
        <ele>203.46</ele>
        <time>2010-06-24T15:21:54Z</time>
      </trkpt>
      <trkpt lat="48.61248" lon="5.05097">
        <ele>202.49</ele>
        <time>2010-06-24T15:21:55Z</time>
      </trkpt>
      <trkpt lat="48.61219" lon="5.05071">
        <ele>199.61</ele>
        <time>2010-06-24T15:21:59Z</time>
      </trkpt>
      <trkpt lat="48.61198" lon="5.05052">
        <ele>196.73</ele>
        <time>2010-06-24T15:22:02Z</time>
      </trkpt>
      <trkpt lat="48.61192" lon="5.05044">
        <ele>195.77</ele>
        <time>2010-06-24T15:22:03Z</time>
      </trkpt>
      <trkpt lat="48.61188" lon="5.05033">
        <ele>194.32</ele>
        <time>2010-06-24T15:22:04Z</time>
      </trkpt>
      <trkpt lat="48.61185" lon="5.05007">
        <ele>191.92</ele>
        <time>2010-06-24T15:22:06Z</time>
      </trkpt>
      <trkpt lat="48.61183" lon="5.04965">
        <ele>189.04</ele>
        <time>2010-06-24T15:22:09Z</time>
      </trkpt>
      <trkpt lat="48.61178" lon="5.04905">
        <ele>184.71</ele>
        <time>2010-06-24T15:22:13Z</time>
      </trkpt>
      <trkpt lat="48.61171" lon="5.04861">
        <ele>180.87</ele>
        <time>2010-06-24T15:22:16Z</time>
      </trkpt>
      <trkpt lat="48.61162" lon="5.04818">
        <ele>177.02</ele>
        <time>2010-06-24T15:22:19Z</time>
      </trkpt>
      <trkpt lat="48.61159" lon="5.04791">
        <ele>175.1</ele>
        <time>2010-06-24T15:22:21Z</time>
      </trkpt>
      <trkpt lat="48.61157" lon="5.04749">
        <ele>171.73</ele>
        <time>2010-06-24T15:22:24Z</time>
      </trkpt>
      <trkpt lat="48.61156" lon="5.04735">
        <ele>171.25</ele>
        <time>2010-06-24T15:22:26Z</time>
      </trkpt>
      <trkpt lat="48.61155" lon="5.04728">
        <ele>170.77</ele>
        <time>2010-06-24T15:22:27Z</time>
      </trkpt>
      <trkpt lat="48.61153" lon="5.04723">
        <ele>170.77</ele>
        <time>2010-06-24T15:22:28Z</time>
      </trkpt>
      <trkpt lat="48.6115" lon="5.04719">
        <ele>169.33</ele>
        <time>2010-06-24T15:22:29Z</time>
      </trkpt>
      <trkpt lat="48.61148" lon="5.04717">
        <ele>170.29</ele>
        <time>2010-06-24T15:22:30Z</time>
      </trkpt>
      <trkpt lat="48.61146" lon="5.04716">
        <ele>169.33</ele>
        <time>2010-06-24T15:22:31Z</time>
      </trkpt>
      <trkpt lat="48.61143" lon="5.04715">
        <ele>168.37</ele>
        <time>2010-06-24T15:22:32Z</time>
      </trkpt>
      <trkpt lat="48.6114" lon="5.04715">
        <ele>168.37</ele>
        <time>2010-06-24T15:22:33Z</time>
      </trkpt>
      <trkpt lat="48.61137" lon="5.04714">
        <ele>167.41</ele>
        <time>2010-06-24T15:22:34Z</time>
      </trkpt>
      <trkpt lat="48.61129" lon="5.04708">
        <ele>166.45</ele>
        <time>2010-06-24T15:22:37Z</time>
      </trkpt>
      <trkpt lat="48.61127" lon="5.04702">
        <ele>165.96</ele>
        <time>2010-06-24T15:22:38Z</time>
      </trkpt>
      <trkpt lat="48.61126" lon="5.04694">
        <ele>165.96</ele>
        <time>2010-06-24T15:22:39Z</time>
      </trkpt>
      <trkpt lat="48.61122" lon="5.04675">
        <ele>165</ele>
        <time>2010-06-24T15:22:43Z</time>
      </trkpt>
      <trkpt lat="48.61118" lon="5.04673">
        <ele>165</ele>
        <time>2010-06-24T15:22:44Z</time>
      </trkpt>
      <trkpt lat="48.61114" lon="5.04672">
        <ele>165.48</ele>
        <time>2010-06-24T15:22:45Z</time>
      </trkpt>
      <trkpt lat="48.61109" lon="5.04672">
        <ele>165</ele>
        <time>2010-06-24T15:22:46Z</time>
      </trkpt>
      <trkpt lat="48.61104" lon="5.04672">
        <ele>164.52</ele>
        <time>2010-06-24T15:22:47Z</time>
      </trkpt>
      <trkpt lat="48.61072" lon="5.04668">
        <ele>163.56</ele>
        <time>2010-06-24T15:22:53Z</time>
      </trkpt>
      <trkpt lat="48.61067" lon="5.04666">
        <ele>163.56</ele>
        <time>2010-06-24T15:22:54Z</time>
      </trkpt>
      <trkpt lat="48.61029" lon="5.04649">
        <ele>161.64</ele>
        <time>2010-06-24T15:23:01Z</time>
      </trkpt>
      <trkpt lat="48.60973" lon="5.04624">
        <ele>160.68</ele>
        <time>2010-06-24T15:23:10Z</time>
      </trkpt>
      <trkpt lat="48.60954" lon="5.04616">
        <ele>159.72</ele>
        <time>2010-06-24T15:23:13Z</time>
      </trkpt>
      <trkpt lat="48.6093" lon="5.04605">
        <ele>159.24</ele>
        <time>2010-06-24T15:23:17Z</time>
      </trkpt>
      <trkpt lat="48.60925" lon="5.04603">
        <ele>159.24</ele>
        <time>2010-06-24T15:23:18Z</time>
      </trkpt>
      <trkpt lat="48.60884" lon="5.04583">
        <ele>159.24</ele>
        <time>2010-06-24T15:23:26Z</time>
      </trkpt>
      <trkpt lat="48.60848" lon="5.04563">
        <ele>158.75</ele>
        <time>2010-06-24T15:23:33Z</time>
      </trkpt>
      <trkpt lat="48.60839" lon="5.04556">
        <ele>159.24</ele>
        <time>2010-06-24T15:23:35Z</time>
      </trkpt>
      <trkpt lat="48.60835" lon="5.04552">
        <ele>158.75</ele>
        <time>2010-06-24T15:23:36Z</time>
      </trkpt>
      <trkpt lat="48.60831" lon="5.04547">
        <ele>159.24</ele>
        <time>2010-06-24T15:23:37Z</time>
      </trkpt>
      <trkpt lat="48.60825" lon="5.04539">
        <ele>159.24</ele>
        <time>2010-06-24T15:23:39Z</time>
      </trkpt>
      <trkpt lat="48.60821" lon="5.04539">
        <ele>158.75</ele>
        <time>2010-06-24T15:23:40Z</time>
      </trkpt>
      <trkpt lat="48.60818" lon="5.04541">
        <ele>159.24</ele>
        <time>2010-06-24T15:23:41Z</time>
      </trkpt>
      <trkpt lat="48.60815" lon="5.04541">
        <ele>159.24</ele>
        <time>2010-06-24T15:23:42Z</time>
      </trkpt>
      <trkpt lat="48.60813" lon="5.04538">
        <ele>158.75</ele>
        <time>2010-06-24T15:23:43Z</time>
      </trkpt>
      <trkpt lat="48.6081" lon="5.04534">
        <ele>159.24</ele>
        <time>2010-06-24T15:23:44Z</time>
      </trkpt>
      <trkpt lat="48.60808" lon="5.04531">
        <ele>159.24</ele>
        <time>2010-06-24T15:23:45Z</time>
      </trkpt>
      <trkpt lat="48.60805" lon="5.04527">
        <ele>158.75</ele>
        <time>2010-06-24T15:23:46Z</time>
      </trkpt>
      <trkpt lat="48.60803" lon="5.04524">
        <ele>159.24</ele>
        <time>2010-06-24T15:23:47Z</time>
      </trkpt>
      <trkpt lat="48.60792" lon="5.04515">
        <ele>159.24</ele>
        <time>2010-06-24T15:23:50Z</time>
      </trkpt>
      <trkpt lat="48.60761" lon="5.04491">
        <ele>158.75</ele>
        <time>2010-06-24T15:23:59Z</time>
      </trkpt>
      <trkpt lat="48.60749" lon="5.04482">
        <ele>158.27</ele>
        <time>2010-06-24T15:24:02Z</time>
      </trkpt>
      <trkpt lat="48.60731" lon="5.04465">
        <ele>158.75</ele>
        <time>2010-06-24T15:24:07Z</time>
      </trkpt>
      <trkpt lat="48.60719" lon="5.04455">
        <ele>158.75</ele>
        <time>2010-06-24T15:24:10Z</time>
      </trkpt>
      <trkpt lat="48.60704" lon="5.04441">
        <ele>158.75</ele>
        <time>2010-06-24T15:24:14Z</time>
      </trkpt>
      <trkpt lat="48.60671" lon="5.04417">
        <ele>159.24</ele>
        <time>2010-06-24T15:24:22Z</time>
      </trkpt>
      <trkpt lat="48.6065" lon="5.04398">
        <ele>159.24</ele>
        <time>2010-06-24T15:24:27Z</time>
      </trkpt>
      <trkpt lat="48.60617" lon="5.04372">
        <ele>159.72</ele>
        <time>2010-06-24T15:24:35Z</time>
      </trkpt>
      <trkpt lat="48.60612" lon="5.04371">
        <ele>159.24</ele>
        <time>2010-06-24T15:24:36Z</time>
      </trkpt>
      <trkpt lat="48.60608" lon="5.0437">
        <ele>159.72</ele>
        <time>2010-06-24T15:24:37Z</time>
      </trkpt>
      <trkpt lat="48.60603" lon="5.04371">
        <ele>159.72</ele>
        <time>2010-06-24T15:24:38Z</time>
      </trkpt>
      <trkpt lat="48.60599" lon="5.04375">
        <ele>159.24</ele>
        <time>2010-06-24T15:24:39Z</time>
      </trkpt>
      <trkpt lat="48.60594" lon="5.04379">
        <ele>159.72</ele>
        <time>2010-06-24T15:24:40Z</time>
      </trkpt>
      <trkpt lat="48.6059" lon="5.04383">
        <ele>160.2</ele>
        <time>2010-06-24T15:24:41Z</time>
      </trkpt>
      <trkpt lat="48.60586" lon="5.04389">
        <ele>159.72</ele>
        <time>2010-06-24T15:24:42Z</time>
      </trkpt>
      <trkpt lat="48.60583" lon="5.04395">
        <ele>160.2</ele>
        <time>2010-06-24T15:24:43Z</time>
      </trkpt>
      <trkpt lat="48.60581" lon="5.044">
        <ele>159.72</ele>
        <time>2010-06-24T15:24:44Z</time>
      </trkpt>
      <trkpt lat="48.60579" lon="5.04407">
        <ele>160.2</ele>
        <time>2010-06-24T15:24:45Z</time>
      </trkpt>
      <trkpt lat="48.60577" lon="5.04412">
        <ele>160.2</ele>
        <time>2010-06-24T15:24:46Z</time>
      </trkpt>
      <trkpt lat="48.6056" lon="5.04465">
        <ele>160.68</ele>
        <time>2010-06-24T15:24:55Z</time>
      </trkpt>
      <trkpt lat="48.60553" lon="5.0448">
        <ele>160.68</ele>
        <time>2010-06-24T15:24:59Z</time>
      </trkpt>
      <trkpt lat="48.60551" lon="5.0448">
        <ele>161.16</ele>
        <time>2010-06-24T15:25:00Z</time>
      </trkpt>
      <trkpt lat="48.60532" lon="5.04466">
        <ele>161.64</ele>
        <time>2010-06-24T15:25:05Z</time>
      </trkpt>
      <trkpt lat="48.60515" lon="5.04448">
        <ele>161.64</ele>
        <time>2010-06-24T15:25:10Z</time>
      </trkpt>
      <trkpt lat="48.60504" lon="5.04441">
        <ele>161.64</ele>
        <time>2010-06-24T15:25:13Z</time>
      </trkpt>
      <trkpt lat="48.605" lon="5.04441">
        <ele>161.64</ele>
        <time>2010-06-24T15:25:14Z</time>
      </trkpt>
      <trkpt lat="48.60496" lon="5.04444">
        <ele>161.64</ele>
        <time>2010-06-24T15:25:15Z</time>
      </trkpt>
      <trkpt lat="48.60471" lon="5.04458">
        <ele>162.12</ele>
        <time>2010-06-24T15:25:21Z</time>
      </trkpt>
      <trkpt lat="48.60468" lon="5.04461">
        <ele>162.12</ele>
        <time>2010-06-24T15:25:22Z</time>
      </trkpt>
      <trkpt lat="48.60464" lon="5.04464">
        <ele>162.6</ele>
        <time>2010-06-24T15:25:23Z</time>
      </trkpt>
      <trkpt lat="48.60461" lon="5.04468">
        <ele>162.6</ele>
        <time>2010-06-24T15:25:24Z</time>
      </trkpt>
      <trkpt lat="48.60458" lon="5.04473">
        <ele>162.6</ele>
        <time>2010-06-24T15:25:25Z</time>
      </trkpt>
      <trkpt lat="48.60456" lon="5.04478">
        <ele>162.6</ele>
        <time>2010-06-24T15:25:26Z</time>
      </trkpt>
      <trkpt lat="48.60449" lon="5.04494">
        <ele>162.6</ele>
        <time>2010-06-24T15:25:29Z</time>
      </trkpt>
      <trkpt lat="48.60445" lon="5.04512">
        <ele>162.6</ele>
        <time>2010-06-24T15:25:32Z</time>
      </trkpt>
      <trkpt lat="48.60431" lon="5.0457">
        <ele>163.08</ele>
        <time>2010-06-24T15:25:42Z</time>
      </trkpt>
      <trkpt lat="48.60421" lon="5.04615">
        <ele>164.04</ele>
        <time>2010-06-24T15:25:51Z</time>
      </trkpt>
      <trkpt lat="48.60412" lon="5.04667">
        <ele>165.96</ele>
        <time>2010-06-24T15:25:59Z</time>
      </trkpt>
      <trkpt lat="48.60409" lon="5.0467">
        <ele>165.48</ele>
        <time>2010-06-24T15:26:00Z</time>
      </trkpt>
      <trkpt lat="48.60407" lon="5.04671">
        <ele>165.96</ele>
        <time>2010-06-24T15:26:01Z</time>
      </trkpt>
      <trkpt lat="48.60401" lon="5.0467">
        <ele>166.45</ele>
        <time>2010-06-24T15:26:03Z</time>
      </trkpt>
      <trkpt lat="48.60369" lon="5.04658">
        <ele>165.48</ele>
        <time>2010-06-24T15:26:10Z</time>
      </trkpt>
      <trkpt lat="48.60338" lon="5.04645">
        <ele>166.45</ele>
        <time>2010-06-24T15:26:18Z</time>
      </trkpt>
      <trkpt lat="48.60324" lon="5.04635">
        <ele>166.45</ele>
        <time>2010-06-24T15:26:23Z</time>
      </trkpt>
      <trkpt lat="48.60321" lon="5.04636">
        <ele>166.93</ele>
        <time>2010-06-24T15:26:24Z</time>
      </trkpt>
      <trkpt lat="48.60318" lon="5.04639">
        <ele>166.93</ele>
        <time>2010-06-24T15:26:25Z</time>
      </trkpt>
      <trkpt lat="48.60316" lon="5.04644">
        <ele>166.93</ele>
        <time>2010-06-24T15:26:26Z</time>
      </trkpt>
      <trkpt lat="48.60314" lon="5.04648">
        <ele>166.93</ele>
        <time>2010-06-24T15:26:27Z</time>
      </trkpt>
      <trkpt lat="48.60312" lon="5.04652">
        <ele>167.41</ele>
        <time>2010-06-24T15:26:28Z</time>
      </trkpt>
      <trkpt lat="48.6031" lon="5.04657">
        <ele>167.41</ele>
        <time>2010-06-24T15:26:29Z</time>
      </trkpt>
      <trkpt lat="48.60291" lon="5.04705">
        <ele>168.85</ele>
        <time>2010-06-24T15:26:40Z</time>
      </trkpt>
      <trkpt lat="48.6028" lon="5.04733">
        <ele>169.81</ele>
        <time>2010-06-24T15:26:47Z</time>
      </trkpt>
      <trkpt lat="48.60262" lon="5.04778">
        <ele>171.25</ele>
        <time>2010-06-24T15:26:58Z</time>
      </trkpt>
      <trkpt lat="48.60244" lon="5.04805">
        <ele>173.17</ele>
        <time>2010-06-24T15:27:06Z</time>
      </trkpt>
      <trkpt lat="48.60229" lon="5.04828">
        <ele>175.1</ele>
        <time>2010-06-24T15:27:14Z</time>
      </trkpt>
      <trkpt lat="48.60215" lon="5.04841">
        <ele>176.54</ele>
        <time>2010-06-24T15:27:21Z</time>
      </trkpt>
      <trkpt lat="48.60208" lon="5.04853">
        <ele>177.98</ele>
        <time>2010-06-24T15:27:25Z</time>
      </trkpt>
      <trkpt lat="48.60197" lon="5.0487">
        <ele>178.94</ele>
        <time>2010-06-24T15:27:31Z</time>
      </trkpt>
      <trkpt lat="48.60182" lon="5.04888">
        <ele>181.35</ele>
        <time>2010-06-24T15:27:37Z</time>
      </trkpt>
      <trkpt lat="48.60174" lon="5.04905">
        <ele>183.27</ele>
        <time>2010-06-24T15:27:43Z</time>
      </trkpt>
      <trkpt lat="48.6017" lon="5.04922">
        <ele>184.71</ele>
        <time>2010-06-24T15:27:49Z</time>
      </trkpt>
      <trkpt lat="48.60165" lon="5.04933">
        <ele>186.15</ele>
        <time>2010-06-24T15:27:55Z</time>
      </trkpt>
      <trkpt lat="48.60165" lon="5.04938">
        <ele>186.63</ele>
        <time>2010-06-24T15:28:02Z</time>
      </trkpt>
      <trkpt lat="48.60162" lon="5.04945">
        <ele>187.59</ele>
        <time>2010-06-24T15:28:05Z</time>
      </trkpt>
      <trkpt lat="48.60164" lon="5.04954">
        <ele>188.08</ele>
        <time>2010-06-24T15:28:08Z</time>
      </trkpt>
      <trkpt lat="48.60167" lon="5.04962">
        <ele>189.52</ele>
        <time>2010-06-24T15:28:11Z</time>
      </trkpt>
      <trkpt lat="48.60168" lon="5.04966">
        <ele>189.52</ele>
        <time>2010-06-24T15:28:12Z</time>
      </trkpt>
      <trkpt lat="48.60168" lon="5.04979">
        <ele>190</ele>
        <time>2010-06-24T15:28:16Z</time>
      </trkpt>
      <trkpt lat="48.60166" lon="5.04997">
        <ele>192.4</ele>
        <time>2010-06-24T15:28:23Z</time>
      </trkpt>
      <trkpt lat="48.60166" lon="5.05001">
        <ele>192.88</ele>
        <time>2010-06-24T15:28:24Z</time>
      </trkpt>
      <trkpt lat="48.60166" lon="5.05004">
        <ele>192.88</ele>
        <time>2010-06-24T15:28:25Z</time>
      </trkpt>
      <trkpt lat="48.60165" lon="5.05007">
        <ele>193.36</ele>
        <time>2010-06-24T15:28:26Z</time>
      </trkpt>
      <trkpt lat="48.60166" lon="5.05024">
        <ele>194.8</ele>
        <time>2010-06-24T15:28:32Z</time>
      </trkpt>
      <trkpt lat="48.60169" lon="5.05029">
        <ele>195.28</ele>
        <time>2010-06-24T15:28:35Z</time>
      </trkpt>
      <trkpt lat="48.60171" lon="5.05031">
        <ele>195.28</ele>
        <time>2010-06-24T15:28:36Z</time>
      </trkpt>
      <trkpt lat="48.60173" lon="5.05031">
        <ele>195.28</ele>
        <time>2010-06-24T15:28:37Z</time>
      </trkpt>
      <trkpt lat="48.60175" lon="5.05031">
        <ele>195.77</ele>
        <time>2010-06-24T15:28:38Z</time>
      </trkpt>
      <trkpt lat="48.60176" lon="5.0503">
        <ele>195.77</ele>
        <time>2010-06-24T15:28:39Z</time>
      </trkpt>
      <trkpt lat="48.60177" lon="5.0503">
        <ele>195.77</ele>
        <time>2010-06-24T15:28:40Z</time>
      </trkpt>
      <trkpt lat="48.6018" lon="5.05027">
        <ele>195.77</ele>
        <time>2010-06-24T15:28:42Z</time>
      </trkpt>
      <trkpt lat="48.60183" lon="5.0502">
        <ele>196.25</ele>
        <time>2010-06-24T15:28:45Z</time>
      </trkpt>
      <trkpt lat="48.60184" lon="5.05018">
        <ele>196.25</ele>
        <time>2010-06-24T15:28:46Z</time>
      </trkpt>
      <trkpt lat="48.60185" lon="5.05016">
        <ele>196.25</ele>
        <time>2010-06-24T15:28:47Z</time>
      </trkpt>
      <trkpt lat="48.60187" lon="5.05014">
        <ele>196.73</ele>
        <time>2010-06-24T15:28:48Z</time>
      </trkpt>
      <trkpt lat="48.60188" lon="5.05012">
        <ele>196.73</ele>
        <time>2010-06-24T15:28:49Z</time>
      </trkpt>
      <trkpt lat="48.60189" lon="5.0501">
        <ele>196.73</ele>
        <time>2010-06-24T15:28:50Z</time>
      </trkpt>
      <trkpt lat="48.6019" lon="5.05007">
        <ele>197.21</ele>
        <time>2010-06-24T15:28:51Z</time>
      </trkpt>
      <trkpt lat="48.60192" lon="5.05005">
        <ele>197.21</ele>
        <time>2010-06-24T15:28:52Z</time>
      </trkpt>
      <trkpt lat="48.60193" lon="5.05002">
        <ele>197.21</ele>
        <time>2010-06-24T15:28:53Z</time>
      </trkpt>
      <trkpt lat="48.60198" lon="5.04995">
        <ele>198.17</ele>
        <time>2010-06-24T15:28:58Z</time>
      </trkpt>
      <trkpt lat="48.60201" lon="5.04993">
        <ele>198.65</ele>
        <time>2010-06-24T15:29:00Z</time>
      </trkpt>
      <trkpt lat="48.60203" lon="5.04993">
        <ele>198.17</ele>
        <time>2010-06-24T15:29:01Z</time>
      </trkpt>
      <trkpt lat="48.60205" lon="5.04993">
        <ele>198.65</ele>
        <time>2010-06-24T15:29:02Z</time>
      </trkpt>
      <trkpt lat="48.60206" lon="5.04993">
        <ele>199.13</ele>
        <time>2010-06-24T15:29:03Z</time>
      </trkpt>
      <trkpt lat="48.60209" lon="5.04993">
        <ele>199.13</ele>
        <time>2010-06-24T15:29:04Z</time>
      </trkpt>
      <trkpt lat="48.60211" lon="5.04993">
        <ele>199.13</ele>
        <time>2010-06-24T15:29:05Z</time>
      </trkpt>
      <trkpt lat="48.60214" lon="5.04994">
        <ele>199.13</ele>
        <time>2010-06-24T15:29:06Z</time>
      </trkpt>
      <trkpt lat="48.60234" lon="5.05008">
        <ele>200.57</ele>
        <time>2010-06-24T15:29:15Z</time>
      </trkpt>
      <trkpt lat="48.60247" lon="5.05022">
        <ele>201.53</ele>
        <time>2010-06-24T15:29:22Z</time>
      </trkpt>
      <trkpt lat="48.60259" lon="5.0504">
        <ele>202.49</ele>
        <time>2010-06-24T15:29:29Z</time>
      </trkpt>
      <trkpt lat="48.60273" lon="5.05051">
        <ele>202.98</ele>
        <time>2010-06-24T15:29:35Z</time>
      </trkpt>
      <trkpt lat="48.60295" lon="5.05063">
        <ele>204.42</ele>
        <time>2010-06-24T15:29:42Z</time>
      </trkpt>
      <trkpt lat="48.60314" lon="5.05066">
        <ele>205.38</ele>
        <time>2010-06-24T15:29:49Z</time>
      </trkpt>
      <trkpt lat="48.60329" lon="5.05068">
        <ele>204.9</ele>
        <time>2010-06-24T15:29:54Z</time>
      </trkpt>
      <trkpt lat="48.60344" lon="5.05066">
        <ele>205.86</ele>
        <time>2010-06-24T15:30:02Z</time>
      </trkpt>
      <trkpt lat="48.60366" lon="5.05061">
        <ele>205.86</ele>
        <time>2010-06-24T15:30:11Z</time>
      </trkpt>
      <trkpt lat="48.60388" lon="5.05062">
        <ele>205.38</ele>
        <time>2010-06-24T15:30:18Z</time>
      </trkpt>
      <trkpt lat="48.60412" lon="5.05061">
        <ele>204.42</ele>
        <time>2010-06-24T15:30:26Z</time>
      </trkpt>
      <trkpt lat="48.60433" lon="5.05065">
        <ele>205.38</ele>
        <time>2010-06-24T15:30:33Z</time>
      </trkpt>
      <trkpt lat="48.60457" lon="5.05079">
        <ele>205.38</ele>
        <time>2010-06-24T15:30:41Z</time>
      </trkpt>
      <trkpt lat="48.60477" lon="5.05108">
        <ele>205.86</ele>
        <time>2010-06-24T15:30:49Z</time>
      </trkpt>
      <trkpt lat="48.60501" lon="5.05151">
        <ele>207.3</ele>
        <time>2010-06-24T15:31:00Z</time>
      </trkpt>
      <trkpt lat="48.60521" lon="5.05185">
        <ele>207.78</ele>
        <time>2010-06-24T15:31:09Z</time>
      </trkpt>
      <trkpt lat="48.60542" lon="5.05202">
        <ele>208.26</ele>
        <time>2010-06-24T15:31:16Z</time>
      </trkpt>
      <trkpt lat="48.6057" lon="5.05202">
        <ele>206.82</ele>
        <time>2010-06-24T15:31:23Z</time>
      </trkpt>
      <trkpt lat="48.60583" lon="5.05198">
        <ele>206.82</ele>
        <time>2010-06-24T15:31:26Z</time>
      </trkpt>
      <trkpt lat="48.606" lon="5.05191">
        <ele>206.34</ele>
        <time>2010-06-24T15:31:30Z</time>
      </trkpt>
      <trkpt lat="48.60628" lon="5.05172">
        <ele>205.38</ele>
        <time>2010-06-24T15:31:38Z</time>
      </trkpt>
      <trkpt lat="48.60663" lon="5.05148">
        <ele>202.98</ele>
        <time>2010-06-24T15:31:47Z</time>
      </trkpt>
      <trkpt lat="48.60675" lon="5.05137">
        <ele>202.49</ele>
        <time>2010-06-24T15:31:50Z</time>
      </trkpt>
      <trkpt lat="48.60693" lon="5.05119">
        <ele>201.05</ele>
        <time>2010-06-24T15:31:54Z</time>
      </trkpt>
      <trkpt lat="48.60703" lon="5.05107">
        <ele>199.61</ele>
        <time>2010-06-24T15:31:56Z</time>
      </trkpt>
      <trkpt lat="48.60737" lon="5.05068">
        <ele>198.17</ele>
        <time>2010-06-24T15:32:02Z</time>
      </trkpt>
      <trkpt lat="48.6077" lon="5.05024">
        <ele>197.21</ele>
        <time>2010-06-24T15:32:08Z</time>
      </trkpt>
      <trkpt lat="48.60785" lon="5.05003">
        <ele>195.77</ele>
        <time>2010-06-24T15:32:12Z</time>
      </trkpt>
      <trkpt lat="48.60801" lon="5.04988">
        <ele>195.28</ele>
        <time>2010-06-24T15:32:16Z</time>
      </trkpt>
      <trkpt lat="48.60832" lon="5.04965">
        <ele>192.88</ele>
        <time>2010-06-24T15:32:22Z</time>
      </trkpt>
      <trkpt lat="48.60859" lon="5.04944">
        <ele>190.96</ele>
        <time>2010-06-24T15:32:27Z</time>
      </trkpt>
      <trkpt lat="48.6087" lon="5.04939">
        <ele>189.04</ele>
        <time>2010-06-24T15:32:29Z</time>
      </trkpt>
      <trkpt lat="48.60882" lon="5.04937">
        <ele>188.08</ele>
        <time>2010-06-24T15:32:31Z</time>
      </trkpt>
      <trkpt lat="48.60894" lon="5.04934">
        <ele>186.15</ele>
        <time>2010-06-24T15:32:33Z</time>
      </trkpt>
      <trkpt lat="48.60899" lon="5.04932">
        <ele>185.67</ele>
        <time>2010-06-24T15:32:34Z</time>
      </trkpt>
      <trkpt lat="48.6091" lon="5.04925">
        <ele>184.23</ele>
        <time>2010-06-24T15:32:37Z</time>
      </trkpt>
      <trkpt lat="48.60913" lon="5.04924">
        <ele>184.23</ele>
        <time>2010-06-24T15:32:38Z</time>
      </trkpt>
      <trkpt lat="48.60916" lon="5.04924">
        <ele>183.75</ele>
        <time>2010-06-24T15:32:39Z</time>
      </trkpt>
      <trkpt lat="48.60918" lon="5.04926">
        <ele>183.75</ele>
        <time>2010-06-24T15:32:40Z</time>
      </trkpt>
      <trkpt lat="48.6092" lon="5.04929">
        <ele>183.27</ele>
        <time>2010-06-24T15:32:41Z</time>
      </trkpt>
      <trkpt lat="48.6092" lon="5.04932">
        <ele>182.79</ele>
        <time>2010-06-24T15:32:42Z</time>
      </trkpt>
      <trkpt lat="48.60921" lon="5.04935">
        <ele>182.31</ele>
        <time>2010-06-24T15:32:43Z</time>
      </trkpt>
      <trkpt lat="48.60921" lon="5.04939">
        <ele>182.31</ele>
        <time>2010-06-24T15:32:44Z</time>
      </trkpt>
      <trkpt lat="48.6092" lon="5.04942">
        <ele>181.35</ele>
        <time>2010-06-24T15:32:45Z</time>
      </trkpt>
      <trkpt lat="48.60919" lon="5.04946">
        <ele>181.35</ele>
        <time>2010-06-24T15:32:46Z</time>
      </trkpt>
      <trkpt lat="48.60913" lon="5.04954">
        <ele>179.9</ele>
        <time>2010-06-24T15:32:48Z</time>
      </trkpt>
      <trkpt lat="48.60887" lon="5.04981">
        <ele>177.02</ele>
        <time>2010-06-24T15:32:53Z</time>
      </trkpt>
      <trkpt lat="48.6086" lon="5.05012">
        <ele>173.66</ele>
        <time>2010-06-24T15:32:57Z</time>
      </trkpt>
      <trkpt lat="48.60835" lon="5.05042">
        <ele>169.81</ele>
        <time>2010-06-24T15:33:01Z</time>
      </trkpt>
      <trkpt lat="48.60792" lon="5.05102">
        <ele>166.45</ele>
        <time>2010-06-24T15:33:09Z</time>
      </trkpt>
      <trkpt lat="48.60773" lon="5.05134">
        <ele>166.93</ele>
        <time>2010-06-24T15:33:14Z</time>
      </trkpt>
      <trkpt lat="48.60757" lon="5.05157">
        <ele>166.45</ele>
        <time>2010-06-24T15:33:18Z</time>
      </trkpt>
      <trkpt lat="48.60728" lon="5.05186">
        <ele>166.45</ele>
        <time>2010-06-24T15:33:25Z</time>
      </trkpt>
      <trkpt lat="48.6071" lon="5.05223">
        <ele>166.93</ele>
        <time>2010-06-24T15:33:33Z</time>
      </trkpt>
      <trkpt lat="48.607" lon="5.05245">
        <ele>167.41</ele>
        <time>2010-06-24T15:33:39Z</time>
      </trkpt>
      <trkpt lat="48.607" lon="5.05251">
        <ele>167.89</ele>
        <time>2010-06-24T15:33:40Z</time>
      </trkpt>
      <trkpt lat="48.60699" lon="5.05256">
        <ele>167.41</ele>
        <time>2010-06-24T15:33:41Z</time>
      </trkpt>
      <trkpt lat="48.60698" lon="5.05281">
        <ele>167.89</ele>
        <time>2010-06-24T15:33:48Z</time>
      </trkpt>
      <trkpt lat="48.60698" lon="5.05281">
        <ele>168.37</ele>
        <time>2010-06-24T15:33:57Z</time>
      </trkpt>
      <trkpt lat="48.60701" lon="5.05289">
        <ele>167.41</ele>
        <time>2010-06-24T15:34:03Z</time>
      </trkpt>
      <trkpt lat="48.60701" lon="5.05289">
        <ele>167.89</ele>
        <time>2010-06-24T15:34:15Z</time>
      </trkpt>
      <trkpt lat="48.60711" lon="5.05309">
        <ele>167.41</ele>
        <time>2010-06-24T15:34:26Z</time>
      </trkpt>
      <trkpt lat="48.60713" lon="5.0532">
        <ele>168.37</ele>
        <time>2010-06-24T15:34:34Z</time>
      </trkpt>
      <trkpt lat="48.60716" lon="5.05331">
        <ele>168.37</ele>
        <time>2010-06-24T15:34:41Z</time>
      </trkpt>
      <trkpt lat="48.60717" lon="5.05337">
        <ele>167.41</ele>
        <time>2010-06-24T15:34:49Z</time>
      </trkpt>
      <trkpt lat="48.60714" lon="5.05344">
        <ele>167.41</ele>
        <time>2010-06-24T15:34:53Z</time>
      </trkpt>
      <trkpt lat="48.6071" lon="5.05351">
        <ele>167.89</ele>
        <time>2010-06-24T15:34:56Z</time>
      </trkpt>
      <trkpt lat="48.60712" lon="5.0537">
        <ele>166.93</ele>
        <time>2010-06-24T15:35:00Z</time>
      </trkpt>
      <trkpt lat="48.6072" lon="5.05415">
        <ele>167.41</ele>
        <time>2010-06-24T15:35:08Z</time>
      </trkpt>
      <trkpt lat="48.60722" lon="5.05446">
        <ele>166.93</ele>
        <time>2010-06-24T15:35:14Z</time>
      </trkpt>
      <trkpt lat="48.60727" lon="5.05478">
        <ele>165.96</ele>
        <time>2010-06-24T15:35:20Z</time>
      </trkpt>
      <trkpt lat="48.60734" lon="5.05507">
        <ele>166.93</ele>
        <time>2010-06-24T15:35:25Z</time>
      </trkpt>
      <trkpt lat="48.60746" lon="5.0555">
        <ele>167.41</ele>
        <time>2010-06-24T15:35:33Z</time>
      </trkpt>
      <trkpt lat="48.60756" lon="5.05583">
        <ele>167.89</ele>
        <time>2010-06-24T15:35:39Z</time>
      </trkpt>
      <trkpt lat="48.60771" lon="5.05619">
        <ele>168.85</ele>
        <time>2010-06-24T15:35:47Z</time>
      </trkpt>
      <trkpt lat="48.60778" lon="5.05633">
        <ele>168.85</ele>
        <time>2010-06-24T15:35:53Z</time>
      </trkpt>
      <trkpt lat="48.60778" lon="5.05636">
        <ele>168.85</ele>
        <time>2010-06-24T15:35:55Z</time>
      </trkpt>
      <trkpt lat="48.6078" lon="5.05654">
        <ele>170.77</ele>
        <time>2010-06-24T15:36:02Z</time>
      </trkpt>
      <trkpt lat="48.60783" lon="5.05662">
        <ele>171.25</ele>
        <time>2010-06-24T15:36:04Z</time>
      </trkpt>
      <trkpt lat="48.60791" lon="5.05684">
        <ele>172.69</ele>
        <time>2010-06-24T15:36:11Z</time>
      </trkpt>
      <trkpt lat="48.60797" lon="5.05694">
        <ele>172.69</ele>
        <time>2010-06-24T15:36:14Z</time>
      </trkpt>
      <trkpt lat="48.60813" lon="5.05713">
        <ele>174.14</ele>
        <time>2010-06-24T15:36:20Z</time>
      </trkpt>
      <trkpt lat="48.60823" lon="5.05725">
        <ele>174.62</ele>
        <time>2010-06-24T15:36:25Z</time>
      </trkpt>
      <trkpt lat="48.60841" lon="5.05746">
        <ele>176.54</ele>
        <time>2010-06-24T15:36:33Z</time>
      </trkpt>
      <trkpt lat="48.60855" lon="5.05758">
        <ele>177.02</ele>
        <time>2010-06-24T15:36:39Z</time>
      </trkpt>
      <trkpt lat="48.60872" lon="5.05773">
        <ele>178.46</ele>
        <time>2010-06-24T15:36:46Z</time>
      </trkpt>
      <trkpt lat="48.60894" lon="5.05793">
        <ele>180.87</ele>
        <time>2010-06-24T15:36:53Z</time>
      </trkpt>
      <trkpt lat="48.60913" lon="5.05808">
        <ele>182.31</ele>
        <time>2010-06-24T15:36:59Z</time>
      </trkpt>
      <trkpt lat="48.60927" lon="5.05818">
        <ele>183.75</ele>
        <time>2010-06-24T15:37:04Z</time>
      </trkpt>
      <trkpt lat="48.60937" lon="5.0583">
        <ele>185.19</ele>
        <time>2010-06-24T15:37:10Z</time>
      </trkpt>
      <trkpt lat="48.60946" lon="5.05841">
        <ele>186.63</ele>
        <time>2010-06-24T15:37:16Z</time>
      </trkpt>
      <trkpt lat="48.60959" lon="5.05855">
        <ele>187.59</ele>
        <time>2010-06-24T15:37:22Z</time>
      </trkpt>
      <trkpt lat="48.60972" lon="5.05869">
        <ele>189.04</ele>
        <time>2010-06-24T15:37:29Z</time>
      </trkpt>
      <trkpt lat="48.60986" lon="5.05882">
        <ele>190.96</ele>
        <time>2010-06-24T15:37:37Z</time>
      </trkpt>
      <trkpt lat="48.60989" lon="5.0589">
        <ele>191.44</ele>
        <time>2010-06-24T15:37:40Z</time>
      </trkpt>
      <trkpt lat="48.60991" lon="5.05901">
        <ele>192.88</ele>
        <time>2010-06-24T15:37:44Z</time>
      </trkpt>
      <trkpt lat="48.60992" lon="5.05907">
        <ele>193.84</ele>
        <time>2010-06-24T15:37:51Z</time>
      </trkpt>
      <trkpt lat="48.60992" lon="5.05903">
        <ele>192.88</ele>
        <time>2010-06-24T15:37:58Z</time>
      </trkpt>
      <trkpt lat="48.60992" lon="5.05902">
        <ele>191.92</ele>
        <time>2010-06-24T15:38:04Z</time>
      </trkpt>
      <trkpt lat="48.60992" lon="5.05902">
        <ele>191.92</ele>
        <time>2010-06-24T15:38:07Z</time>
      </trkpt>
      <trkpt lat="48.60994" lon="5.0591">
        <ele>193.36</ele>
        <time>2010-06-24T15:38:14Z</time>
      </trkpt>
      <trkpt lat="48.61001" lon="5.05926">
        <ele>195.28</ele>
        <time>2010-06-24T15:38:22Z</time>
      </trkpt>
      <trkpt lat="48.61005" lon="5.05945">
        <ele>197.21</ele>
        <time>2010-06-24T15:38:29Z</time>
      </trkpt>
      <trkpt lat="48.61009" lon="5.05965">
        <ele>198.65</ele>
        <time>2010-06-24T15:38:37Z</time>
      </trkpt>
      <trkpt lat="48.6101" lon="5.05984">
        <ele>200.57</ele>
        <time>2010-06-24T15:38:45Z</time>
      </trkpt>
      <trkpt lat="48.61009" lon="5.05989">
        <ele>201.53</ele>
        <time>2010-06-24T15:38:47Z</time>
      </trkpt>
      <trkpt lat="48.61011" lon="5.06003">
        <ele>202.49</ele>
        <time>2010-06-24T15:38:52Z</time>
      </trkpt>
      <trkpt lat="48.61009" lon="5.06018">
        <ele>203.46</ele>
        <time>2010-06-24T15:38:58Z</time>
      </trkpt>
      <trkpt lat="48.61009" lon="5.0603">
        <ele>203.94</ele>
        <time>2010-06-24T15:39:03Z</time>
      </trkpt>
      <trkpt lat="48.61011" lon="5.06037">
        <ele>205.38</ele>
        <time>2010-06-24T15:39:06Z</time>
      </trkpt>
      <trkpt lat="48.6101" lon="5.06046">
        <ele>205.86</ele>
        <time>2010-06-24T15:39:10Z</time>
      </trkpt>
      <trkpt lat="48.61" lon="5.0607">
        <ele>207.3</ele>
        <time>2010-06-24T15:39:20Z</time>
      </trkpt>
      <trkpt lat="48.60991" lon="5.06092">
        <ele>208.74</ele>
        <time>2010-06-24T15:39:30Z</time>
      </trkpt>
      <trkpt lat="48.60985" lon="5.06114">
        <ele>209.22</ele>
        <time>2010-06-24T15:39:37Z</time>
      </trkpt>
      <trkpt lat="48.6098" lon="5.06124">
        <ele>209.7</ele>
        <time>2010-06-24T15:39:42Z</time>
      </trkpt>
      <trkpt lat="48.60976" lon="5.06131">
        <ele>210.67</ele>
        <time>2010-06-24T15:39:47Z</time>
      </trkpt>
      <trkpt lat="48.60971" lon="5.06154">
        <ele>210.67</ele>
        <time>2010-06-24T15:39:54Z</time>
      </trkpt>
      <trkpt lat="48.60965" lon="5.06182">
        <ele>212.11</ele>
        <time>2010-06-24T15:40:02Z</time>
      </trkpt>
      <trkpt lat="48.60961" lon="5.06205">
        <ele>212.11</ele>
        <time>2010-06-24T15:40:09Z</time>
      </trkpt>
      <trkpt lat="48.60958" lon="5.06219">
        <ele>212.11</ele>
        <time>2010-06-24T15:40:15Z</time>
      </trkpt>
      <trkpt lat="48.60956" lon="5.06241">
        <ele>213.07</ele>
        <time>2010-06-24T15:40:22Z</time>
      </trkpt>
      <trkpt lat="48.60951" lon="5.06269">
        <ele>213.55</ele>
        <time>2010-06-24T15:40:30Z</time>
      </trkpt>
      <trkpt lat="48.60941" lon="5.06287">
        <ele>213.07</ele>
        <time>2010-06-24T15:40:37Z</time>
      </trkpt>
      <trkpt lat="48.60938" lon="5.06293">
        <ele>214.03</ele>
        <time>2010-06-24T15:40:42Z</time>
      </trkpt>
      <trkpt lat="48.60935" lon="5.06312">
        <ele>213.07</ele>
        <time>2010-06-24T15:40:50Z</time>
      </trkpt>
      <trkpt lat="48.60936" lon="5.06316">
        <ele>213.55</ele>
        <time>2010-06-24T15:40:59Z</time>
      </trkpt>
      <trkpt lat="48.60936" lon="5.06316">
        <ele>213.55</ele>
        <time>2010-06-24T15:41:13Z</time>
      </trkpt>
      <trkpt lat="48.60936" lon="5.06316">
        <ele>213.55</ele>
        <time>2010-06-24T15:41:27Z</time>
      </trkpt>
      <trkpt lat="48.60937" lon="5.06318">
        <ele>213.55</ele>
        <time>2010-06-24T15:41:41Z</time>
      </trkpt>
      <trkpt lat="48.60937" lon="5.06318">
        <ele>213.07</ele>
        <time>2010-06-24T15:41:57Z</time>
      </trkpt>
      <trkpt lat="48.60938" lon="5.06321">
        <ele>213.55</ele>
        <time>2010-06-24T15:42:14Z</time>
      </trkpt>
      <trkpt lat="48.60941" lon="5.06329">
        <ele>213.07</ele>
        <time>2010-06-24T15:42:28Z</time>
      </trkpt>
      <trkpt lat="48.60941" lon="5.06329">
        <ele>213.55</ele>
        <time>2010-06-24T15:42:45Z</time>
      </trkpt>
      <trkpt lat="48.60941" lon="5.06329">
        <ele>213.55</ele>
        <time>2010-06-24T15:42:57Z</time>
      </trkpt>
      <trkpt lat="48.60941" lon="5.0633">
        <ele>213.55</ele>
        <time>2010-06-24T15:43:09Z</time>
      </trkpt>
      <trkpt lat="48.60943" lon="5.06332">
        <ele>213.07</ele>
        <time>2010-06-24T15:43:10Z</time>
      </trkpt>
      <trkpt lat="48.60954" lon="5.06346">
        <ele>209.7</ele>
        <time>2010-06-24T15:43:14Z</time>
      </trkpt>
      <trkpt lat="48.60957" lon="5.06353">
        <ele>208.26</ele>
        <time>2010-06-24T15:43:17Z</time>
      </trkpt>
      <trkpt lat="48.60957" lon="5.06357">
        <ele>206.82</ele>
        <time>2010-06-24T15:43:20Z</time>
      </trkpt>
      <trkpt lat="48.60958" lon="5.06358">
        <ele>206.82</ele>
        <time>2010-06-24T15:43:21Z</time>
      </trkpt>
      <trkpt lat="48.60962" lon="5.06367">
        <ele>203.94</ele>
        <time>2010-06-24T15:43:25Z</time>
      </trkpt>
      <trkpt lat="48.60964" lon="5.0637">
        <ele>202.01</ele>
        <time>2010-06-24T15:43:28Z</time>
      </trkpt>
      <trkpt lat="48.60973" lon="5.06369">
        <ele>197.69</ele>
        <time>2010-06-24T15:43:33Z</time>
      </trkpt>
      <trkpt lat="48.60974" lon="5.06368">
        <ele>197.21</ele>
        <time>2010-06-24T15:43:34Z</time>
      </trkpt>
      <trkpt lat="48.60981" lon="5.06366">
        <ele>191.92</ele>
        <time>2010-06-24T15:43:39Z</time>
      </trkpt>
      <trkpt lat="48.60982" lon="5.06366">
        <ele>190</ele>
        <time>2010-06-24T15:43:41Z</time>
      </trkpt>
      <trkpt lat="48.60988" lon="5.06366">
        <ele>188.08</ele>
        <time>2010-06-24T15:43:45Z</time>
      </trkpt>
      <trkpt lat="48.6099" lon="5.06366">
        <ele>186.15</ele>
        <time>2010-06-24T15:43:47Z</time>
      </trkpt>
      <trkpt lat="48.60994" lon="5.06369">
        <ele>182.79</ele>
        <time>2010-06-24T15:43:50Z</time>
      </trkpt>
      <trkpt lat="48.61006" lon="5.0637">
        <ele>178.46</ele>
        <time>2010-06-24T15:43:56Z</time>
      </trkpt>
      <trkpt lat="48.6101" lon="5.06376">
        <ele>177.5</ele>
        <time>2010-06-24T15:44:01Z</time>
      </trkpt>
      <trkpt lat="48.61014" lon="5.06376">
        <ele>175.58</ele>
        <time>2010-06-24T15:44:03Z</time>
      </trkpt>
      <trkpt lat="48.61022" lon="5.06376">
        <ele>174.14</ele>
        <time>2010-06-24T15:44:11Z</time>
      </trkpt>
      <trkpt lat="48.61023" lon="5.06377">
        <ele>174.62</ele>
        <time>2010-06-24T15:44:22Z</time>
      </trkpt>
      <trkpt lat="48.61023" lon="5.0638">
        <ele>175.58</ele>
        <time>2010-06-24T15:44:29Z</time>
      </trkpt>
      <trkpt lat="48.61025" lon="5.06397">
        <ele>174.62</ele>
        <time>2010-06-24T15:44:36Z</time>
      </trkpt>
      <trkpt lat="48.61025" lon="5.06403">
        <ele>174.14</ele>
        <time>2010-06-24T15:44:39Z</time>
      </trkpt>
      <trkpt lat="48.61022" lon="5.06417">
        <ele>173.66</ele>
        <time>2010-06-24T15:44:47Z</time>
      </trkpt>
      <trkpt lat="48.61015" lon="5.0643">
        <ele>173.66</ele>
        <time>2010-06-24T15:44:54Z</time>
      </trkpt>
      <trkpt lat="48.61012" lon="5.06436">
        <ele>173.66</ele>
        <time>2010-06-24T15:45:01Z</time>
      </trkpt>
      <trkpt lat="48.61012" lon="5.06436">
        <ele>173.66</ele>
        <time>2010-06-24T15:45:14Z</time>
      </trkpt>
      <trkpt lat="48.61012" lon="5.06436">
        <ele>173.66</ele>
        <time>2010-06-24T15:45:26Z</time>
      </trkpt>
      <trkpt lat="48.61013" lon="5.06438">
        <ele>172.69</ele>
        <time>2010-06-24T15:45:29Z</time>
      </trkpt>
      <trkpt lat="48.61014" lon="5.06438">
        <ele>171.25</ele>
        <time>2010-06-24T15:45:36Z</time>
      </trkpt>
      <trkpt lat="48.61021" lon="5.06442">
        <ele>171.73</ele>
        <time>2010-06-24T15:45:43Z</time>
      </trkpt>
      <trkpt lat="48.61023" lon="5.06443">
        <ele>171.73</ele>
        <time>2010-06-24T15:45:50Z</time>
      </trkpt>
      <trkpt lat="48.61023" lon="5.06443">
        <ele>172.21</ele>
        <time>2010-06-24T15:45:54Z</time>
      </trkpt>
      <trkpt lat="48.61033" lon="5.06438">
        <ele>171.73</ele>
        <time>2010-06-24T15:46:01Z</time>
      </trkpt>
      <trkpt lat="48.61035" lon="5.06437">
        <ele>171.73</ele>
        <time>2010-06-24T15:46:02Z</time>
      </trkpt>
      <trkpt lat="48.61044" lon="5.06422">
        <ele>171.25</ele>
        <time>2010-06-24T15:46:11Z</time>
      </trkpt>
      <trkpt lat="48.61045" lon="5.06415">
        <ele>171.25</ele>
        <time>2010-06-24T15:46:14Z</time>
      </trkpt>
      <trkpt lat="48.61046" lon="5.06392">
        <ele>171.73</ele>
        <time>2010-06-24T15:46:21Z</time>
      </trkpt>
      <trkpt lat="48.61047" lon="5.06366">
        <ele>171.73</ele>
        <time>2010-06-24T15:46:28Z</time>
      </trkpt>
      <trkpt lat="48.61048" lon="5.06338">
        <ele>170.77</ele>
        <time>2010-06-24T15:46:35Z</time>
      </trkpt>
      <trkpt lat="48.61048" lon="5.06308">
        <ele>171.25</ele>
        <time>2010-06-24T15:46:42Z</time>
      </trkpt>
      <trkpt lat="48.61054" lon="5.06279">
        <ele>170.77</ele>
        <time>2010-06-24T15:46:48Z</time>
      </trkpt>
      <trkpt lat="48.61064" lon="5.06249">
        <ele>170.77</ele>
        <time>2010-06-24T15:46:54Z</time>
      </trkpt>
      <trkpt lat="48.61078" lon="5.0621">
        <ele>170.29</ele>
        <time>2010-06-24T15:47:01Z</time>
      </trkpt>
      <trkpt lat="48.61091" lon="5.06181">
        <ele>170.77</ele>
        <time>2010-06-24T15:47:06Z</time>
      </trkpt>
      <trkpt lat="48.61099" lon="5.06152">
        <ele>169.81</ele>
        <time>2010-06-24T15:47:11Z</time>
      </trkpt>
      <trkpt lat="48.6111" lon="5.06133">
        <ele>170.29</ele>
        <time>2010-06-24T15:47:14Z</time>
      </trkpt>
      <trkpt lat="48.61116" lon="5.06123">
        <ele>170.29</ele>
        <time>2010-06-24T15:47:16Z</time>
      </trkpt>
      <trkpt lat="48.61119" lon="5.06117">
        <ele>169.81</ele>
        <time>2010-06-24T15:47:17Z</time>
      </trkpt>
      <trkpt lat="48.61134" lon="5.06094">
        <ele>170.29</ele>
        <time>2010-06-24T15:47:22Z</time>
      </trkpt>
      <trkpt lat="48.61149" lon="5.06057">
        <ele>169.81</ele>
        <time>2010-06-24T15:47:29Z</time>
      </trkpt>
      <trkpt lat="48.61156" lon="5.06032">
        <ele>170.29</ele>
        <time>2010-06-24T15:47:34Z</time>
      </trkpt>
      <trkpt lat="48.61158" lon="5.06017">
        <ele>169.81</ele>
        <time>2010-06-24T15:47:38Z</time>
      </trkpt>
      <trkpt lat="48.61158" lon="5.06013">
        <ele>169.81</ele>
        <time>2010-06-24T15:47:39Z</time>
      </trkpt>
      <trkpt lat="48.61157" lon="5.05989">
        <ele>170.29</ele>
        <time>2010-06-24T15:47:44Z</time>
      </trkpt>
      <trkpt lat="48.61158" lon="5.05959">
        <ele>170.29</ele>
        <time>2010-06-24T15:47:51Z</time>
      </trkpt>
      <trkpt lat="48.61157" lon="5.05914">
        <ele>170.77</ele>
        <time>2010-06-24T15:47:59Z</time>
      </trkpt>
      <trkpt lat="48.61155" lon="5.05887">
        <ele>170.77</ele>
        <time>2010-06-24T15:48:04Z</time>
      </trkpt>
      <trkpt lat="48.61148" lon="5.05855">
        <ele>171.25</ele>
        <time>2010-06-24T15:48:11Z</time>
      </trkpt>
      <trkpt lat="48.61147" lon="5.05849">
        <ele>171.25</ele>
        <time>2010-06-24T15:48:12Z</time>
      </trkpt>
      <trkpt lat="48.61145" lon="5.05844">
        <ele>171.73</ele>
        <time>2010-06-24T15:48:13Z</time>
      </trkpt>
      <trkpt lat="48.61144" lon="5.05839">
        <ele>171.25</ele>
        <time>2010-06-24T15:48:14Z</time>
      </trkpt>
      <trkpt lat="48.61143" lon="5.05835">
        <ele>171.25</ele>
        <time>2010-06-24T15:48:15Z</time>
      </trkpt>
      <trkpt lat="48.61138" lon="5.05806">
        <ele>171.73</ele>
        <time>2010-06-24T15:48:22Z</time>
      </trkpt>
      <trkpt lat="48.6113" lon="5.05784">
        <ele>171.25</ele>
        <time>2010-06-24T15:48:28Z</time>
      </trkpt>
      <trkpt lat="48.61118" lon="5.05759">
        <ele>172.21</ele>
        <time>2010-06-24T15:48:35Z</time>
      </trkpt>
      <trkpt lat="48.61099" lon="5.05732">
        <ele>172.21</ele>
        <time>2010-06-24T15:48:42Z</time>
      </trkpt>
      <trkpt lat="48.6108" lon="5.05712">
        <ele>172.69</ele>
        <time>2010-06-24T15:48:49Z</time>
      </trkpt>
      <trkpt lat="48.61061" lon="5.05694">
        <ele>173.17</ele>
        <time>2010-06-24T15:48:55Z</time>
      </trkpt>
      <trkpt lat="48.61051" lon="5.05682">
        <ele>173.17</ele>
        <time>2010-06-24T15:48:59Z</time>
      </trkpt>
      <trkpt lat="48.6105" lon="5.05677">
        <ele>173.17</ele>
        <time>2010-06-24T15:49:00Z</time>
      </trkpt>
      <trkpt lat="48.61049" lon="5.05673">
        <ele>173.17</ele>
        <time>2010-06-24T15:49:01Z</time>
      </trkpt>
      <trkpt lat="48.61049" lon="5.05669">
        <ele>173.66</ele>
        <time>2010-06-24T15:49:02Z</time>
      </trkpt>
      <trkpt lat="48.61049" lon="5.05666">
        <ele>174.14</ele>
        <time>2010-06-24T15:49:03Z</time>
      </trkpt>
      <trkpt lat="48.61049" lon="5.05664">
        <ele>173.66</ele>
        <time>2010-06-24T15:49:04Z</time>
      </trkpt>
      <trkpt lat="48.61048" lon="5.05661">
        <ele>174.14</ele>
        <time>2010-06-24T15:49:05Z</time>
      </trkpt>
      <trkpt lat="48.61047" lon="5.05658">
        <ele>174.62</ele>
        <time>2010-06-24T15:49:06Z</time>
      </trkpt>
      <trkpt lat="48.61047" lon="5.05655">
        <ele>174.62</ele>
        <time>2010-06-24T15:49:07Z</time>
      </trkpt>
      <trkpt lat="48.61046" lon="5.05653">
        <ele>174.62</ele>
        <time>2010-06-24T15:49:08Z</time>
      </trkpt>
      <trkpt lat="48.61045" lon="5.0565">
        <ele>174.62</ele>
        <time>2010-06-24T15:49:09Z</time>
      </trkpt>
      <trkpt lat="48.61044" lon="5.05648">
        <ele>174.62</ele>
        <time>2010-06-24T15:49:10Z</time>
      </trkpt>
      <trkpt lat="48.61041" lon="5.05646">
        <ele>175.1</ele>
        <time>2010-06-24T15:49:11Z</time>
      </trkpt>
      <trkpt lat="48.61019" lon="5.05635">
        <ele>174.62</ele>
        <time>2010-06-24T15:49:20Z</time>
      </trkpt>
      <trkpt lat="48.61002" lon="5.0563">
        <ele>174.62</ele>
        <time>2010-06-24T15:49:28Z</time>
      </trkpt>
      <trkpt lat="48.60997" lon="5.05628">
        <ele>174.62</ele>
        <time>2010-06-24T15:49:31Z</time>
      </trkpt>
      <trkpt lat="48.60995" lon="5.05628">
        <ele>174.62</ele>
        <time>2010-06-24T15:49:32Z</time>
      </trkpt>
      <trkpt lat="48.60993" lon="5.05627">
        <ele>174.62</ele>
        <time>2010-06-24T15:49:33Z</time>
      </trkpt>
      <trkpt lat="48.60991" lon="5.05626">
        <ele>174.62</ele>
        <time>2010-06-24T15:49:34Z</time>
      </trkpt>
      <trkpt lat="48.6099" lon="5.05624">
        <ele>174.62</ele>
        <time>2010-06-24T15:49:35Z</time>
      </trkpt>
      <trkpt lat="48.60989" lon="5.05621">
        <ele>174.62</ele>
        <time>2010-06-24T15:49:37Z</time>
      </trkpt>
      <trkpt lat="48.60987" lon="5.05604">
        <ele>175.58</ele>
        <time>2010-06-24T15:49:43Z</time>
      </trkpt>
      <trkpt lat="48.60982" lon="5.05594">
        <ele>176.54</ele>
        <time>2010-06-24T15:49:47Z</time>
      </trkpt>
      <trkpt lat="48.60973" lon="5.0557">
        <ele>179.42</ele>
        <time>2010-06-24T15:49:56Z</time>
      </trkpt>
      <trkpt lat="48.60972" lon="5.05558">
        <ele>180.87</ele>
        <time>2010-06-24T15:50:00Z</time>
      </trkpt>
      <trkpt lat="48.6097" lon="5.05536">
        <ele>182.79</ele>
        <time>2010-06-24T15:50:07Z</time>
      </trkpt>
      <trkpt lat="48.60975" lon="5.05534">
        <ele>184.71</ele>
        <time>2010-06-24T15:50:11Z</time>
      </trkpt>
      <trkpt lat="48.60979" lon="5.0554">
        <ele>184.71</ele>
        <time>2010-06-24T15:50:15Z</time>
      </trkpt>
      <trkpt lat="48.60987" lon="5.05539">
        <ele>186.15</ele>
        <time>2010-06-24T15:50:20Z</time>
      </trkpt>
      <trkpt lat="48.60992" lon="5.05534">
        <ele>187.11</ele>
        <time>2010-06-24T15:50:25Z</time>
      </trkpt>
      <trkpt lat="48.61005" lon="5.05533">
        <ele>189.04</ele>
        <time>2010-06-24T15:50:33Z</time>
      </trkpt>
      <trkpt lat="48.61014" lon="5.05529">
        <ele>190.96</ele>
        <time>2010-06-24T15:50:40Z</time>
      </trkpt>
      <trkpt lat="48.61026" lon="5.05525">
        <ele>192.4</ele>
        <time>2010-06-24T15:50:48Z</time>
      </trkpt>
      <trkpt lat="48.61039" lon="5.05521">
        <ele>194.32</ele>
        <time>2010-06-24T15:50:56Z</time>
      </trkpt>
      <trkpt lat="48.61049" lon="5.05513">
        <ele>196.25</ele>
        <time>2010-06-24T15:51:04Z</time>
      </trkpt>
      <trkpt lat="48.61053" lon="5.0551">
        <ele>197.21</ele>
        <time>2010-06-24T15:51:07Z</time>
      </trkpt>
      <trkpt lat="48.61066" lon="5.05505">
        <ele>198.65</ele>
        <time>2010-06-24T15:51:14Z</time>
      </trkpt>
      <trkpt lat="48.61068" lon="5.05506">
        <ele>198.65</ele>
        <time>2010-06-24T15:51:15Z</time>
      </trkpt>
      <trkpt lat="48.61072" lon="5.05514">
        <ele>198.65</ele>
        <time>2010-06-24T15:51:20Z</time>
      </trkpt>
      <trkpt lat="48.61075" lon="5.05516">
        <ele>199.13</ele>
        <time>2010-06-24T15:51:21Z</time>
      </trkpt>
      <trkpt lat="48.61085" lon="5.05516">
        <ele>200.57</ele>
        <time>2010-06-24T15:51:26Z</time>
      </trkpt>
      <trkpt lat="48.611" lon="5.05512">
        <ele>202.01</ele>
        <time>2010-06-24T15:51:34Z</time>
      </trkpt>
      <trkpt lat="48.61117" lon="5.05518">
        <ele>203.94</ele>
        <time>2010-06-24T15:51:42Z</time>
      </trkpt>
      <trkpt lat="48.61131" lon="5.05525">
        <ele>203.94</ele>
        <time>2010-06-24T15:51:49Z</time>
      </trkpt>
      <trkpt lat="48.61152" lon="5.0553">
        <ele>205.86</ele>
        <time>2010-06-24T15:51:58Z</time>
      </trkpt>
      <trkpt lat="48.61167" lon="5.05535">
        <ele>206.34</ele>
        <time>2010-06-24T15:52:05Z</time>
      </trkpt>
      <trkpt lat="48.61182" lon="5.05539">
        <ele>206.82</ele>
        <time>2010-06-24T15:52:12Z</time>
      </trkpt>
      <trkpt lat="48.61186" lon="5.05541">
        <ele>205.86</ele>
        <time>2010-06-24T15:52:19Z</time>
      </trkpt>
      <trkpt lat="48.61186" lon="5.05541">
        <ele>206.82</ele>
        <time>2010-06-24T15:52:31Z</time>
      </trkpt>
      <trkpt lat="48.61186" lon="5.05541">
        <ele>206.82</ele>
        <time>2010-06-24T15:52:42Z</time>
      </trkpt>
      <trkpt lat="48.6119" lon="5.05533">
        <ele>206.82</ele>
        <time>2010-06-24T15:52:46Z</time>
      </trkpt>
      <trkpt lat="48.61193" lon="5.05527">
        <ele>206.82</ele>
        <time>2010-06-24T15:52:49Z</time>
      </trkpt>
      <trkpt lat="48.61199" lon="5.05511">
        <ele>208.74</ele>
        <time>2010-06-24T15:52:56Z</time>
      </trkpt>
      <trkpt lat="48.61204" lon="5.05498">
        <ele>208.74</ele>
        <time>2010-06-24T15:53:00Z</time>
      </trkpt>
      <trkpt lat="48.61215" lon="5.05472">
        <ele>209.7</ele>
        <time>2010-06-24T15:53:08Z</time>
      </trkpt>
      <trkpt lat="48.6122" lon="5.0546">
        <ele>210.19</ele>
        <time>2010-06-24T15:53:12Z</time>
      </trkpt>
      <trkpt lat="48.61231" lon="5.05439">
        <ele>211.15</ele>
        <time>2010-06-24T15:53:19Z</time>
      </trkpt>
      <trkpt lat="48.61233" lon="5.05435">
        <ele>211.15</ele>
        <time>2010-06-24T15:53:24Z</time>
      </trkpt>
      <trkpt lat="48.61235" lon="5.05439">
        <ele>211.15</ele>
        <time>2010-06-24T15:53:27Z</time>
      </trkpt>
      <trkpt lat="48.61249" lon="5.05446">
        <ele>212.11</ele>
        <time>2010-06-24T15:53:35Z</time>
      </trkpt>
      <trkpt lat="48.61253" lon="5.05468">
        <ele>212.11</ele>
        <time>2010-06-24T15:53:43Z</time>
      </trkpt>
      <trkpt lat="48.61253" lon="5.05472">
        <ele>212.11</ele>
        <time>2010-06-24T15:53:44Z</time>
      </trkpt>
      <trkpt lat="48.6124" lon="5.05492">
        <ele>211.15</ele>
        <time>2010-06-24T15:53:52Z</time>
      </trkpt>
      <trkpt lat="48.61238" lon="5.05508">
        <ele>210.67</ele>
        <time>2010-06-24T15:53:57Z</time>
      </trkpt>
      <trkpt lat="48.61226" lon="5.05524">
        <ele>209.7</ele>
        <time>2010-06-24T15:54:05Z</time>
      </trkpt>
      <trkpt lat="48.61216" lon="5.05534">
        <ele>208.74</ele>
        <time>2010-06-24T15:54:11Z</time>
      </trkpt>
      <trkpt lat="48.61218" lon="5.05539">
        <ele>208.74</ele>
        <time>2010-06-24T15:54:13Z</time>
      </trkpt>
      <trkpt lat="48.61232" lon="5.05563">
        <ele>208.74</ele>
        <time>2010-06-24T15:54:19Z</time>
      </trkpt>
      <trkpt lat="48.61258" lon="5.05596">
        <ele>208.74</ele>
        <time>2010-06-24T15:54:26Z</time>
      </trkpt>
      <trkpt lat="48.61279" lon="5.05617">
        <ele>208.74</ele>
        <time>2010-06-24T15:54:32Z</time>
      </trkpt>
      <trkpt lat="48.61294" lon="5.05638">
        <ele>209.22</ele>
        <time>2010-06-24T15:54:37Z</time>
      </trkpt>
      <trkpt lat="48.61317" lon="5.05663">
        <ele>209.22</ele>
        <time>2010-06-24T15:54:44Z</time>
      </trkpt>
      <trkpt lat="48.61325" lon="5.05672">
        <ele>209.7</ele>
        <time>2010-06-24T15:54:47Z</time>
      </trkpt>
      <trkpt lat="48.61332" lon="5.05679">
        <ele>210.19</ele>
        <time>2010-06-24T15:54:51Z</time>
      </trkpt>
      <trkpt lat="48.61338" lon="5.05689">
        <ele>210.19</ele>
        <time>2010-06-24T15:54:55Z</time>
      </trkpt>
      <trkpt lat="48.6135" lon="5.05702">
        <ele>210.19</ele>
        <time>2010-06-24T15:55:00Z</time>
      </trkpt>
      <trkpt lat="48.61363" lon="5.05724">
        <ele>210.67</ele>
        <time>2010-06-24T15:55:07Z</time>
      </trkpt>
      <trkpt lat="48.61368" lon="5.05729">
        <ele>211.15</ele>
        <time>2010-06-24T15:55:09Z</time>
      </trkpt>
      <trkpt lat="48.61374" lon="5.05735">
        <ele>211.15</ele>
        <time>2010-06-24T15:55:12Z</time>
      </trkpt>
      <trkpt lat="48.61386" lon="5.05752">
        <ele>211.63</ele>
        <time>2010-06-24T15:55:19Z</time>
      </trkpt>
      <trkpt lat="48.61406" lon="5.05782">
        <ele>211.63</ele>
        <time>2010-06-24T15:55:27Z</time>
      </trkpt>
      <trkpt lat="48.61409" lon="5.05786">
        <ele>211.63</ele>
        <time>2010-06-24T15:55:29Z</time>
      </trkpt>
      <trkpt lat="48.61427" lon="5.05787">
        <ele>213.07</ele>
        <time>2010-06-24T15:55:36Z</time>
      </trkpt>
      <trkpt lat="48.61435" lon="5.05776">
        <ele>214.51</ele>
        <time>2010-06-24T15:55:40Z</time>
      </trkpt>
      <trkpt lat="48.61438" lon="5.05766">
        <ele>214.99</ele>
        <time>2010-06-24T15:55:43Z</time>
      </trkpt>
      <trkpt lat="48.61444" lon="5.05764">
        <ele>215.47</ele>
        <time>2010-06-24T15:55:50Z</time>
      </trkpt>
      <trkpt lat="48.61449" lon="5.05771">
        <ele>215.95</ele>
        <time>2010-06-24T15:55:57Z</time>
      </trkpt>
      <trkpt lat="48.61456" lon="5.05775">
        <ele>214.99</ele>
        <time>2010-06-24T15:56:05Z</time>
      </trkpt>
      <trkpt lat="48.61456" lon="5.05775">
        <ele>215.47</ele>
        <time>2010-06-24T15:56:17Z</time>
      </trkpt>
      <trkpt lat="48.61456" lon="5.05775">
        <ele>215.47</ele>
        <time>2010-06-24T15:56:32Z</time>
      </trkpt>
      <trkpt lat="48.61456" lon="5.05774">
        <ele>215.47</ele>
        <time>2010-06-24T15:56:48Z</time>
      </trkpt>
      <trkpt lat="48.61456" lon="5.05774">
        <ele>215.47</ele>
        <time>2010-06-24T15:57:02Z</time>
      </trkpt>
      <trkpt lat="48.61456" lon="5.05774">
        <ele>215.95</ele>
        <time>2010-06-24T15:57:11Z</time>
      </trkpt>
      <trkpt lat="48.61458" lon="5.05776">
        <ele>215.95</ele>
        <time>2010-06-24T15:57:26Z</time>
      </trkpt>
      <trkpt lat="48.61473" lon="5.05782">
        <ele>215.95</ele>
        <time>2010-06-24T15:57:32Z</time>
      </trkpt>
      <trkpt lat="48.61493" lon="5.0579">
        <ele>213.55</ele>
        <time>2010-06-24T15:57:39Z</time>
      </trkpt>
      <trkpt lat="48.6151" lon="5.05791">
        <ele>211.63</ele>
        <time>2010-06-24T15:57:45Z</time>
      </trkpt>
      <trkpt lat="48.61523" lon="5.05794">
        <ele>210.67</ele>
        <time>2010-06-24T15:57:51Z</time>
      </trkpt>
      <trkpt lat="48.61524" lon="5.05795">
        <ele>210.19</ele>
        <time>2010-06-24T15:57:52Z</time>
      </trkpt>
      <trkpt lat="48.61538" lon="5.05794">
        <ele>211.15</ele>
        <time>2010-06-24T15:57:58Z</time>
      </trkpt>
      <trkpt lat="48.61549" lon="5.0578">
        <ele>212.59</ele>
        <time>2010-06-24T15:58:04Z</time>
      </trkpt>
      <trkpt lat="48.61555" lon="5.05777">
        <ele>212.59</ele>
        <time>2010-06-24T15:58:09Z</time>
      </trkpt>
      <trkpt lat="48.61571" lon="5.05778">
        <ele>212.59</ele>
        <time>2010-06-24T15:58:15Z</time>
      </trkpt>
      <trkpt lat="48.61583" lon="5.05792">
        <ele>213.55</ele>
        <time>2010-06-24T15:58:20Z</time>
      </trkpt>
      <trkpt lat="48.61585" lon="5.05799">
        <ele>213.07</ele>
        <time>2010-06-24T15:58:22Z</time>
      </trkpt>
      <trkpt lat="48.61588" lon="5.05809">
        <ele>213.07</ele>
        <time>2010-06-24T15:58:27Z</time>
      </trkpt>
      <trkpt lat="48.6158" lon="5.05825">
        <ele>212.59</ele>
        <time>2010-06-24T15:58:34Z</time>
      </trkpt>
      <trkpt lat="48.61584" lon="5.05836">
        <ele>213.07</ele>
        <time>2010-06-24T15:58:41Z</time>
      </trkpt>
      <trkpt lat="48.61585" lon="5.05841">
        <ele>212.59</ele>
        <time>2010-06-24T15:58:50Z</time>
      </trkpt>
      <trkpt lat="48.61578" lon="5.05848">
        <ele>212.59</ele>
        <time>2010-06-24T15:58:57Z</time>
      </trkpt>
      <trkpt lat="48.61574" lon="5.05852">
        <ele>212.11</ele>
        <time>2010-06-24T15:59:03Z</time>
      </trkpt>
      <trkpt lat="48.61574" lon="5.05855">
        <ele>212.59</ele>
        <time>2010-06-24T15:59:11Z</time>
      </trkpt>
      <trkpt lat="48.61574" lon="5.05861">
        <ele>212.59</ele>
        <time>2010-06-24T15:59:18Z</time>
      </trkpt>
      <trkpt lat="48.61574" lon="5.05861">
        <ele>208.26</ele>
        <time>2010-06-24T15:59:23Z</time>
      </trkpt>
      <trkpt lat="48.61574" lon="5.05861">
        <ele>213.55</ele>
        <time>2010-06-24T15:59:24Z</time>
      </trkpt>
      <trkpt lat="48.61575" lon="5.05864">
        <ele>213.07</ele>
        <time>2010-06-24T15:59:32Z</time>
      </trkpt>
      <trkpt lat="48.61573" lon="5.05869">
        <ele>213.07</ele>
        <time>2010-06-24T15:59:39Z</time>
      </trkpt>
      <trkpt lat="48.61573" lon="5.05885">
        <ele>214.99</ele>
        <time>2010-06-24T15:59:46Z</time>
      </trkpt>
      <trkpt lat="48.61565" lon="5.059">
        <ele>214.51</ele>
        <time>2010-06-24T15:59:53Z</time>
      </trkpt>
      <trkpt lat="48.61556" lon="5.05909">
        <ele>214.03</ele>
        <time>2010-06-24T15:59:58Z</time>
      </trkpt>
      <trkpt lat="48.61552" lon="5.05909">
        <ele>213.07</ele>
        <time>2010-06-24T16:00:01Z</time>
      </trkpt>
      <trkpt lat="48.61544" lon="5.05922">
        <ele>213.07</ele>
        <time>2010-06-24T16:00:07Z</time>
      </trkpt>
      <trkpt lat="48.61541" lon="5.05935">
        <ele>212.59</ele>
        <time>2010-06-24T16:00:13Z</time>
      </trkpt>
      <trkpt lat="48.61541" lon="5.05935">
        <ele>213.07</ele>
        <time>2010-06-24T16:00:27Z</time>
      </trkpt>
      <trkpt lat="48.6154" lon="5.05936">
        <ele>212.59</ele>
        <time>2010-06-24T16:00:38Z</time>
      </trkpt>
      <trkpt lat="48.61539" lon="5.05942">
        <ele>212.59</ele>
        <time>2010-06-24T16:00:45Z</time>
      </trkpt>
      <trkpt lat="48.61537" lon="5.05943">
        <ele>212.59</ele>
        <time>2010-06-24T16:00:53Z</time>
      </trkpt>
      <trkpt lat="48.61537" lon="5.05943">
        <ele>213.07</ele>
        <time>2010-06-24T16:01:12Z</time>
      </trkpt>
      <trkpt lat="48.61537" lon="5.05943">
        <ele>212.59</ele>
        <time>2010-06-24T16:01:25Z</time>
      </trkpt>
      <trkpt lat="48.61535" lon="5.05948">
        <ele>213.55</ele>
        <time>2010-06-24T16:01:34Z</time>
      </trkpt>
      <trkpt lat="48.61535" lon="5.05948">
        <ele>213.07</ele>
        <time>2010-06-24T16:01:48Z</time>
      </trkpt>
      <trkpt lat="48.61533" lon="5.05954">
        <ele>213.07</ele>
        <time>2010-06-24T16:02:00Z</time>
      </trkpt>
      <trkpt lat="48.61533" lon="5.05954">
        <ele>213.55</ele>
        <time>2010-06-24T16:02:01Z</time>
      </trkpt>
      <trkpt lat="48.61529" lon="5.05962">
        <ele>213.07</ele>
        <time>2010-06-24T16:02:10Z</time>
      </trkpt>
      <trkpt lat="48.61529" lon="5.05962">
        <ele>213.07</ele>
        <time>2010-06-24T16:02:28Z</time>
      </trkpt>
      <trkpt lat="48.61528" lon="5.05964">
        <ele>213.07</ele>
        <time>2010-06-24T16:02:38Z</time>
      </trkpt>
      <trkpt lat="48.61526" lon="5.05972">
        <ele>213.07</ele>
        <time>2010-06-24T16:02:46Z</time>
      </trkpt>
      <trkpt lat="48.61523" lon="5.05978">
        <ele>213.07</ele>
        <time>2010-06-24T16:02:50Z</time>
      </trkpt>
      <trkpt lat="48.61516" lon="5.05992">
        <ele>213.55</ele>
        <time>2010-06-24T16:02:57Z</time>
      </trkpt>
      <trkpt lat="48.61513" lon="5.05996">
        <ele>214.03</ele>
        <time>2010-06-24T16:02:59Z</time>
      </trkpt>
      <trkpt lat="48.61505" lon="5.06018">
        <ele>214.51</ele>
        <time>2010-06-24T16:03:06Z</time>
      </trkpt>
      <trkpt lat="48.61504" lon="5.0602">
        <ele>214.99</ele>
        <time>2010-06-24T16:03:17Z</time>
      </trkpt>
      <trkpt lat="48.61504" lon="5.0602">
        <ele>214.99</ele>
        <time>2010-06-24T16:03:24Z</time>
      </trkpt>
      <trkpt lat="48.61501" lon="5.06034">
        <ele>214.03</ele>
        <time>2010-06-24T16:03:28Z</time>
      </trkpt>
      <trkpt lat="48.61507" lon="5.06052">
        <ele>215.95</ele>
        <time>2010-06-24T16:03:37Z</time>
      </trkpt>
      <trkpt lat="48.61513" lon="5.06062">
        <ele>217.4</ele>
        <time>2010-06-24T16:03:44Z</time>
      </trkpt>
      <trkpt lat="48.61513" lon="5.06062">
        <ele>217.4</ele>
        <time>2010-06-24T16:03:45Z</time>
      </trkpt>
      <trkpt lat="48.61523" lon="5.06072">
        <ele>218.84</ele>
        <time>2010-06-24T16:03:51Z</time>
      </trkpt>
      <trkpt lat="48.61528" lon="5.06081">
        <ele>218.84</ele>
        <time>2010-06-24T16:03:55Z</time>
      </trkpt>
      <trkpt lat="48.6154" lon="5.06081">
        <ele>219.8</ele>
        <time>2010-06-24T16:04:02Z</time>
      </trkpt>
      <trkpt lat="48.61553" lon="5.06081">
        <ele>220.76</ele>
        <time>2010-06-24T16:04:10Z</time>
      </trkpt>
      <trkpt lat="48.61565" lon="5.06072">
        <ele>221.24</ele>
        <time>2010-06-24T16:04:18Z</time>
      </trkpt>
      <trkpt lat="48.61578" lon="5.06063">
        <ele>221.24</ele>
        <time>2010-06-24T16:04:25Z</time>
      </trkpt>
      <trkpt lat="48.61584" lon="5.06059">
        <ele>221.72</ele>
        <time>2010-06-24T16:04:28Z</time>
      </trkpt>
      <trkpt lat="48.61591" lon="5.06046">
        <ele>221.24</ele>
        <time>2010-06-24T16:04:33Z</time>
      </trkpt>
      <trkpt lat="48.61604" lon="5.06038">
        <ele>221.24</ele>
        <time>2010-06-24T16:04:39Z</time>
      </trkpt>
      <trkpt lat="48.61615" lon="5.06016">
        <ele>221.72</ele>
        <time>2010-06-24T16:04:49Z</time>
      </trkpt>
      <trkpt lat="48.61618" lon="5.06014">
        <ele>221.24</ele>
        <time>2010-06-24T16:04:50Z</time>
      </trkpt>
      <trkpt lat="48.61635" lon="5.05996">
        <ele>221.24</ele>
        <time>2010-06-24T16:04:56Z</time>
      </trkpt>
      <trkpt lat="48.6164" lon="5.05985">
        <ele>221.24</ele>
        <time>2010-06-24T16:05:03Z</time>
      </trkpt>
      <trkpt lat="48.6164" lon="5.05976">
        <ele>220.76</ele>
        <time>2010-06-24T16:05:10Z</time>
      </trkpt>
      <trkpt lat="48.6164" lon="5.05963">
        <ele>220.28</ele>
        <time>2010-06-24T16:05:15Z</time>
      </trkpt>
      <trkpt lat="48.6164" lon="5.05958">
        <ele>219.8</ele>
        <time>2010-06-24T16:05:17Z</time>
      </trkpt>
      <trkpt lat="48.61633" lon="5.05946">
        <ele>218.84</ele>
        <time>2010-06-24T16:05:22Z</time>
      </trkpt>
      <trkpt lat="48.61622" lon="5.05937">
        <ele>218.84</ele>
        <time>2010-06-24T16:05:30Z</time>
      </trkpt>
      <trkpt lat="48.61619" lon="5.05935">
        <ele>218.36</ele>
        <time>2010-06-24T16:05:37Z</time>
      </trkpt>
      <trkpt lat="48.61611" lon="5.05927">
        <ele>217.88</ele>
        <time>2010-06-24T16:05:42Z</time>
      </trkpt>
      <trkpt lat="48.61597" lon="5.05911">
        <ele>217.4</ele>
        <time>2010-06-24T16:05:50Z</time>
      </trkpt>
      <trkpt lat="48.61583" lon="5.05903">
        <ele>217.4</ele>
        <time>2010-06-24T16:05:56Z</time>
      </trkpt>
      <trkpt lat="48.61577" lon="5.05898">
        <ele>216.43</ele>
        <time>2010-06-24T16:06:03Z</time>
      </trkpt>
      <trkpt lat="48.61577" lon="5.05898">
        <ele>216.43</ele>
        <time>2010-06-24T16:06:15Z</time>
      </trkpt>
      <trkpt lat="48.61577" lon="5.05898">
        <ele>216.43</ele>
        <time>2010-06-24T16:06:27Z</time>
      </trkpt>
      <trkpt lat="48.61577" lon="5.05898">
        <ele>216.43</ele>
        <time>2010-06-24T16:06:38Z</time>
      </trkpt>
      <trkpt lat="48.61577" lon="5.05898">
        <ele>216.91</ele>
        <time>2010-06-24T16:06:46Z</time>
      </trkpt>
      <trkpt lat="48.61578" lon="5.05898">
        <ele>216.43</ele>
        <time>2010-06-24T16:06:56Z</time>
      </trkpt>
      <trkpt lat="48.61578" lon="5.05898">
        <ele>216.43</ele>
        <time>2010-06-24T16:07:07Z</time>
      </trkpt>
      <trkpt lat="48.61578" lon="5.05898">
        <ele>216.43</ele>
        <time>2010-06-24T16:07:23Z</time>
      </trkpt>
      <trkpt lat="48.61578" lon="5.05898">
        <ele>216.43</ele>
        <time>2010-06-24T16:07:37Z</time>
      </trkpt>
      <trkpt lat="48.61578" lon="5.05898">
        <ele>216.91</ele>
        <time>2010-06-24T16:07:53Z</time>
      </trkpt>
      <trkpt lat="48.61578" lon="5.05898">
        <ele>216.91</ele>
        <time>2010-06-24T16:08:05Z</time>
      </trkpt>
      <trkpt lat="48.61578" lon="5.05898">
        <ele>216.43</ele>
        <time>2010-06-24T16:08:21Z</time>
      </trkpt>
      <trkpt lat="48.61578" lon="5.05898">
        <ele>216.43</ele>
        <time>2010-06-24T16:08:37Z</time>
      </trkpt>
      <trkpt lat="48.61578" lon="5.05898">
        <ele>216.91</ele>
        <time>2010-06-24T16:08:52Z</time>
      </trkpt>
      <trkpt lat="48.61578" lon="5.05898">
        <ele>216.43</ele>
        <time>2010-06-24T16:09:10Z</time>
      </trkpt>
      <trkpt lat="48.61578" lon="5.05897">
        <ele>216.43</ele>
        <time>2010-06-24T16:09:24Z</time>
      </trkpt>
      <trkpt lat="48.61579" lon="5.05896">
        <ele>216.91</ele>
        <time>2010-06-24T16:09:36Z</time>
      </trkpt>
      <trkpt lat="48.61579" lon="5.05896">
        <ele>216.43</ele>
        <time>2010-06-24T16:09:48Z</time>
      </trkpt>
      <trkpt lat="48.61579" lon="5.05896">
        <ele>216.43</ele>
        <time>2010-06-24T16:09:59Z</time>
      </trkpt>
      <trkpt lat="48.61579" lon="5.05895">
        <ele>216.43</ele>
        <time>2010-06-24T16:10:14Z</time>
      </trkpt>
      <trkpt lat="48.61579" lon="5.05895">
        <ele>216.91</ele>
        <time>2010-06-24T16:10:30Z</time>
      </trkpt>
      <trkpt lat="48.61579" lon="5.05896">
        <ele>216.91</ele>
        <time>2010-06-24T16:10:37Z</time>
      </trkpt>
      <trkpt lat="48.61576" lon="5.05876">
        <ele>214.99</ele>
        <time>2010-06-24T16:10:42Z</time>
      </trkpt>
      <trkpt lat="48.61582" lon="5.05853">
        <ele>214.99</ele>
        <time>2010-06-24T16:10:49Z</time>
      </trkpt>
      <trkpt lat="48.61584" lon="5.05845">
        <ele>214.99</ele>
        <time>2010-06-24T16:10:51Z</time>
      </trkpt>
      <trkpt lat="48.61584" lon="5.05828">
        <ele>215.47</ele>
        <time>2010-06-24T16:10:57Z</time>
      </trkpt>
      <trkpt lat="48.61591" lon="5.05815">
        <ele>214.99</ele>
        <time>2010-06-24T16:11:03Z</time>
      </trkpt>
      <trkpt lat="48.61595" lon="5.05789">
        <ele>214.99</ele>
        <time>2010-06-24T16:11:10Z</time>
      </trkpt>
      <trkpt lat="48.61593" lon="5.05786">
        <ele>214.99</ele>
        <time>2010-06-24T16:11:11Z</time>
      </trkpt>
      <trkpt lat="48.61587" lon="5.05779">
        <ele>215.47</ele>
        <time>2010-06-24T16:11:15Z</time>
      </trkpt>
      <trkpt lat="48.61576" lon="5.05783">
        <ele>214.51</ele>
        <time>2010-06-24T16:11:22Z</time>
      </trkpt>
      <trkpt lat="48.61573" lon="5.05784">
        <ele>214.51</ele>
        <time>2010-06-24T16:11:23Z</time>
      </trkpt>
      <trkpt lat="48.61568" lon="5.0579">
        <ele>214.03</ele>
        <time>2010-06-24T16:11:27Z</time>
      </trkpt>
      <trkpt lat="48.61555" lon="5.05798">
        <ele>212.59</ele>
        <time>2010-06-24T16:11:34Z</time>
      </trkpt>
      <trkpt lat="48.61549" lon="5.05795">
        <ele>213.55</ele>
        <time>2010-06-24T16:11:37Z</time>
      </trkpt>
      <trkpt lat="48.61529" lon="5.05793">
        <ele>214.51</ele>
        <time>2010-06-24T16:11:44Z</time>
      </trkpt>
      <trkpt lat="48.61523" lon="5.05791">
        <ele>214.99</ele>
        <time>2010-06-24T16:11:46Z</time>
      </trkpt>
      <trkpt lat="48.61514" lon="5.05791">
        <ele>215.95</ele>
        <time>2010-06-24T16:11:50Z</time>
      </trkpt>
      <trkpt lat="48.61494" lon="5.05783">
        <ele>218.36</ele>
        <time>2010-06-24T16:11:59Z</time>
      </trkpt>
      <trkpt lat="48.61473" lon="5.05779">
        <ele>218.36</ele>
        <time>2010-06-24T16:12:07Z</time>
      </trkpt>
      <trkpt lat="48.61469" lon="5.05776">
        <ele>218.84</ele>
        <time>2010-06-24T16:12:09Z</time>
      </trkpt>
      <trkpt lat="48.61455" lon="5.05762">
        <ele>219.32</ele>
        <time>2010-06-24T16:12:16Z</time>
      </trkpt>
      <trkpt lat="48.61445" lon="5.0577">
        <ele>217.4</ele>
        <time>2010-06-24T16:12:23Z</time>
      </trkpt>
      <trkpt lat="48.61439" lon="5.05786">
        <ele>216.43</ele>
        <time>2010-06-24T16:12:28Z</time>
      </trkpt>
      <trkpt lat="48.61436" lon="5.05787">
        <ele>216.43</ele>
        <time>2010-06-24T16:12:29Z</time>
      </trkpt>
      <trkpt lat="48.61424" lon="5.05789">
        <ele>214.99</ele>
        <time>2010-06-24T16:12:33Z</time>
      </trkpt>
      <trkpt lat="48.61417" lon="5.0578">
        <ele>215.47</ele>
        <time>2010-06-24T16:12:38Z</time>
      </trkpt>
      <trkpt lat="48.614" lon="5.05759">
        <ele>214.51</ele>
        <time>2010-06-24T16:12:46Z</time>
      </trkpt>
      <trkpt lat="48.61392" lon="5.05746">
        <ele>214.51</ele>
        <time>2010-06-24T16:12:50Z</time>
      </trkpt>
      <trkpt lat="48.61379" lon="5.05734">
        <ele>213.55</ele>
        <time>2010-06-24T16:12:57Z</time>
      </trkpt>
      <trkpt lat="48.61368" lon="5.05718">
        <ele>213.55</ele>
        <time>2010-06-24T16:13:02Z</time>
      </trkpt>
      <trkpt lat="48.61357" lon="5.05705">
        <ele>213.55</ele>
        <time>2010-06-24T16:13:07Z</time>
      </trkpt>
      <trkpt lat="48.61345" lon="5.05687">
        <ele>213.07</ele>
        <time>2010-06-24T16:13:14Z</time>
      </trkpt>
      <trkpt lat="48.61335" lon="5.05673">
        <ele>213.55</ele>
        <time>2010-06-24T16:13:22Z</time>
      </trkpt>
      <trkpt lat="48.61315" lon="5.05651">
        <ele>212.59</ele>
        <time>2010-06-24T16:13:29Z</time>
      </trkpt>
      <trkpt lat="48.61289" lon="5.05623">
        <ele>212.59</ele>
        <time>2010-06-24T16:13:36Z</time>
      </trkpt>
      <trkpt lat="48.61271" lon="5.05604">
        <ele>212.59</ele>
        <time>2010-06-24T16:13:42Z</time>
      </trkpt>
      <trkpt lat="48.61255" lon="5.05594">
        <ele>212.11</ele>
        <time>2010-06-24T16:13:47Z</time>
      </trkpt>
      <trkpt lat="48.61251" lon="5.05591">
        <ele>210.67</ele>
        <time>2010-06-24T16:13:53Z</time>
      </trkpt>
      <trkpt lat="48.61251" lon="5.05591">
        <ele>212.11</ele>
        <time>2010-06-24T16:13:55Z</time>
      </trkpt>
      <trkpt lat="48.61251" lon="5.05591">
        <ele>212.11</ele>
        <time>2010-06-24T16:14:08Z</time>
      </trkpt>
      <trkpt lat="48.61251" lon="5.05591">
        <ele>212.11</ele>
        <time>2010-06-24T16:14:20Z</time>
      </trkpt>
      <trkpt lat="48.61237" lon="5.05584">
        <ele>210.67</ele>
        <time>2010-06-24T16:14:27Z</time>
      </trkpt>
      <trkpt lat="48.61231" lon="5.05579">
        <ele>211.15</ele>
        <time>2010-06-24T16:14:29Z</time>
      </trkpt>
      <trkpt lat="48.61217" lon="5.0557">
        <ele>210.67</ele>
        <time>2010-06-24T16:14:32Z</time>
      </trkpt>
      <trkpt lat="48.61199" lon="5.05546">
        <ele>210.67</ele>
        <time>2010-06-24T16:14:38Z</time>
      </trkpt>
      <trkpt lat="48.61195" lon="5.05545">
        <ele>210.67</ele>
        <time>2010-06-24T16:14:44Z</time>
      </trkpt>
      <trkpt lat="48.61196" lon="5.05544">
        <ele>211.15</ele>
        <time>2010-06-24T16:14:45Z</time>
      </trkpt>
      <trkpt lat="48.61203" lon="5.05527">
        <ele>211.15</ele>
        <time>2010-06-24T16:14:52Z</time>
      </trkpt>
      <trkpt lat="48.61205" lon="5.05507">
        <ele>212.59</ele>
        <time>2010-06-24T16:14:58Z</time>
      </trkpt>
      <trkpt lat="48.61207" lon="5.05504">
        <ele>212.59</ele>
        <time>2010-06-24T16:15:00Z</time>
      </trkpt>
      <trkpt lat="48.6122" lon="5.05479">
        <ele>213.55</ele>
        <time>2010-06-24T16:15:08Z</time>
      </trkpt>
      <trkpt lat="48.6123" lon="5.05458">
        <ele>214.51</ele>
        <time>2010-06-24T16:15:14Z</time>
      </trkpt>
      <trkpt lat="48.61235" lon="5.05439">
        <ele>214.99</ele>
        <time>2010-06-24T16:15:19Z</time>
      </trkpt>
      <trkpt lat="48.61239" lon="5.05427">
        <ele>214.51</ele>
        <time>2010-06-24T16:15:23Z</time>
      </trkpt>
      <trkpt lat="48.61238" lon="5.05409">
        <ele>213.55</ele>
        <time>2010-06-24T16:15:26Z</time>
      </trkpt>
      <trkpt lat="48.61232" lon="5.05395">
        <ele>212.11</ele>
        <time>2010-06-24T16:15:29Z</time>
      </trkpt>
      <trkpt lat="48.61204" lon="5.05361">
        <ele>209.7</ele>
        <time>2010-06-24T16:15:35Z</time>
      </trkpt>
      <trkpt lat="48.61173" lon="5.0533">
        <ele>208.26</ele>
        <time>2010-06-24T16:15:40Z</time>
      </trkpt>
      <trkpt lat="48.61156" lon="5.05292">
        <ele>207.3</ele>
        <time>2010-06-24T16:15:45Z</time>
      </trkpt>
      <trkpt lat="48.61157" lon="5.05264">
        <ele>207.78</ele>
        <time>2010-06-24T16:15:49Z</time>
      </trkpt>
      <trkpt lat="48.61171" lon="5.05214">
        <ele>206.82</ele>
        <time>2010-06-24T16:15:57Z</time>
      </trkpt>
      <trkpt lat="48.61181" lon="5.0517">
        <ele>206.34</ele>
        <time>2010-06-24T16:16:03Z</time>
      </trkpt>
      <trkpt lat="48.6119" lon="5.05127">
        <ele>206.34</ele>
        <time>2010-06-24T16:16:09Z</time>
      </trkpt>
      <trkpt lat="48.61194" lon="5.05115">
        <ele>205.38</ele>
        <time>2010-06-24T16:16:11Z</time>
      </trkpt>
      <trkpt lat="48.61199" lon="5.05072">
        <ele>201.05</ele>
        <time>2010-06-24T16:16:18Z</time>
      </trkpt>
      <trkpt lat="48.612" lon="5.05064">
        <ele>200.57</ele>
        <time>2010-06-24T16:16:21Z</time>
      </trkpt>
      <trkpt lat="48.61202" lon="5.05064">
        <ele>200.57</ele>
        <time>2010-06-24T16:16:24Z</time>
      </trkpt>
      <trkpt lat="48.61214" lon="5.05072">
        <ele>202.98</ele>
        <time>2010-06-24T16:16:31Z</time>
      </trkpt>
      <trkpt lat="48.61216" lon="5.05073">
        <ele>203.46</ele>
        <time>2010-06-24T16:16:32Z</time>
      </trkpt>
      <trkpt lat="48.6123" lon="5.05082">
        <ele>204.9</ele>
        <time>2010-06-24T16:16:39Z</time>
      </trkpt>
      <trkpt lat="48.61235" lon="5.05087">
        <ele>205.86</ele>
        <time>2010-06-24T16:16:42Z</time>
      </trkpt>
      <trkpt lat="48.61253" lon="5.05102">
        <ele>206.82</ele>
        <time>2010-06-24T16:16:51Z</time>
      </trkpt>
      <trkpt lat="48.61266" lon="5.05112">
        <ele>208.26</ele>
        <time>2010-06-24T16:16:58Z</time>
      </trkpt>
      <trkpt lat="48.6128" lon="5.05116">
        <ele>209.7</ele>
        <time>2010-06-24T16:17:06Z</time>
      </trkpt>
      <trkpt lat="48.61295" lon="5.05119">
        <ele>211.63</ele>
        <time>2010-06-24T16:17:14Z</time>
      </trkpt>
      <trkpt lat="48.61305" lon="5.05119">
        <ele>212.11</ele>
        <time>2010-06-24T16:17:19Z</time>
      </trkpt>
      <trkpt lat="48.61322" lon="5.05121">
        <ele>213.07</ele>
        <time>2010-06-24T16:17:26Z</time>
      </trkpt>
      <trkpt lat="48.61341" lon="5.0513">
        <ele>215.47</ele>
        <time>2010-06-24T16:17:34Z</time>
      </trkpt>
      <trkpt lat="48.61373" lon="5.05139">
        <ele>217.4</ele>
        <time>2010-06-24T16:17:44Z</time>
      </trkpt>
      <trkpt lat="48.61391" lon="5.05146">
        <ele>218.36</ele>
        <time>2010-06-24T16:17:51Z</time>
      </trkpt>
      <trkpt lat="48.61413" lon="5.05154">
        <ele>219.8</ele>
        <time>2010-06-24T16:18:00Z</time>
      </trkpt>
      <trkpt lat="48.61433" lon="5.05162">
        <ele>220.76</ele>
        <time>2010-06-24T16:18:09Z</time>
      </trkpt>
      <trkpt lat="48.6145" lon="5.05171">
        <ele>222.2</ele>
        <time>2010-06-24T16:18:17Z</time>
      </trkpt>
      <trkpt lat="48.61469" lon="5.05179">
        <ele>222.68</ele>
        <time>2010-06-24T16:18:25Z</time>
      </trkpt>
      <trkpt lat="48.61492" lon="5.05192">
        <ele>224.12</ele>
        <time>2010-06-24T16:18:35Z</time>
      </trkpt>
      <trkpt lat="48.61512" lon="5.05202">
        <ele>225.09</ele>
        <time>2010-06-24T16:18:43Z</time>
      </trkpt>
      <trkpt lat="48.61539" lon="5.05214">
        <ele>225.09</ele>
        <time>2010-06-24T16:18:52Z</time>
      </trkpt>
      <trkpt lat="48.61561" lon="5.05222">
        <ele>224.61</ele>
        <time>2010-06-24T16:18:59Z</time>
      </trkpt>
      <trkpt lat="48.61584" lon="5.05231">
        <ele>226.05</ele>
        <time>2010-06-24T16:19:06Z</time>
      </trkpt>
      <trkpt lat="48.61613" lon="5.05242">
        <ele>226.53</ele>
        <time>2010-06-24T16:19:14Z</time>
      </trkpt>
      <trkpt lat="48.61638" lon="5.05249">
        <ele>227.01</ele>
        <time>2010-06-24T16:19:21Z</time>
      </trkpt>
      <trkpt lat="48.6167" lon="5.05254">
        <ele>227.01</ele>
        <time>2010-06-24T16:19:30Z</time>
      </trkpt>
      <trkpt lat="48.61696" lon="5.05258">
        <ele>227.49</ele>
        <time>2010-06-24T16:19:37Z</time>
      </trkpt>
      <trkpt lat="48.6173" lon="5.05261">
        <ele>227.49</ele>
        <time>2010-06-24T16:19:46Z</time>
      </trkpt>
      <trkpt lat="48.61768" lon="5.05262">
        <ele>227.97</ele>
        <time>2010-06-24T16:19:56Z</time>
      </trkpt>
      <trkpt lat="48.61804" lon="5.05263">
        <ele>228.93</ele>
        <time>2010-06-24T16:20:05Z</time>
      </trkpt>
      <trkpt lat="48.61828" lon="5.05264">
        <ele>229.41</ele>
        <time>2010-06-24T16:20:11Z</time>
      </trkpt>
      <trkpt lat="48.61856" lon="5.05269">
        <ele>229.41</ele>
        <time>2010-06-24T16:20:18Z</time>
      </trkpt>
      <trkpt lat="48.61873" lon="5.05271">
        <ele>230.37</ele>
        <time>2010-06-24T16:20:22Z</time>
      </trkpt>
      <trkpt lat="48.61911" lon="5.05285">
        <ele>230.85</ele>
        <time>2010-06-24T16:20:32Z</time>
      </trkpt>
      <trkpt lat="48.61936" lon="5.05299">
        <ele>230.85</ele>
        <time>2010-06-24T16:20:39Z</time>
      </trkpt>
      <trkpt lat="48.61967" lon="5.05318">
        <ele>231.81</ele>
        <time>2010-06-24T16:20:48Z</time>
      </trkpt>
      <trkpt lat="48.61993" lon="5.05338">
        <ele>231.81</ele>
        <time>2010-06-24T16:20:56Z</time>
      </trkpt>
      <trkpt lat="48.61997" lon="5.05341">
        <ele>231.33</ele>
        <time>2010-06-24T16:20:57Z</time>
      </trkpt>
      <trkpt lat="48.62018" lon="5.05359">
        <ele>231.81</ele>
        <time>2010-06-24T16:21:03Z</time>
      </trkpt>
      <trkpt lat="48.62035" lon="5.05375">
        <ele>231.81</ele>
        <time>2010-06-24T16:21:08Z</time>
      </trkpt>
      <trkpt lat="48.6206" lon="5.05389">
        <ele>230.85</ele>
        <time>2010-06-24T16:21:14Z</time>
      </trkpt>
      <trkpt lat="48.62068" lon="5.05392">
        <ele>230.85</ele>
        <time>2010-06-24T16:21:16Z</time>
      </trkpt>
      <trkpt lat="48.62098" lon="5.05394">
        <ele>231.33</ele>
        <time>2010-06-24T16:21:23Z</time>
      </trkpt>
      <trkpt lat="48.62102" lon="5.05395">
        <ele>231.33</ele>
        <time>2010-06-24T16:21:24Z</time>
      </trkpt>
      <trkpt lat="48.62107" lon="5.05396">
        <ele>231.33</ele>
        <time>2010-06-24T16:21:25Z</time>
      </trkpt>
      <trkpt lat="48.6215" lon="5.054">
        <ele>232.3</ele>
        <time>2010-06-24T16:21:35Z</time>
      </trkpt>
      <trkpt lat="48.62185" lon="5.05403">
        <ele>233.26</ele>
        <time>2010-06-24T16:21:43Z</time>
      </trkpt>
      <trkpt lat="48.62189" lon="5.05403">
        <ele>233.26</ele>
        <time>2010-06-24T16:21:44Z</time>
      </trkpt>
      <trkpt lat="48.62193" lon="5.05404">
        <ele>233.74</ele>
        <time>2010-06-24T16:21:45Z</time>
      </trkpt>
      <trkpt lat="48.62211" lon="5.05405">
        <ele>234.22</ele>
        <time>2010-06-24T16:21:49Z</time>
      </trkpt>
      <trkpt lat="48.62216" lon="5.05406">
        <ele>233.74</ele>
        <time>2010-06-24T16:21:50Z</time>
      </trkpt>
      <trkpt lat="48.6222" lon="5.05406">
        <ele>233.74</ele>
        <time>2010-06-24T16:21:51Z</time>
      </trkpt>
      <trkpt lat="48.6227" lon="5.05413">
        <ele>234.22</ele>
        <time>2010-06-24T16:22:02Z</time>
      </trkpt>
      <trkpt lat="48.62284" lon="5.05415">
        <ele>234.22</ele>
        <time>2010-06-24T16:22:05Z</time>
      </trkpt>
      <trkpt lat="48.62289" lon="5.05415">
        <ele>234.7</ele>
        <time>2010-06-24T16:22:06Z</time>
      </trkpt>
      <trkpt lat="48.62307" lon="5.05417">
        <ele>234.7</ele>
        <time>2010-06-24T16:22:10Z</time>
      </trkpt>
      <trkpt lat="48.62316" lon="5.05418">
        <ele>234.7</ele>
        <time>2010-06-24T16:22:12Z</time>
      </trkpt>
      <trkpt lat="48.62348" lon="5.05421">
        <ele>235.18</ele>
        <time>2010-06-24T16:22:20Z</time>
      </trkpt>
      <trkpt lat="48.62365" lon="5.05422">
        <ele>235.18</ele>
        <time>2010-06-24T16:22:27Z</time>
      </trkpt>
      <trkpt lat="48.62379" lon="5.05424">
        <ele>235.18</ele>
        <time>2010-06-24T16:22:32Z</time>
      </trkpt>
      <trkpt lat="48.62389" lon="5.05424">
        <ele>234.22</ele>
        <time>2010-06-24T16:22:36Z</time>
      </trkpt>
      <trkpt lat="48.62391" lon="5.05427">
        <ele>234.22</ele>
        <time>2010-06-24T16:22:37Z</time>
      </trkpt>
      <trkpt lat="48.62393" lon="5.05432">
        <ele>234.22</ele>
        <time>2010-06-24T16:22:38Z</time>
      </trkpt>
      <trkpt lat="48.62394" lon="5.05437">
        <ele>234.7</ele>
        <time>2010-06-24T16:22:39Z</time>
      </trkpt>
      <trkpt lat="48.62397" lon="5.05451">
        <ele>237.1</ele>
        <time>2010-06-24T16:22:42Z</time>
      </trkpt>
      <trkpt lat="48.62397" lon="5.05465">
        <ele>229.89</ele>
        <time>2010-06-24T16:22:45Z</time>
      </trkpt>
      <trkpt lat="48.62397" lon="5.05468">
        <ele>235.18</ele>
        <time>2010-06-24T16:22:46Z</time>
      </trkpt>
      <trkpt lat="48.62397" lon="5.05471">
        <ele>239.99</ele>
        <time>2010-06-24T16:22:47Z</time>
      </trkpt>
      <trkpt lat="48.62398" lon="5.05476">
        <ele>235.18</ele>
        <time>2010-06-24T16:22:48Z</time>
      </trkpt>
      <trkpt lat="48.62399" lon="5.0552">
        <ele>235.66</ele>
        <time>2010-06-24T16:22:56Z</time>
      </trkpt>
      <trkpt lat="48.62396" lon="5.05552">
        <ele>236.14</ele>
        <time>2010-06-24T16:23:02Z</time>
      </trkpt>
      <trkpt lat="48.62392" lon="5.05587">
        <ele>237.58</ele>
        <time>2010-06-24T16:23:09Z</time>
      </trkpt>
      <trkpt lat="48.62388" lon="5.05632">
        <ele>238.06</ele>
        <time>2010-06-24T16:23:17Z</time>
      </trkpt>
      <trkpt lat="48.62389" lon="5.05664">
        <ele>238.54</ele>
        <time>2010-06-24T16:23:23Z</time>
      </trkpt>
      <trkpt lat="48.62388" lon="5.05687">
        <ele>239.02</ele>
        <time>2010-06-24T16:23:28Z</time>
      </trkpt>
      <trkpt lat="48.6239" lon="5.05725">
        <ele>239.02</ele>
        <time>2010-06-24T16:23:35Z</time>
      </trkpt>
      <trkpt lat="48.62391" lon="5.05761">
        <ele>239.99</ele>
        <time>2010-06-24T16:23:41Z</time>
      </trkpt>
      <trkpt lat="48.62391" lon="5.05809">
        <ele>240.95</ele>
        <time>2010-06-24T16:23:48Z</time>
      </trkpt>
      <trkpt lat="48.62393" lon="5.05815">
        <ele>240.47</ele>
        <time>2010-06-24T16:23:49Z</time>
      </trkpt>
      <trkpt lat="48.62395" lon="5.05834">
        <ele>240.47</ele>
        <time>2010-06-24T16:23:52Z</time>
      </trkpt>
      <trkpt lat="48.62399" lon="5.05839">
        <ele>241.43</ele>
        <time>2010-06-24T16:23:55Z</time>
      </trkpt>
      <trkpt lat="48.62416" lon="5.05838">
        <ele>240.47</ele>
        <time>2010-06-24T16:24:04Z</time>
      </trkpt>
      <trkpt lat="48.62442" lon="5.0584">
        <ele>238.54</ele>
        <time>2010-06-24T16:24:12Z</time>
      </trkpt>
      <trkpt lat="48.62451" lon="5.05837">
        <ele>236.62</ele>
        <time>2010-06-24T16:24:14Z</time>
      </trkpt>
      <trkpt lat="48.62462" lon="5.05837">
        <ele>236.14</ele>
        <time>2010-06-24T16:24:16Z</time>
      </trkpt>
      <trkpt lat="48.62477" lon="5.05839">
        <ele>233.74</ele>
        <time>2010-06-24T16:24:18Z</time>
      </trkpt>
      <trkpt lat="48.62486" lon="5.05838">
        <ele>233.26</ele>
        <time>2010-06-24T16:24:19Z</time>
      </trkpt>
      <trkpt lat="48.62494" lon="5.05836">
        <ele>233.26</ele>
        <time>2010-06-24T16:24:20Z</time>
      </trkpt>
      <trkpt lat="48.62502" lon="5.05832">
        <ele>233.26</ele>
        <time>2010-06-24T16:24:21Z</time>
      </trkpt>
      <trkpt lat="48.62511" lon="5.05828">
        <ele>233.74</ele>
        <time>2010-06-24T16:24:22Z</time>
      </trkpt>
      <trkpt lat="48.62518" lon="5.05826">
        <ele>233.26</ele>
        <time>2010-06-24T16:24:23Z</time>
      </trkpt>
      <trkpt lat="48.62524" lon="5.05825">
        <ele>233.74</ele>
        <time>2010-06-24T16:24:24Z</time>
      </trkpt>
      <trkpt lat="48.6256" lon="5.05821">
        <ele>234.22</ele>
        <time>2010-06-24T16:24:31Z</time>
      </trkpt>
      <trkpt lat="48.62569" lon="5.05821">
        <ele>234.7</ele>
        <time>2010-06-24T16:24:33Z</time>
      </trkpt>
      <trkpt lat="48.62571" lon="5.05823">
        <ele>235.18</ele>
        <time>2010-06-24T16:24:34Z</time>
      </trkpt>
      <trkpt lat="48.62573" lon="5.05827">
        <ele>235.18</ele>
        <time>2010-06-24T16:24:35Z</time>
      </trkpt>
      <trkpt lat="48.62575" lon="5.0583">
        <ele>235.66</ele>
        <time>2010-06-24T16:24:36Z</time>
      </trkpt>
      <trkpt lat="48.6258" lon="5.05853">
        <ele>236.62</ele>
        <time>2010-06-24T16:24:42Z</time>
      </trkpt>
      <trkpt lat="48.62584" lon="5.05883">
        <ele>238.54</ele>
        <time>2010-06-24T16:24:49Z</time>
      </trkpt>
      <trkpt lat="48.6259" lon="5.05918">
        <ele>239.02</ele>
        <time>2010-06-24T16:24:57Z</time>
      </trkpt>
      <trkpt lat="48.62592" lon="5.05952">
        <ele>239.51</ele>
        <time>2010-06-24T16:25:04Z</time>
      </trkpt>
      <trkpt lat="48.62595" lon="5.05986">
        <ele>240.47</ele>
        <time>2010-06-24T16:25:11Z</time>
      </trkpt>
      <trkpt lat="48.626" lon="5.06016">
        <ele>240.47</ele>
        <time>2010-06-24T16:25:18Z</time>
      </trkpt>
      <trkpt lat="48.62608" lon="5.06048">
        <ele>239.51</ele>
        <time>2010-06-24T16:25:24Z</time>
      </trkpt>
      <trkpt lat="48.62612" lon="5.06108">
        <ele>239.51</ele>
        <time>2010-06-24T16:25:31Z</time>
      </trkpt>
      <trkpt lat="48.62615" lon="5.06159">
        <ele>238.06</ele>
        <time>2010-06-24T16:25:38Z</time>
      </trkpt>
      <trkpt lat="48.62616" lon="5.06184">
        <ele>238.06</ele>
        <time>2010-06-24T16:25:44Z</time>
      </trkpt>
      <trkpt lat="48.62618" lon="5.06197">
        <ele>238.06</ele>
        <time>2010-06-24T16:25:52Z</time>
      </trkpt>
      <trkpt lat="48.62621" lon="5.06204">
        <ele>238.06</ele>
        <time>2010-06-24T16:26:00Z</time>
      </trkpt>
      <trkpt lat="48.62621" lon="5.06204">
        <ele>237.58</ele>
        <time>2010-06-24T16:26:14Z</time>
      </trkpt>
      <trkpt lat="48.62621" lon="5.06204">
        <ele>237.58</ele>
        <time>2010-06-24T16:26:26Z</time>
      </trkpt>
      <trkpt lat="48.62621" lon="5.06204">
        <ele>238.06</ele>
        <time>2010-06-24T16:26:44Z</time>
      </trkpt>
      <trkpt lat="48.62619" lon="5.06204">
        <ele>238.54</ele>
        <time>2010-06-24T16:26:59Z</time>
      </trkpt>
      <trkpt lat="48.62613" lon="5.06205">
        <ele>238.54</ele>
        <time>2010-06-24T16:27:03Z</time>
      </trkpt>
      <trkpt lat="48.62597" lon="5.06208">
        <ele>239.02</ele>
        <time>2010-06-24T16:27:12Z</time>
      </trkpt>
      <trkpt lat="48.62584" lon="5.06209">
        <ele>239.02</ele>
        <time>2010-06-24T16:27:18Z</time>
      </trkpt>
      <trkpt lat="48.62553" lon="5.0621">
        <ele>238.54</ele>
        <time>2010-06-24T16:27:26Z</time>
      </trkpt>
      <trkpt lat="48.62518" lon="5.06217">
        <ele>236.62</ele>
        <time>2010-06-24T16:27:33Z</time>
      </trkpt>
      <trkpt lat="48.62514" lon="5.06218">
        <ele>236.62</ele>
        <time>2010-06-24T16:27:34Z</time>
      </trkpt>
      <trkpt lat="48.62508" lon="5.06219">
        <ele>236.62</ele>
        <time>2010-06-24T16:27:35Z</time>
      </trkpt>
      <trkpt lat="48.62472" lon="5.06225">
        <ele>236.62</ele>
        <time>2010-06-24T16:27:41Z</time>
      </trkpt>
      <trkpt lat="48.62467" lon="5.06226">
        <ele>236.62</ele>
        <time>2010-06-24T16:27:42Z</time>
      </trkpt>
      <trkpt lat="48.62435" lon="5.06233">
        <ele>237.58</ele>
        <time>2010-06-24T16:27:49Z</time>
      </trkpt>
      <trkpt lat="48.6241" lon="5.0624">
        <ele>236.62</ele>
        <time>2010-06-24T16:27:55Z</time>
      </trkpt>
      <trkpt lat="48.62386" lon="5.06244">
        <ele>235.66</ele>
        <time>2010-06-24T16:28:00Z</time>
      </trkpt>
      <trkpt lat="48.62337" lon="5.0625">
        <ele>234.22</ele>
        <time>2010-06-24T16:28:07Z</time>
      </trkpt>
      <trkpt lat="48.62323" lon="5.06252">
        <ele>234.22</ele>
        <time>2010-06-24T16:28:09Z</time>
      </trkpt>
      <trkpt lat="48.62273" lon="5.06259">
        <ele>233.74</ele>
        <time>2010-06-24T16:28:16Z</time>
      </trkpt>
      <trkpt lat="48.62227" lon="5.06266">
        <ele>234.22</ele>
        <time>2010-06-24T16:28:23Z</time>
      </trkpt>
      <trkpt lat="48.62202" lon="5.0627">
        <ele>234.7</ele>
        <time>2010-06-24T16:28:28Z</time>
      </trkpt>
      <trkpt lat="48.62197" lon="5.06272">
        <ele>235.18</ele>
        <time>2010-06-24T16:28:29Z</time>
      </trkpt>
      <trkpt lat="48.62193" lon="5.06274">
        <ele>235.18</ele>
        <time>2010-06-24T16:28:30Z</time>
      </trkpt>
      <trkpt lat="48.6219" lon="5.06278">
        <ele>234.7</ele>
        <time>2010-06-24T16:28:31Z</time>
      </trkpt>
      <trkpt lat="48.62187" lon="5.06283">
        <ele>235.66</ele>
        <time>2010-06-24T16:28:32Z</time>
      </trkpt>
      <trkpt lat="48.62185" lon="5.06289">
        <ele>235.18</ele>
        <time>2010-06-24T16:28:33Z</time>
      </trkpt>
      <trkpt lat="48.62184" lon="5.06297">
        <ele>234.7</ele>
        <time>2010-06-24T16:28:34Z</time>
      </trkpt>
      <trkpt lat="48.62184" lon="5.06305">
        <ele>234.7</ele>
        <time>2010-06-24T16:28:35Z</time>
      </trkpt>
      <trkpt lat="48.62183" lon="5.06313">
        <ele>234.7</ele>
        <time>2010-06-24T16:28:36Z</time>
      </trkpt>
      <trkpt lat="48.62183" lon="5.06322">
        <ele>234.7</ele>
        <time>2010-06-24T16:28:37Z</time>
      </trkpt>
      <trkpt lat="48.62182" lon="5.0633">
        <ele>234.22</ele>
        <time>2010-06-24T16:28:38Z</time>
      </trkpt>
      <trkpt lat="48.62179" lon="5.06349">
        <ele>233.26</ele>
        <time>2010-06-24T16:28:40Z</time>
      </trkpt>
      <trkpt lat="48.62176" lon="5.06377">
        <ele>231.81</ele>
        <time>2010-06-24T16:28:43Z</time>
      </trkpt>
      <trkpt lat="48.62175" lon="5.06417">
        <ele>228.45</ele>
        <time>2010-06-24T16:28:47Z</time>
      </trkpt>
      <trkpt lat="48.62172" lon="5.06456">
        <ele>225.09</ele>
        <time>2010-06-24T16:28:51Z</time>
      </trkpt>
      <trkpt lat="48.62168" lon="5.06465">
        <ele>224.12</ele>
        <time>2010-06-24T16:28:52Z</time>
      </trkpt>
      <trkpt lat="48.62164" lon="5.06475">
        <ele>222.68</ele>
        <time>2010-06-24T16:28:53Z</time>
      </trkpt>
      <trkpt lat="48.62147" lon="5.06504">
        <ele>218.84</ele>
        <time>2010-06-24T16:28:57Z</time>
      </trkpt>
      <trkpt lat="48.62135" lon="5.06525">
        <ele>215.47</ele>
        <time>2010-06-24T16:29:00Z</time>
      </trkpt>
      <trkpt lat="48.62129" lon="5.06533">
        <ele>214.99</ele>
        <time>2010-06-24T16:29:01Z</time>
      </trkpt>
      <trkpt lat="48.62109" lon="5.06557">
        <ele>211.63</ele>
        <time>2010-06-24T16:29:04Z</time>
      </trkpt>
      <trkpt lat="48.62084" lon="5.06577">
        <ele>208.26</ele>
        <time>2010-06-24T16:29:08Z</time>
      </trkpt>
      <trkpt lat="48.62064" lon="5.06595">
        <ele>205.38</ele>
        <time>2010-06-24T16:29:14Z</time>
      </trkpt>
      <trkpt lat="48.62062" lon="5.06597">
        <ele>204.9</ele>
        <time>2010-06-24T16:29:15Z</time>
      </trkpt>
      <trkpt lat="48.62061" lon="5.06599">
        <ele>204.42</ele>
        <time>2010-06-24T16:29:16Z</time>
      </trkpt>
      <trkpt lat="48.62061" lon="5.06601">
        <ele>203.94</ele>
        <time>2010-06-24T16:29:17Z</time>
      </trkpt>
      <trkpt lat="48.62063" lon="5.06602">
        <ele>203.94</ele>
        <time>2010-06-24T16:29:18Z</time>
      </trkpt>
      <trkpt lat="48.62064" lon="5.06601">
        <ele>203.94</ele>
        <time>2010-06-24T16:29:19Z</time>
      </trkpt>
      <trkpt lat="48.62066" lon="5.066">
        <ele>203.94</ele>
        <time>2010-06-24T16:29:20Z</time>
      </trkpt>
      <trkpt lat="48.62067" lon="5.06599">
        <ele>204.42</ele>
        <time>2010-06-24T16:29:21Z</time>
      </trkpt>
      <trkpt lat="48.6207" lon="5.06598">
        <ele>203.94</ele>
        <time>2010-06-24T16:29:22Z</time>
      </trkpt>
      <trkpt lat="48.62087" lon="5.06592">
        <ele>203.46</ele>
        <time>2010-06-24T16:29:28Z</time>
      </trkpt>
      <trkpt lat="48.62107" lon="5.06584">
        <ele>203.46</ele>
        <time>2010-06-24T16:29:34Z</time>
      </trkpt>
      <trkpt lat="48.62136" lon="5.06575">
        <ele>202.98</ele>
        <time>2010-06-24T16:29:41Z</time>
      </trkpt>
      <trkpt lat="48.62173" lon="5.06564">
        <ele>202.01</ele>
        <time>2010-06-24T16:29:49Z</time>
      </trkpt>
      <trkpt lat="48.62204" lon="5.06554">
        <ele>201.05</ele>
        <time>2010-06-24T16:29:56Z</time>
      </trkpt>
      <trkpt lat="48.62243" lon="5.0654">
        <ele>200.57</ele>
        <time>2010-06-24T16:30:04Z</time>
      </trkpt>
      <trkpt lat="48.62284" lon="5.06526">
        <ele>201.05</ele>
        <time>2010-06-24T16:30:13Z</time>
      </trkpt>
      <trkpt lat="48.62298" lon="5.06521">
        <ele>202.98</ele>
        <time>2010-06-24T16:30:18Z</time>
      </trkpt>
      <trkpt lat="48.62313" lon="5.06517">
        <ele>205.38</ele>
        <time>2010-06-24T16:30:24Z</time>
      </trkpt>
      <trkpt lat="48.62338" lon="5.06513">
        <ele>207.3</ele>
        <time>2010-06-24T16:30:33Z</time>
      </trkpt>
      <trkpt lat="48.62357" lon="5.06512">
        <ele>207.3</ele>
        <time>2010-06-24T16:30:40Z</time>
      </trkpt>
      <trkpt lat="48.62384" lon="5.06508">
        <ele>206.82</ele>
        <time>2010-06-24T16:30:47Z</time>
      </trkpt>
      <trkpt lat="48.62404" lon="5.06505">
        <ele>205.86</ele>
        <time>2010-06-24T16:30:53Z</time>
      </trkpt>
      <trkpt lat="48.62424" lon="5.06502">
        <ele>205.86</ele>
        <time>2010-06-24T16:31:00Z</time>
      </trkpt>
      <trkpt lat="48.62432" lon="5.065">
        <ele>206.34</ele>
        <time>2010-06-24T16:31:04Z</time>
      </trkpt>
      <trkpt lat="48.62455" lon="5.06497">
        <ele>205.38</ele>
        <time>2010-06-24T16:31:12Z</time>
      </trkpt>
      <trkpt lat="48.6248" lon="5.06494">
        <ele>205.38</ele>
        <time>2010-06-24T16:31:19Z</time>
      </trkpt>
      <trkpt lat="48.62511" lon="5.06488">
        <ele>205.38</ele>
        <time>2010-06-24T16:31:26Z</time>
      </trkpt>
      <trkpt lat="48.62544" lon="5.06482">
        <ele>205.86</ele>
        <time>2010-06-24T16:31:34Z</time>
      </trkpt>
      <trkpt lat="48.62568" lon="5.06478">
        <ele>204.42</ele>
        <time>2010-06-24T16:31:40Z</time>
      </trkpt>
      <trkpt lat="48.62592" lon="5.06463">
        <ele>204.9</ele>
        <time>2010-06-24T16:31:46Z</time>
      </trkpt>
      <trkpt lat="48.62594" lon="5.06459">
        <ele>205.86</ele>
        <time>2010-06-24T16:31:47Z</time>
      </trkpt>
      <trkpt lat="48.62607" lon="5.06442">
        <ele>208.26</ele>
        <time>2010-06-24T16:31:53Z</time>
      </trkpt>
      <trkpt lat="48.62623" lon="5.06429">
        <ele>209.7</ele>
        <time>2010-06-24T16:32:00Z</time>
      </trkpt>
      <trkpt lat="48.6264" lon="5.06418">
        <ele>209.7</ele>
        <time>2010-06-24T16:32:09Z</time>
      </trkpt>
      <trkpt lat="48.62658" lon="5.06406">
        <ele>211.15</ele>
        <time>2010-06-24T16:32:16Z</time>
      </trkpt>
      <trkpt lat="48.62663" lon="5.06393">
        <ele>214.51</ele>
        <time>2010-06-24T16:32:24Z</time>
      </trkpt>
      <trkpt lat="48.62664" lon="5.0638">
        <ele>217.4</ele>
        <time>2010-06-24T16:32:31Z</time>
      </trkpt>
      <trkpt lat="48.62658" lon="5.06372">
        <ele>219.8</ele>
        <time>2010-06-24T16:32:39Z</time>
      </trkpt>
      <trkpt lat="48.62646" lon="5.06367">
        <ele>221.72</ele>
        <time>2010-06-24T16:32:45Z</time>
      </trkpt>
      <trkpt lat="48.62635" lon="5.06366">
        <ele>223.16</ele>
        <time>2010-06-24T16:32:53Z</time>
      </trkpt>
      <trkpt lat="48.62632" lon="5.06366">
        <ele>223.64</ele>
        <time>2010-06-24T16:32:55Z</time>
      </trkpt>
      <trkpt lat="48.62629" lon="5.06364">
        <ele>224.12</ele>
        <time>2010-06-24T16:32:58Z</time>
      </trkpt>
      <trkpt lat="48.62628" lon="5.06347">
        <ele>226.53</ele>
        <time>2010-06-24T16:33:06Z</time>
      </trkpt>
      <trkpt lat="48.62627" lon="5.06337">
        <ele>227.97</ele>
        <time>2010-06-24T16:33:12Z</time>
      </trkpt>
      <trkpt lat="48.62623" lon="5.0632">
        <ele>230.37</ele>
        <time>2010-06-24T16:33:22Z</time>
      </trkpt>
      <trkpt lat="48.62623" lon="5.06313">
        <ele>231.81</ele>
        <time>2010-06-24T16:33:25Z</time>
      </trkpt>
      <trkpt lat="48.62626" lon="5.063">
        <ele>232.78</ele>
        <time>2010-06-24T16:33:33Z</time>
      </trkpt>
      <trkpt lat="48.62623" lon="5.06289">
        <ele>233.74</ele>
        <time>2010-06-24T16:33:39Z</time>
      </trkpt>
      <trkpt lat="48.62622" lon="5.06281">
        <ele>235.18</ele>
        <time>2010-06-24T16:33:44Z</time>
      </trkpt>
      <trkpt lat="48.62615" lon="5.06263">
        <ele>235.18</ele>
        <time>2010-06-24T16:33:54Z</time>
      </trkpt>
      <trkpt lat="48.62606" lon="5.06264">
        <ele>235.66</ele>
        <time>2010-06-24T16:34:01Z</time>
      </trkpt>
      <trkpt lat="48.62599" lon="5.06254">
        <ele>236.14</ele>
        <time>2010-06-24T16:34:09Z</time>
      </trkpt>
      <trkpt lat="48.62602" lon="5.06245">
        <ele>236.62</ele>
        <time>2010-06-24T16:34:16Z</time>
      </trkpt>
      <trkpt lat="48.62603" lon="5.06235">
        <ele>237.58</ele>
        <time>2010-06-24T16:34:22Z</time>
      </trkpt>
      <trkpt lat="48.62595" lon="5.06216">
        <ele>238.54</ele>
        <time>2010-06-24T16:34:32Z</time>
      </trkpt>
      <trkpt lat="48.62593" lon="5.06206">
        <ele>239.51</ele>
        <time>2010-06-24T16:34:38Z</time>
      </trkpt>
      <trkpt lat="48.62601" lon="5.06203">
        <ele>239.02</ele>
        <time>2010-06-24T16:34:44Z</time>
      </trkpt>
      <trkpt lat="48.62617" lon="5.062">
        <ele>238.54</ele>
        <time>2010-06-24T16:34:53Z</time>
      </trkpt>
      <trkpt lat="48.62627" lon="5.06194">
        <ele>238.06</ele>
        <time>2010-06-24T16:35:01Z</time>
      </trkpt>
      <trkpt lat="48.62627" lon="5.06194">
        <ele>238.06</ele>
        <time>2010-06-24T16:35:12Z</time>
      </trkpt>
      <trkpt lat="48.62627" lon="5.06194">
        <ele>238.06</ele>
        <time>2010-06-24T16:35:28Z</time>
      </trkpt>
      <trkpt lat="48.62627" lon="5.06194">
        <ele>238.06</ele>
        <time>2010-06-24T16:35:41Z</time>
      </trkpt>
      <trkpt lat="48.62627" lon="5.06194">
        <ele>238.06</ele>
        <time>2010-06-24T16:35:54Z</time>
      </trkpt>
      <trkpt lat="48.62629" lon="5.06193">
        <ele>237.58</ele>
        <time>2010-06-24T16:35:58Z</time>
      </trkpt>
      <trkpt lat="48.62643" lon="5.06189">
        <ele>237.1</ele>
        <time>2010-06-24T16:36:05Z</time>
      </trkpt>
      <trkpt lat="48.62663" lon="5.06182">
        <ele>236.14</ele>
        <time>2010-06-24T16:36:11Z</time>
      </trkpt>
      <trkpt lat="48.62685" lon="5.06177">
        <ele>236.14</ele>
        <time>2010-06-24T16:36:19Z</time>
      </trkpt>
      <trkpt lat="48.6269" lon="5.06176">
        <ele>236.62</ele>
        <time>2010-06-24T16:36:21Z</time>
      </trkpt>
      <trkpt lat="48.62707" lon="5.06168">
        <ele>237.1</ele>
        <time>2010-06-24T16:36:30Z</time>
      </trkpt>
      <trkpt lat="48.62728" lon="5.06162">
        <ele>237.58</ele>
        <time>2010-06-24T16:36:38Z</time>
      </trkpt>
      <trkpt lat="48.62744" lon="5.06157">
        <ele>237.58</ele>
        <time>2010-06-24T16:36:45Z</time>
      </trkpt>
      <trkpt lat="48.62765" lon="5.06153">
        <ele>238.06</ele>
        <time>2010-06-24T16:36:52Z</time>
      </trkpt>
      <trkpt lat="48.62779" lon="5.06155">
        <ele>238.06</ele>
        <time>2010-06-24T16:36:59Z</time>
      </trkpt>
      <trkpt lat="48.62804" lon="5.06158">
        <ele>237.58</ele>
        <time>2010-06-24T16:37:07Z</time>
      </trkpt>
      <trkpt lat="48.6283" lon="5.0616">
        <ele>237.58</ele>
        <time>2010-06-24T16:37:13Z</time>
      </trkpt>
      <trkpt lat="48.6286" lon="5.06159">
        <ele>237.58</ele>
        <time>2010-06-24T16:37:21Z</time>
      </trkpt>
      <trkpt lat="48.62882" lon="5.06157">
        <ele>237.1</ele>
        <time>2010-06-24T16:37:27Z</time>
      </trkpt>
      <trkpt lat="48.62907" lon="5.06154">
        <ele>237.1</ele>
        <time>2010-06-24T16:37:34Z</time>
      </trkpt>
      <trkpt lat="48.62939" lon="5.0615">
        <ele>237.1</ele>
        <time>2010-06-24T16:37:43Z</time>
      </trkpt>
      <trkpt lat="48.62961" lon="5.06143">
        <ele>236.62</ele>
        <time>2010-06-24T16:37:49Z</time>
      </trkpt>
      <trkpt lat="48.62988" lon="5.0613">
        <ele>237.58</ele>
        <time>2010-06-24T16:37:57Z</time>
      </trkpt>
      <trkpt lat="48.63018" lon="5.06117">
        <ele>238.54</ele>
        <time>2010-06-24T16:38:06Z</time>
      </trkpt>
      <trkpt lat="48.63041" lon="5.06108">
        <ele>239.02</ele>
        <time>2010-06-24T16:38:13Z</time>
      </trkpt>
      <trkpt lat="48.63067" lon="5.06099">
        <ele>239.51</ele>
        <time>2010-06-24T16:38:20Z</time>
      </trkpt>
      <trkpt lat="48.63093" lon="5.0609">
        <ele>239.51</ele>
        <time>2010-06-24T16:38:27Z</time>
      </trkpt>
      <trkpt lat="48.6312" lon="5.06078">
        <ele>239.51</ele>
        <time>2010-06-24T16:38:34Z</time>
      </trkpt>
      <trkpt lat="48.63147" lon="5.06068">
        <ele>239.02</ele>
        <time>2010-06-24T16:38:41Z</time>
      </trkpt>
      <trkpt lat="48.6317" lon="5.06061">
        <ele>238.54</ele>
        <time>2010-06-24T16:38:47Z</time>
      </trkpt>
      <trkpt lat="48.63198" lon="5.0605">
        <ele>237.58</ele>
        <time>2010-06-24T16:38:53Z</time>
      </trkpt>
      <trkpt lat="48.63239" lon="5.06036">
        <ele>236.62</ele>
        <time>2010-06-24T16:39:01Z</time>
      </trkpt>
      <trkpt lat="48.63263" lon="5.06027">
        <ele>237.58</ele>
        <time>2010-06-24T16:39:07Z</time>
      </trkpt>
      <trkpt lat="48.63282" lon="5.06022">
        <ele>238.06</ele>
        <time>2010-06-24T16:39:13Z</time>
      </trkpt>
      <trkpt lat="48.63315" lon="5.0602">
        <ele>238.54</ele>
        <time>2010-06-24T16:39:22Z</time>
      </trkpt>
      <trkpt lat="48.63344" lon="5.06014">
        <ele>239.99</ele>
        <time>2010-06-24T16:39:29Z</time>
      </trkpt>
      <trkpt lat="48.63362" lon="5.06009">
        <ele>240.95</ele>
        <time>2010-06-24T16:39:35Z</time>
      </trkpt>
      <trkpt lat="48.63386" lon="5.06004">
        <ele>241.43</ele>
        <time>2010-06-24T16:39:42Z</time>
      </trkpt>
      <trkpt lat="48.63405" lon="5.06002">
        <ele>240.95</ele>
        <time>2010-06-24T16:39:48Z</time>
      </trkpt>
      <trkpt lat="48.63427" lon="5.05993">
        <ele>241.43</ele>
        <time>2010-06-24T16:39:54Z</time>
      </trkpt>
      <trkpt lat="48.63449" lon="5.05989">
        <ele>240.47</ele>
        <time>2010-06-24T16:40:00Z</time>
      </trkpt>
      <trkpt lat="48.63475" lon="5.05981">
        <ele>239.99</ele>
        <time>2010-06-24T16:40:07Z</time>
      </trkpt>
      <trkpt lat="48.63496" lon="5.05977">
        <ele>239.51</ele>
        <time>2010-06-24T16:40:14Z</time>
      </trkpt>
      <trkpt lat="48.6352" lon="5.0597">
        <ele>239.02</ele>
        <time>2010-06-24T16:40:20Z</time>
      </trkpt>
      <trkpt lat="48.63552" lon="5.05962">
        <ele>237.58</ele>
        <time>2010-06-24T16:40:27Z</time>
      </trkpt>
      <trkpt lat="48.63565" lon="5.05965">
        <ele>237.1</ele>
        <time>2010-06-24T16:40:31Z</time>
      </trkpt>
      <trkpt lat="48.63569" lon="5.05963">
        <ele>237.1</ele>
        <time>2010-06-24T16:40:38Z</time>
      </trkpt>
      <trkpt lat="48.63569" lon="5.05963">
        <ele>237.1</ele>
        <time>2010-06-24T16:40:49Z</time>
      </trkpt>
      <trkpt lat="48.63571" lon="5.05964">
        <ele>237.1</ele>
        <time>2010-06-24T16:40:58Z</time>
      </trkpt>
      <trkpt lat="48.63586" lon="5.05965">
        <ele>237.1</ele>
        <time>2010-06-24T16:41:04Z</time>
      </trkpt>
      <trkpt lat="48.63609" lon="5.05966">
        <ele>235.66</ele>
        <time>2010-06-24T16:41:10Z</time>
      </trkpt>
      <trkpt lat="48.63638" lon="5.05966">
        <ele>235.18</ele>
        <time>2010-06-24T16:41:17Z</time>
      </trkpt>
      <trkpt lat="48.6366" lon="5.05964">
        <ele>235.66</ele>
        <time>2010-06-24T16:41:24Z</time>
      </trkpt>
      <trkpt lat="48.63668" lon="5.05959">
        <ele>236.62</ele>
        <time>2010-06-24T16:41:31Z</time>
      </trkpt>
      <trkpt lat="48.63668" lon="5.05954">
        <ele>237.1</ele>
        <time>2010-06-24T16:41:39Z</time>
      </trkpt>
      <trkpt lat="48.63668" lon="5.05953">
        <ele>237.58</ele>
        <time>2010-06-24T16:41:40Z</time>
      </trkpt>
      <trkpt lat="48.63669" lon="5.05936">
        <ele>239.02</ele>
        <time>2010-06-24T16:41:47Z</time>
      </trkpt>
      <trkpt lat="48.63669" lon="5.05934">
        <ele>239.02</ele>
        <time>2010-06-24T16:41:48Z</time>
      </trkpt>
      <trkpt lat="48.63668" lon="5.05901">
        <ele>242.39</ele>
        <time>2010-06-24T16:41:57Z</time>
      </trkpt>
      <trkpt lat="48.63667" lon="5.05878">
        <ele>244.31</ele>
        <time>2010-06-24T16:42:04Z</time>
      </trkpt>
      <trkpt lat="48.63664" lon="5.05849">
        <ele>246.72</ele>
        <time>2010-06-24T16:42:13Z</time>
      </trkpt>
      <trkpt lat="48.6367" lon="5.05833">
        <ele>248.64</ele>
        <time>2010-06-24T16:42:20Z</time>
      </trkpt>
      <trkpt lat="48.63675" lon="5.05811">
        <ele>250.08</ele>
        <time>2010-06-24T16:42:28Z</time>
      </trkpt>
      <trkpt lat="48.63674" lon="5.0579">
        <ele>251.04</ele>
        <time>2010-06-24T16:42:35Z</time>
      </trkpt>
      <trkpt lat="48.63675" lon="5.05764">
        <ele>252</ele>
        <time>2010-06-24T16:42:43Z</time>
      </trkpt>
      <trkpt lat="48.63675" lon="5.05759">
        <ele>252</ele>
        <time>2010-06-24T16:42:45Z</time>
      </trkpt>
      <trkpt lat="48.63673" lon="5.05729">
        <ele>252.96</ele>
        <time>2010-06-24T16:42:55Z</time>
      </trkpt>
      <trkpt lat="48.63675" lon="5.0571">
        <ele>253.93</ele>
        <time>2010-06-24T16:43:02Z</time>
      </trkpt>
      <trkpt lat="48.63673" lon="5.05692">
        <ele>254.89</ele>
        <time>2010-06-24T16:43:09Z</time>
      </trkpt>
      <trkpt lat="48.6367" lon="5.05673">
        <ele>255.85</ele>
        <time>2010-06-24T16:43:17Z</time>
      </trkpt>
      <trkpt lat="48.63668" lon="5.05648">
        <ele>256.81</ele>
        <time>2010-06-24T16:43:26Z</time>
      </trkpt>
      <trkpt lat="48.63666" lon="5.05619">
        <ele>256.81</ele>
        <time>2010-06-24T16:43:35Z</time>
      </trkpt>
      <trkpt lat="48.63664" lon="5.05595">
        <ele>256.81</ele>
        <time>2010-06-24T16:43:43Z</time>
      </trkpt>
      <trkpt lat="48.63661" lon="5.05568">
        <ele>257.29</ele>
        <time>2010-06-24T16:43:53Z</time>
      </trkpt>
      <trkpt lat="48.63659" lon="5.05552">
        <ele>257.29</ele>
        <time>2010-06-24T16:43:58Z</time>
      </trkpt>
      <trkpt lat="48.63659" lon="5.05538">
        <ele>257.29</ele>
        <time>2010-06-24T16:44:04Z</time>
      </trkpt>
      <trkpt lat="48.63658" lon="5.05535">
        <ele>257.77</ele>
        <time>2010-06-24T16:44:05Z</time>
      </trkpt>
      <trkpt lat="48.63655" lon="5.05517">
        <ele>257.77</ele>
        <time>2010-06-24T16:44:13Z</time>
      </trkpt>
      <trkpt lat="48.63657" lon="5.05506">
        <ele>257.77</ele>
        <time>2010-06-24T16:44:21Z</time>
      </trkpt>
      <trkpt lat="48.63656" lon="5.05504">
        <ele>257.77</ele>
        <time>2010-06-24T16:44:24Z</time>
      </trkpt>
      <trkpt lat="48.63656" lon="5.05517">
        <ele>257.77</ele>
        <time>2010-06-24T16:44:34Z</time>
      </trkpt>
      <trkpt lat="48.63657" lon="5.05517">
        <ele>257.77</ele>
        <time>2010-06-24T16:44:37Z</time>
      </trkpt>
      <trkpt lat="48.63655" lon="5.05511">
        <ele>257.77</ele>
        <time>2010-06-24T16:44:43Z</time>
      </trkpt>
      <trkpt lat="48.63641" lon="5.05513">
        <ele>256.81</ele>
        <time>2010-06-24T16:44:50Z</time>
      </trkpt>
      <trkpt lat="48.63621" lon="5.05515">
        <ele>256.33</ele>
        <time>2010-06-24T16:44:58Z</time>
      </trkpt>
      <trkpt lat="48.63588" lon="5.05522">
        <ele>255.37</ele>
        <time>2010-06-24T16:45:05Z</time>
      </trkpt>
      <trkpt lat="48.63578" lon="5.05523">
        <ele>254.41</ele>
        <time>2010-06-24T16:45:07Z</time>
      </trkpt>
      <trkpt lat="48.63564" lon="5.05526">
        <ele>253.93</ele>
        <time>2010-06-24T16:45:10Z</time>
      </trkpt>
      <trkpt lat="48.63517" lon="5.05534">
        <ele>252</ele>
        <time>2010-06-24T16:45:20Z</time>
      </trkpt>
      <trkpt lat="48.63485" lon="5.05538">
        <ele>251.04</ele>
        <time>2010-06-24T16:45:27Z</time>
      </trkpt>
      <trkpt lat="48.6345" lon="5.05544">
        <ele>249.6</ele>
        <time>2010-06-24T16:45:34Z</time>
      </trkpt>
      <trkpt lat="48.63444" lon="5.05545">
        <ele>249.6</ele>
        <time>2010-06-24T16:45:35Z</time>
      </trkpt>
      <trkpt lat="48.63423" lon="5.0555">
        <ele>249.12</ele>
        <time>2010-06-24T16:45:40Z</time>
      </trkpt>
      <trkpt lat="48.63415" lon="5.0555">
        <ele>249.6</ele>
        <time>2010-06-24T16:45:42Z</time>
      </trkpt>
      <trkpt lat="48.63383" lon="5.05556">
        <ele>249.12</ele>
        <time>2010-06-24T16:45:50Z</time>
      </trkpt>
      <trkpt lat="48.63357" lon="5.05558">
        <ele>249.12</ele>
        <time>2010-06-24T16:45:55Z</time>
      </trkpt>
      <trkpt lat="48.63315" lon="5.05562">
        <ele>249.12</ele>
        <time>2010-06-24T16:46:03Z</time>
      </trkpt>
      <trkpt lat="48.63286" lon="5.05565">
        <ele>248.16</ele>
        <time>2010-06-24T16:46:08Z</time>
      </trkpt>
      <trkpt lat="48.6328" lon="5.05566">
        <ele>248.16</ele>
        <time>2010-06-24T16:46:09Z</time>
      </trkpt>
      <trkpt lat="48.63264" lon="5.05571">
        <ele>247.68</ele>
        <time>2010-06-24T16:46:13Z</time>
      </trkpt>
      <trkpt lat="48.63263" lon="5.0557">
        <ele>248.16</ele>
        <time>2010-06-24T16:46:16Z</time>
      </trkpt>
      <trkpt lat="48.63268" lon="5.05554">
        <ele>248.16</ele>
        <time>2010-06-24T16:46:22Z</time>
      </trkpt>
      <trkpt lat="48.63279" lon="5.05526">
        <ele>248.16</ele>
        <time>2010-06-24T16:46:29Z</time>
      </trkpt>
      <trkpt lat="48.63284" lon="5.05513">
        <ele>247.68</ele>
        <time>2010-06-24T16:46:31Z</time>
      </trkpt>
      <trkpt lat="48.63296" lon="5.05485">
        <ele>246.72</ele>
        <time>2010-06-24T16:46:36Z</time>
      </trkpt>
      <trkpt lat="48.63288" lon="5.05462">
        <ele>246.23</ele>
        <time>2010-06-24T16:46:41Z</time>
      </trkpt>
      <trkpt lat="48.63281" lon="5.05459">
        <ele>246.72</ele>
        <time>2010-06-24T16:46:43Z</time>
      </trkpt>
      <trkpt lat="48.6324" lon="5.05456">
        <ele>246.23</ele>
        <time>2010-06-24T16:46:52Z</time>
      </trkpt>
      <trkpt lat="48.63214" lon="5.05456">
        <ele>245.75</ele>
        <time>2010-06-24T16:46:59Z</time>
      </trkpt>
      <trkpt lat="48.63192" lon="5.05454">
        <ele>245.27</ele>
        <time>2010-06-24T16:47:05Z</time>
      </trkpt>
      <trkpt lat="48.63173" lon="5.05451">
        <ele>244.31</ele>
        <time>2010-06-24T16:47:11Z</time>
      </trkpt>
      <trkpt lat="48.63168" lon="5.05445">
        <ele>244.31</ele>
        <time>2010-06-24T16:47:14Z</time>
      </trkpt>
      <trkpt lat="48.63168" lon="5.05414">
        <ele>244.31</ele>
        <time>2010-06-24T16:47:20Z</time>
      </trkpt>
      <trkpt lat="48.63169" lon="5.05371">
        <ele>242.87</ele>
        <time>2010-06-24T16:47:28Z</time>
      </trkpt>
      <trkpt lat="48.63169" lon="5.05323">
        <ele>242.39</ele>
        <time>2010-06-24T16:47:35Z</time>
      </trkpt>
      <trkpt lat="48.6317" lon="5.05279">
        <ele>240.95</ele>
        <time>2010-06-24T16:47:41Z</time>
      </trkpt>
      <trkpt lat="48.6317" lon="5.05258">
        <ele>239.51</ele>
        <time>2010-06-24T16:47:44Z</time>
      </trkpt>
      <trkpt lat="48.63167" lon="5.05216">
        <ele>237.1</ele>
        <time>2010-06-24T16:47:50Z</time>
      </trkpt>
      <trkpt lat="48.63167" lon="5.05166">
        <ele>234.22</ele>
        <time>2010-06-24T16:47:56Z</time>
      </trkpt>
      <trkpt lat="48.63167" lon="5.05156">
        <ele>233.26</ele>
        <time>2010-06-24T16:47:57Z</time>
      </trkpt>
      <trkpt lat="48.63167" lon="5.05137">
        <ele>232.78</ele>
        <time>2010-06-24T16:47:59Z</time>
      </trkpt>
      <trkpt lat="48.63168" lon="5.05119">
        <ele>233.26</ele>
        <time>2010-06-24T16:48:01Z</time>
      </trkpt>
      <trkpt lat="48.63167" lon="5.0511">
        <ele>232.3</ele>
        <time>2010-06-24T16:48:02Z</time>
      </trkpt>
      <trkpt lat="48.63166" lon="5.05101">
        <ele>232.78</ele>
        <time>2010-06-24T16:48:03Z</time>
      </trkpt>
      <trkpt lat="48.63164" lon="5.05094">
        <ele>232.78</ele>
        <time>2010-06-24T16:48:04Z</time>
      </trkpt>
      <trkpt lat="48.63163" lon="5.05089">
        <ele>232.78</ele>
        <time>2010-06-24T16:48:05Z</time>
      </trkpt>
      <trkpt lat="48.63161" lon="5.05085">
        <ele>232.3</ele>
        <time>2010-06-24T16:48:06Z</time>
      </trkpt>
      <trkpt lat="48.63159" lon="5.05082">
        <ele>231.81</ele>
        <time>2010-06-24T16:48:07Z</time>
      </trkpt>
      <trkpt lat="48.63156" lon="5.0508">
        <ele>231.81</ele>
        <time>2010-06-24T16:48:08Z</time>
      </trkpt>
      <trkpt lat="48.63141" lon="5.05073">
        <ele>230.85</ele>
        <time>2010-06-24T16:48:12Z</time>
      </trkpt>
      <trkpt lat="48.63137" lon="5.05071">
        <ele>230.85</ele>
        <time>2010-06-24T16:48:13Z</time>
      </trkpt>
      <trkpt lat="48.63134" lon="5.05071">
        <ele>230.85</ele>
        <time>2010-06-24T16:48:14Z</time>
      </trkpt>
      <trkpt lat="48.63115" lon="5.05068">
        <ele>231.81</ele>
        <time>2010-06-24T16:48:19Z</time>
      </trkpt>
      <trkpt lat="48.63096" lon="5.05067">
        <ele>232.3</ele>
        <time>2010-06-24T16:48:25Z</time>
      </trkpt>
      <trkpt lat="48.63094" lon="5.05066">
        <ele>232.78</ele>
        <time>2010-06-24T16:48:26Z</time>
      </trkpt>
      <trkpt lat="48.63092" lon="5.05066">
        <ele>232.3</ele>
        <time>2010-06-24T16:48:27Z</time>
      </trkpt>
      <trkpt lat="48.6309" lon="5.05066">
        <ele>232.78</ele>
        <time>2010-06-24T16:48:28Z</time>
      </trkpt>
      <trkpt lat="48.63087" lon="5.05066">
        <ele>233.26</ele>
        <time>2010-06-24T16:48:29Z</time>
      </trkpt>
      <trkpt lat="48.63084" lon="5.05065">
        <ele>232.78</ele>
        <time>2010-06-24T16:48:30Z</time>
      </trkpt>
      <trkpt lat="48.63063" lon="5.05068">
        <ele>234.7</ele>
        <time>2010-06-24T16:48:37Z</time>
      </trkpt>
      <trkpt lat="48.63042" lon="5.05069">
        <ele>234.22</ele>
        <time>2010-06-24T16:48:43Z</time>
      </trkpt>
      <trkpt lat="48.63018" lon="5.05065">
        <ele>234.22</ele>
        <time>2010-06-24T16:48:50Z</time>
      </trkpt>
      <trkpt lat="48.62998" lon="5.05064">
        <ele>233.74</ele>
        <time>2010-06-24T16:48:56Z</time>
      </trkpt>
      <trkpt lat="48.62969" lon="5.05063">
        <ele>232.3</ele>
        <time>2010-06-24T16:49:03Z</time>
      </trkpt>
      <trkpt lat="48.62958" lon="5.05063">
        <ele>231.81</ele>
        <time>2010-06-24T16:49:05Z</time>
      </trkpt>
      <trkpt lat="48.62942" lon="5.05063">
        <ele>230.37</ele>
        <time>2010-06-24T16:49:08Z</time>
      </trkpt>
      <trkpt lat="48.62937" lon="5.05063">
        <ele>230.37</ele>
        <time>2010-06-24T16:49:09Z</time>
      </trkpt>
      <trkpt lat="48.62916" lon="5.05064">
        <ele>227.97</ele>
        <time>2010-06-24T16:49:15Z</time>
      </trkpt>
      <trkpt lat="48.62903" lon="5.05068">
        <ele>227.97</ele>
        <time>2010-06-24T16:49:21Z</time>
      </trkpt>
      <trkpt lat="48.62895" lon="5.05072">
        <ele>227.49</ele>
        <time>2010-06-24T16:49:25Z</time>
      </trkpt>
      <trkpt lat="48.62893" lon="5.05073">
        <ele>227.49</ele>
        <time>2010-06-24T16:49:26Z</time>
      </trkpt>
      <trkpt lat="48.62891" lon="5.05072">
        <ele>227.01</ele>
        <time>2010-06-24T16:49:27Z</time>
      </trkpt>
      <trkpt lat="48.62876" lon="5.05068">
        <ele>227.49</ele>
        <time>2010-06-24T16:49:33Z</time>
      </trkpt>
      <trkpt lat="48.62864" lon="5.05063">
        <ele>228.45</ele>
        <time>2010-06-24T16:49:38Z</time>
      </trkpt>
      <trkpt lat="48.62848" lon="5.05064">
        <ele>231.33</ele>
        <time>2010-06-24T16:49:46Z</time>
      </trkpt>
      <trkpt lat="48.6283" lon="5.05063">
        <ele>232.78</ele>
        <time>2010-06-24T16:49:53Z</time>
      </trkpt>
      <trkpt lat="48.62814" lon="5.05063">
        <ele>234.22</ele>
        <time>2010-06-24T16:50:00Z</time>
      </trkpt>
      <trkpt lat="48.62797" lon="5.05062">
        <ele>235.18</ele>
        <time>2010-06-24T16:50:07Z</time>
      </trkpt>
      <trkpt lat="48.62777" lon="5.05063">
        <ele>235.18</ele>
        <time>2010-06-24T16:50:13Z</time>
      </trkpt>
      <trkpt lat="48.62743" lon="5.05062">
        <ele>235.18</ele>
        <time>2010-06-24T16:50:23Z</time>
      </trkpt>
      <trkpt lat="48.62721" lon="5.0506">
        <ele>235.18</ele>
        <time>2010-06-24T16:50:30Z</time>
      </trkpt>
      <trkpt lat="48.62694" lon="5.0506">
        <ele>233.74</ele>
        <time>2010-06-24T16:50:39Z</time>
      </trkpt>
      <trkpt lat="48.62677" lon="5.05059">
        <ele>233.26</ele>
        <time>2010-06-24T16:50:45Z</time>
      </trkpt>
      <trkpt lat="48.62657" lon="5.05053">
        <ele>232.3</ele>
        <time>2010-06-24T16:50:49Z</time>
      </trkpt>
      <trkpt lat="48.62626" lon="5.05051">
        <ele>229.89</ele>
        <time>2010-06-24T16:50:54Z</time>
      </trkpt>
      <trkpt lat="48.62586" lon="5.05061">
        <ele>227.97</ele>
        <time>2010-06-24T16:50:59Z</time>
      </trkpt>
      <trkpt lat="48.6258" lon="5.05065">
        <ele>227.49</ele>
        <time>2010-06-24T16:51:00Z</time>
      </trkpt>
      <trkpt lat="48.62576" lon="5.05067">
        <ele>227.01</ele>
        <time>2010-06-24T16:51:01Z</time>
      </trkpt>
      <trkpt lat="48.62572" lon="5.05068">
        <ele>227.01</ele>
        <time>2010-06-24T16:51:02Z</time>
      </trkpt>
      <trkpt lat="48.62568" lon="5.05068">
        <ele>226.05</ele>
        <time>2010-06-24T16:51:03Z</time>
      </trkpt>
      <trkpt lat="48.62564" lon="5.05066">
        <ele>226.53</ele>
        <time>2010-06-24T16:51:04Z</time>
      </trkpt>
      <trkpt lat="48.6256" lon="5.05065">
        <ele>226.05</ele>
        <time>2010-06-24T16:51:05Z</time>
      </trkpt>
      <trkpt lat="48.62556" lon="5.05065">
        <ele>226.05</ele>
        <time>2010-06-24T16:51:06Z</time>
      </trkpt>
      <trkpt lat="48.62553" lon="5.05067">
        <ele>225.57</ele>
        <time>2010-06-24T16:51:07Z</time>
      </trkpt>
      <trkpt lat="48.6255" lon="5.05069">
        <ele>225.57</ele>
        <time>2010-06-24T16:51:08Z</time>
      </trkpt>
      <trkpt lat="48.62541" lon="5.05094">
        <ele>224.61</ele>
        <time>2010-06-24T16:51:13Z</time>
      </trkpt>
      <trkpt lat="48.62533" lon="5.05126">
        <ele>225.09</ele>
        <time>2010-06-24T16:51:19Z</time>
      </trkpt>
      <trkpt lat="48.62525" lon="5.0515">
        <ele>225.09</ele>
        <time>2010-06-24T16:51:24Z</time>
      </trkpt>
      <trkpt lat="48.62525" lon="5.05163">
        <ele>225.09</ele>
        <time>2010-06-24T16:51:27Z</time>
      </trkpt>
      <trkpt lat="48.6252" lon="5.05193">
        <ele>226.05</ele>
        <time>2010-06-24T16:51:34Z</time>
      </trkpt>
      <trkpt lat="48.62519" lon="5.05217">
        <ele>227.01</ele>
        <time>2010-06-24T16:51:40Z</time>
      </trkpt>
      <trkpt lat="48.6252" lon="5.05243">
        <ele>228.45</ele>
        <time>2010-06-24T16:51:47Z</time>
      </trkpt>
      <trkpt lat="48.62519" lon="5.05275">
        <ele>229.89</ele>
        <time>2010-06-24T16:51:55Z</time>
      </trkpt>
      <trkpt lat="48.62519" lon="5.05306">
        <ele>230.85</ele>
        <time>2010-06-24T16:52:02Z</time>
      </trkpt>
      <trkpt lat="48.62519" lon="5.05319">
        <ele>231.33</ele>
        <time>2010-06-24T16:52:05Z</time>
      </trkpt>
      <trkpt lat="48.62517" lon="5.0535">
        <ele>231.81</ele>
        <time>2010-06-24T16:52:13Z</time>
      </trkpt>
      <trkpt lat="48.62517" lon="5.05378">
        <ele>230.85</ele>
        <time>2010-06-24T16:52:20Z</time>
      </trkpt>
      <trkpt lat="48.62517" lon="5.05415">
        <ele>230.37</ele>
        <time>2010-06-24T16:52:27Z</time>
      </trkpt>
      <trkpt lat="48.62514" lon="5.05423">
        <ele>230.85</ele>
        <time>2010-06-24T16:52:29Z</time>
      </trkpt>
      <trkpt lat="48.62496" lon="5.05428">
        <ele>231.33</ele>
        <time>2010-06-24T16:52:36Z</time>
      </trkpt>
      <trkpt lat="48.62477" lon="5.05427">
        <ele>233.74</ele>
        <time>2010-06-24T16:52:44Z</time>
      </trkpt>
      <trkpt lat="48.62457" lon="5.05427">
        <ele>234.7</ele>
        <time>2010-06-24T16:52:51Z</time>
      </trkpt>
      <trkpt lat="48.62429" lon="5.05426">
        <ele>237.1</ele>
        <time>2010-06-24T16:53:00Z</time>
      </trkpt>
      <trkpt lat="48.62404" lon="5.05425">
        <ele>238.54</ele>
        <time>2010-06-24T16:53:08Z</time>
      </trkpt>
      <trkpt lat="48.62385" lon="5.05421">
        <ele>238.54</ele>
        <time>2010-06-24T16:53:15Z</time>
      </trkpt>
      <trkpt lat="48.62375" lon="5.05423">
        <ele>239.02</ele>
        <time>2010-06-24T16:53:21Z</time>
      </trkpt>
      <trkpt lat="48.62369" lon="5.05422">
        <ele>238.54</ele>
        <time>2010-06-24T16:53:29Z</time>
      </trkpt>
      <trkpt lat="48.62369" lon="5.05422">
        <ele>239.02</ele>
        <time>2010-06-24T16:53:42Z</time>
      </trkpt>
      <trkpt lat="48.62369" lon="5.05422">
        <ele>238.54</ele>
        <time>2010-06-24T16:53:56Z</time>
      </trkpt>
      <trkpt lat="48.62369" lon="5.05422">
        <ele>238.54</ele>
        <time>2010-06-24T16:54:11Z</time>
      </trkpt>
      <trkpt lat="48.62369" lon="5.05422">
        <ele>238.54</ele>
        <time>2010-06-24T16:54:29Z</time>
      </trkpt>
      <trkpt lat="48.62369" lon="5.05422">
        <ele>238.54</ele>
        <time>2010-06-24T16:54:44Z</time>
      </trkpt>
      <trkpt lat="48.62369" lon="5.05422">
        <ele>238.06</ele>
        <time>2010-06-24T16:54:53Z</time>
      </trkpt>
      <trkpt lat="48.62355" lon="5.05421">
        <ele>238.06</ele>
        <time>2010-06-24T16:55:00Z</time>
      </trkpt>
      <trkpt lat="48.62326" lon="5.05419">
        <ele>238.54</ele>
        <time>2010-06-24T16:55:09Z</time>
      </trkpt>
      <trkpt lat="48.62299" lon="5.05416">
        <ele>238.06</ele>
        <time>2010-06-24T16:55:16Z</time>
      </trkpt>
      <trkpt lat="48.62267" lon="5.05412">
        <ele>237.58</ele>
        <time>2010-06-24T16:55:24Z</time>
      </trkpt>
      <trkpt lat="48.62263" lon="5.05411">
        <ele>237.58</ele>
        <time>2010-06-24T16:55:25Z</time>
      </trkpt>
      <trkpt lat="48.62259" lon="5.05411">
        <ele>237.58</ele>
        <time>2010-06-24T16:55:26Z</time>
      </trkpt>
      <trkpt lat="48.62255" lon="5.0541">
        <ele>237.1</ele>
        <time>2010-06-24T16:55:27Z</time>
      </trkpt>
      <trkpt lat="48.62251" lon="5.0541">
        <ele>237.1</ele>
        <time>2010-06-24T16:55:28Z</time>
      </trkpt>
      <trkpt lat="48.62214" lon="5.05405">
        <ele>236.62</ele>
        <time>2010-06-24T16:55:37Z</time>
      </trkpt>
      <trkpt lat="48.62174" lon="5.05402">
        <ele>236.14</ele>
        <time>2010-06-24T16:55:46Z</time>
      </trkpt>
      <trkpt lat="48.62148" lon="5.05399">
        <ele>235.66</ele>
        <time>2010-06-24T16:55:52Z</time>
      </trkpt>
      <trkpt lat="48.62109" lon="5.05394">
        <ele>234.7</ele>
        <time>2010-06-24T16:56:01Z</time>
      </trkpt>
      <trkpt lat="48.6207" lon="5.05391">
        <ele>234.22</ele>
        <time>2010-06-24T16:56:09Z</time>
      </trkpt>
      <trkpt lat="48.62062" lon="5.05389">
        <ele>233.74</ele>
        <time>2010-06-24T16:56:11Z</time>
      </trkpt>
      <trkpt lat="48.62061" lon="5.05386">
        <ele>233.74</ele>
        <time>2010-06-24T16:56:12Z</time>
      </trkpt>
      <trkpt lat="48.62061" lon="5.05383">
        <ele>234.22</ele>
        <time>2010-06-24T16:56:13Z</time>
      </trkpt>
      <trkpt lat="48.62062" lon="5.0538">
        <ele>233.74</ele>
        <time>2010-06-24T16:56:14Z</time>
      </trkpt>
      <trkpt lat="48.62064" lon="5.05377">
        <ele>233.74</ele>
        <time>2010-06-24T16:56:15Z</time>
      </trkpt>
      <trkpt lat="48.62066" lon="5.05374">
        <ele>233.74</ele>
        <time>2010-06-24T16:56:16Z</time>
      </trkpt>
      <trkpt lat="48.62079" lon="5.05351">
        <ele>233.74</ele>
        <time>2010-06-24T16:56:21Z</time>
      </trkpt>
      <trkpt lat="48.62103" lon="5.05301">
        <ele>233.74</ele>
        <time>2010-06-24T16:56:30Z</time>
      </trkpt>
      <trkpt lat="48.62123" lon="5.0526">
        <ele>233.26</ele>
        <time>2010-06-24T16:56:37Z</time>
      </trkpt>
      <trkpt lat="48.6213" lon="5.05246">
        <ele>233.26</ele>
        <time>2010-06-24T16:56:40Z</time>
      </trkpt>
      <trkpt lat="48.62133" lon="5.05241">
        <ele>233.26</ele>
        <time>2010-06-24T16:56:41Z</time>
      </trkpt>
      <trkpt lat="48.62135" lon="5.05235">
        <ele>233.26</ele>
        <time>2010-06-24T16:56:42Z</time>
      </trkpt>
      <trkpt lat="48.62157" lon="5.0519">
        <ele>231.81</ele>
        <time>2010-06-24T16:56:50Z</time>
      </trkpt>
      <trkpt lat="48.62184" lon="5.05137">
        <ele>231.33</ele>
        <time>2010-06-24T16:56:59Z</time>
      </trkpt>
      <trkpt lat="48.62192" lon="5.05118">
        <ele>230.85</ele>
        <time>2010-06-24T16:57:02Z</time>
      </trkpt>
      <trkpt lat="48.62194" lon="5.05112">
        <ele>230.85</ele>
        <time>2010-06-24T16:57:03Z</time>
      </trkpt>
      <trkpt lat="48.62197" lon="5.05105">
        <ele>230.85</ele>
        <time>2010-06-24T16:57:04Z</time>
      </trkpt>
      <trkpt lat="48.62224" lon="5.05052">
        <ele>229.89</ele>
        <time>2010-06-24T16:57:13Z</time>
      </trkpt>
      <trkpt lat="48.6225" lon="5.04993">
        <ele>230.85</ele>
        <time>2010-06-24T16:57:23Z</time>
      </trkpt>
      <trkpt lat="48.62266" lon="5.04958">
        <ele>230.85</ele>
        <time>2010-06-24T16:57:29Z</time>
      </trkpt>
      <trkpt lat="48.62283" lon="5.04916">
        <ele>230.37</ele>
        <time>2010-06-24T16:57:37Z</time>
      </trkpt>
      <trkpt lat="48.62288" lon="5.04906">
        <ele>230.37</ele>
        <time>2010-06-24T16:57:39Z</time>
      </trkpt>
      <trkpt lat="48.62303" lon="5.04873">
        <ele>229.41</ele>
        <time>2010-06-24T16:57:45Z</time>
      </trkpt>
      <trkpt lat="48.62306" lon="5.04868">
        <ele>228.93</ele>
        <time>2010-06-24T16:57:46Z</time>
      </trkpt>
      <trkpt lat="48.62308" lon="5.04863">
        <ele>228.93</ele>
        <time>2010-06-24T16:57:47Z</time>
      </trkpt>
      <trkpt lat="48.6231" lon="5.04859">
        <ele>228.93</ele>
        <time>2010-06-24T16:57:48Z</time>
      </trkpt>
      <trkpt lat="48.62312" lon="5.04855">
        <ele>228.45</ele>
        <time>2010-06-24T16:57:49Z</time>
      </trkpt>
      <trkpt lat="48.62314" lon="5.04851">
        <ele>228.45</ele>
        <time>2010-06-24T16:57:50Z</time>
      </trkpt>
      <trkpt lat="48.62328" lon="5.04828">
        <ele>227.49</ele>
        <time>2010-06-24T16:57:57Z</time>
      </trkpt>
      <trkpt lat="48.62339" lon="5.04801">
        <ele>225.09</ele>
        <time>2010-06-24T16:58:03Z</time>
      </trkpt>
      <trkpt lat="48.62342" lon="5.04797">
        <ele>224.61</ele>
        <time>2010-06-24T16:58:04Z</time>
      </trkpt>
      <trkpt lat="48.62356" lon="5.04768">
        <ele>221.72</ele>
        <time>2010-06-24T16:58:09Z</time>
      </trkpt>
      <trkpt lat="48.62387" lon="5.04707">
        <ele>218.36</ele>
        <time>2010-06-24T16:58:16Z</time>
      </trkpt>
      <trkpt lat="48.624" lon="5.04683">
        <ele>217.4</ele>
        <time>2010-06-24T16:58:18Z</time>
      </trkpt>
      <trkpt lat="48.62427" lon="5.04636">
        <ele>215.47</ele>
        <time>2010-06-24T16:58:22Z</time>
      </trkpt>
      <trkpt lat="48.62452" lon="5.04587">
        <ele>214.99</ele>
        <time>2010-06-24T16:58:27Z</time>
      </trkpt>
      <trkpt lat="48.62479" lon="5.04536">
        <ele>213.55</ele>
        <time>2010-06-24T16:58:34Z</time>
      </trkpt>
      <trkpt lat="48.62503" lon="5.04487">
        <ele>212.59</ele>
        <time>2010-06-24T16:58:41Z</time>
      </trkpt>
      <trkpt lat="48.62528" lon="5.04438">
        <ele>212.59</ele>
        <time>2010-06-24T16:58:49Z</time>
      </trkpt>
      <trkpt lat="48.6255" lon="5.04385">
        <ele>212.59</ele>
        <time>2010-06-24T16:58:58Z</time>
      </trkpt>
      <trkpt lat="48.62567" lon="5.04343">
        <ele>212.59</ele>
        <time>2010-06-24T16:59:06Z</time>
      </trkpt>
      <trkpt lat="48.62586" lon="5.04294">
        <ele>212.59</ele>
        <time>2010-06-24T16:59:15Z</time>
      </trkpt>
      <trkpt lat="48.62588" lon="5.04288">
        <ele>212.59</ele>
        <time>2010-06-24T16:59:16Z</time>
      </trkpt>
      <trkpt lat="48.62591" lon="5.04277">
        <ele>212.59</ele>
        <time>2010-06-24T16:59:18Z</time>
      </trkpt>
      <trkpt lat="48.62593" lon="5.04271">
        <ele>212.59</ele>
        <time>2010-06-24T16:59:19Z</time>
      </trkpt>
      <trkpt lat="48.6261" lon="5.04229">
        <ele>213.07</ele>
        <time>2010-06-24T16:59:27Z</time>
      </trkpt>
      <trkpt lat="48.62625" lon="5.04187">
        <ele>214.03</ele>
        <time>2010-06-24T16:59:35Z</time>
      </trkpt>
      <trkpt lat="48.62646" lon="5.0414">
        <ele>215.95</ele>
        <time>2010-06-24T16:59:45Z</time>
      </trkpt>
      <trkpt lat="48.62662" lon="5.04103">
        <ele>217.88</ele>
        <time>2010-06-24T16:59:53Z</time>
      </trkpt>
      <trkpt lat="48.62675" lon="5.04077">
        <ele>220.28</ele>
        <time>2010-06-24T16:59:59Z</time>
      </trkpt>
      <trkpt lat="48.62677" lon="5.04072">
        <ele>220.28</ele>
        <time>2010-06-24T17:00:00Z</time>
      </trkpt>
      <trkpt lat="48.62694" lon="5.04033">
        <ele>223.16</ele>
        <time>2010-06-24T17:00:09Z</time>
      </trkpt>
      <trkpt lat="48.62711" lon="5.03995">
        <ele>224.61</ele>
        <time>2010-06-24T17:00:18Z</time>
      </trkpt>
      <trkpt lat="48.62727" lon="5.03949">
        <ele>225.09</ele>
        <time>2010-06-24T17:00:28Z</time>
      </trkpt>
      <trkpt lat="48.62739" lon="5.03913">
        <ele>224.61</ele>
        <time>2010-06-24T17:00:36Z</time>
      </trkpt>
      <trkpt lat="48.62747" lon="5.03879">
        <ele>223.64</ele>
        <time>2010-06-24T17:00:44Z</time>
      </trkpt>
      <trkpt lat="48.62751" lon="5.0386">
        <ele>223.16</ele>
        <time>2010-06-24T17:00:52Z</time>
      </trkpt>
      <trkpt lat="48.62757" lon="5.03834">
        <ele>223.16</ele>
        <time>2010-06-24T17:01:00Z</time>
      </trkpt>
      <trkpt lat="48.62765" lon="5.03798">
        <ele>221.24</ele>
        <time>2010-06-24T17:01:07Z</time>
      </trkpt>
      <trkpt lat="48.62767" lon="5.03791">
        <ele>221.24</ele>
        <time>2010-06-24T17:01:08Z</time>
      </trkpt>
      <trkpt lat="48.62769" lon="5.03784">
        <ele>220.76</ele>
        <time>2010-06-24T17:01:09Z</time>
      </trkpt>
      <trkpt lat="48.6277" lon="5.03777">
        <ele>220.28</ele>
        <time>2010-06-24T17:01:10Z</time>
      </trkpt>
      <trkpt lat="48.62771" lon="5.03769">
        <ele>220.28</ele>
        <time>2010-06-24T17:01:11Z</time>
      </trkpt>
      <trkpt lat="48.62777" lon="5.03732">
        <ele>218.36</ele>
        <time>2010-06-24T17:01:15Z</time>
      </trkpt>
      <trkpt lat="48.62779" lon="5.03721">
        <ele>217.88</ele>
        <time>2010-06-24T17:01:16Z</time>
      </trkpt>
      <trkpt lat="48.62788" lon="5.03687">
        <ele>215.95</ele>
        <time>2010-06-24T17:01:19Z</time>
      </trkpt>
      <trkpt lat="48.62801" lon="5.0364">
        <ele>213.55</ele>
        <time>2010-06-24T17:01:23Z</time>
      </trkpt>
      <trkpt lat="48.62809" lon="5.03609">
        <ele>212.11</ele>
        <time>2010-06-24T17:01:27Z</time>
      </trkpt>
      <trkpt lat="48.6281" lon="5.03606">
        <ele>212.11</ele>
        <time>2010-06-24T17:01:28Z</time>
      </trkpt>
      <trkpt lat="48.62812" lon="5.03604">
        <ele>211.63</ele>
        <time>2010-06-24T17:01:29Z</time>
      </trkpt>
      <trkpt lat="48.62819" lon="5.03609">
        <ele>211.63</ele>
        <time>2010-06-24T17:01:34Z</time>
      </trkpt>
      <trkpt lat="48.6283" lon="5.03609">
        <ele>210.67</ele>
        <time>2010-06-24T17:01:37Z</time>
      </trkpt>
      <trkpt lat="48.62834" lon="5.03609">
        <ele>209.7</ele>
        <time>2010-06-24T17:01:38Z</time>
      </trkpt>
      <trkpt lat="48.62855" lon="5.03613">
        <ele>208.74</ele>
        <time>2010-06-24T17:01:42Z</time>
      </trkpt>
      <trkpt lat="48.62865" lon="5.03615">
        <ele>208.74</ele>
        <time>2010-06-24T17:01:47Z</time>
      </trkpt>
      <trkpt lat="48.62865" lon="5.03615">
        <ele>208.74</ele>
        <time>2010-06-24T17:01:59Z</time>
      </trkpt>
      <trkpt lat="48.62866" lon="5.03616">
        <ele>208.74</ele>
        <time>2010-06-24T17:02:01Z</time>
      </trkpt>
      <trkpt lat="48.62874" lon="5.03623">
        <ele>211.15</ele>
        <time>2010-06-24T17:02:10Z</time>
      </trkpt>
      <trkpt lat="48.62877" lon="5.03627">
        <ele>211.15</ele>
        <time>2010-06-24T17:02:17Z</time>
      </trkpt>
      <trkpt lat="48.6288" lon="5.03631">
        <ele>211.63</ele>
        <time>2010-06-24T17:02:23Z</time>
      </trkpt>
      <trkpt lat="48.62886" lon="5.03635">
        <ele>212.11</ele>
        <time>2010-06-24T17:02:27Z</time>
      </trkpt>
      <trkpt lat="48.62901" lon="5.03636">
        <ele>211.15</ele>
        <time>2010-06-24T17:02:33Z</time>
      </trkpt>
      <trkpt lat="48.62921" lon="5.03632">
        <ele>210.67</ele>
        <time>2010-06-24T17:02:38Z</time>
      </trkpt>
      <trkpt lat="48.62937" lon="5.03632">
        <ele>211.15</ele>
        <time>2010-06-24T17:02:43Z</time>
      </trkpt>
      <trkpt lat="48.62955" lon="5.0364">
        <ele>212.59</ele>
        <time>2010-06-24T17:02:48Z</time>
      </trkpt>
      <trkpt lat="48.6297" lon="5.03644">
        <ele>214.03</ele>
        <time>2010-06-24T17:02:53Z</time>
      </trkpt>
      <trkpt lat="48.62977" lon="5.03659">
        <ele>214.03</ele>
        <time>2010-06-24T17:02:59Z</time>
      </trkpt>
      <trkpt lat="48.62982" lon="5.03676">
        <ele>213.55</ele>
        <time>2010-06-24T17:03:04Z</time>
      </trkpt>
      <trkpt lat="48.62985" lon="5.03683">
        <ele>213.55</ele>
        <time>2010-06-24T17:03:10Z</time>
      </trkpt>
      <trkpt lat="48.62986" lon="5.03684">
        <ele>213.07</ele>
        <time>2010-06-24T17:03:12Z</time>
      </trkpt>
      <trkpt lat="48.63004" lon="5.03705">
        <ele>213.55</ele>
        <time>2010-06-24T17:03:19Z</time>
      </trkpt>
      <trkpt lat="48.63009" lon="5.03711">
        <ele>214.03</ele>
        <time>2010-06-24T17:03:21Z</time>
      </trkpt>
      <trkpt lat="48.6302" lon="5.03732">
        <ele>214.51</ele>
        <time>2010-06-24T17:03:28Z</time>
      </trkpt>
      <trkpt lat="48.63029" lon="5.03746">
        <ele>214.99</ele>
        <time>2010-06-24T17:03:34Z</time>
      </trkpt>
      <trkpt lat="48.63038" lon="5.03755">
        <ele>215.47</ele>
        <time>2010-06-24T17:03:40Z</time>
      </trkpt>
      <trkpt lat="48.6305" lon="5.03761">
        <ele>215.47</ele>
        <time>2010-06-24T17:03:48Z</time>
      </trkpt>
      <trkpt lat="48.63052" lon="5.0376">
        <ele>215.47</ele>
        <time>2010-06-24T17:03:50Z</time>
      </trkpt>
      <trkpt lat="48.63068" lon="5.03765">
        <ele>215.95</ele>
        <time>2010-06-24T17:03:58Z</time>
      </trkpt>
      <trkpt lat="48.63072" lon="5.03778">
        <ele>215.95</ele>
        <time>2010-06-24T17:04:03Z</time>
      </trkpt>
      <trkpt lat="48.63087" lon="5.03789">
        <ele>216.43</ele>
        <time>2010-06-24T17:04:10Z</time>
      </trkpt>
      <trkpt lat="48.63089" lon="5.03792">
        <ele>216.43</ele>
        <time>2010-06-24T17:04:11Z</time>
      </trkpt>
      <trkpt lat="48.631" lon="5.03799">
        <ele>216.91</ele>
        <time>2010-06-24T17:04:16Z</time>
      </trkpt>
      <trkpt lat="48.63114" lon="5.03816">
        <ele>218.36</ele>
        <time>2010-06-24T17:04:23Z</time>
      </trkpt>
      <trkpt lat="48.63126" lon="5.03832">
        <ele>218.84</ele>
        <time>2010-06-24T17:04:30Z</time>
      </trkpt>
      <trkpt lat="48.63136" lon="5.03839">
        <ele>219.32</ele>
        <time>2010-06-24T17:04:37Z</time>
      </trkpt>
      <trkpt lat="48.63144" lon="5.03844">
        <ele>219.32</ele>
        <time>2010-06-24T17:04:45Z</time>
      </trkpt>
      <trkpt lat="48.63149" lon="5.03847">
        <ele>219.32</ele>
        <time>2010-06-24T17:04:51Z</time>
      </trkpt>
      <trkpt lat="48.63157" lon="5.03853">
        <ele>219.8</ele>
        <time>2010-06-24T17:04:57Z</time>
      </trkpt>
      <trkpt lat="48.63161" lon="5.03856">
        <ele>220.28</ele>
        <time>2010-06-24T17:04:59Z</time>
      </trkpt>
      <trkpt lat="48.63167" lon="5.03853">
        <ele>221.72</ele>
        <time>2010-06-24T17:05:02Z</time>
      </trkpt>
      <trkpt lat="48.6317" lon="5.03838">
        <ele>222.68</ele>
        <time>2010-06-24T17:05:12Z</time>
      </trkpt>
      <trkpt lat="48.63178" lon="5.03832">
        <ele>223.16</ele>
        <time>2010-06-24T17:05:20Z</time>
      </trkpt>
      <trkpt lat="48.63189" lon="5.03814">
        <ele>224.61</ele>
        <time>2010-06-24T17:05:28Z</time>
      </trkpt>
      <trkpt lat="48.63198" lon="5.03796">
        <ele>225.57</ele>
        <time>2010-06-24T17:05:36Z</time>
      </trkpt>
      <trkpt lat="48.63204" lon="5.0378">
        <ele>226.05</ele>
        <time>2010-06-24T17:05:43Z</time>
      </trkpt>
      <trkpt lat="48.63208" lon="5.03771">
        <ele>227.01</ele>
        <time>2010-06-24T17:05:50Z</time>
      </trkpt>
      <trkpt lat="48.6321" lon="5.03763">
        <ele>227.49</ele>
        <time>2010-06-24T17:05:57Z</time>
      </trkpt>
      <trkpt lat="48.63213" lon="5.03758">
        <ele>228.93</ele>
        <time>2010-06-24T17:06:00Z</time>
      </trkpt>
      <trkpt lat="48.63221" lon="5.03736">
        <ele>229.41</ele>
        <time>2010-06-24T17:06:08Z</time>
      </trkpt>
      <trkpt lat="48.6323" lon="5.03719">
        <ele>230.37</ele>
        <time>2010-06-24T17:06:15Z</time>
      </trkpt>
      <trkpt lat="48.63235" lon="5.03705">
        <ele>231.33</ele>
        <time>2010-06-24T17:06:20Z</time>
      </trkpt>
      <trkpt lat="48.63243" lon="5.03691">
        <ele>232.78</ele>
        <time>2010-06-24T17:06:26Z</time>
      </trkpt>
      <trkpt lat="48.63253" lon="5.03672">
        <ele>234.22</ele>
        <time>2010-06-24T17:06:34Z</time>
      </trkpt>
      <trkpt lat="48.63257" lon="5.03659">
        <ele>234.7</ele>
        <time>2010-06-24T17:06:39Z</time>
      </trkpt>
      <trkpt lat="48.63264" lon="5.03651">
        <ele>235.66</ele>
        <time>2010-06-24T17:06:42Z</time>
      </trkpt>
      <trkpt lat="48.63273" lon="5.03656">
        <ele>236.14</ele>
        <time>2010-06-24T17:06:49Z</time>
      </trkpt>
      <trkpt lat="48.63274" lon="5.03659">
        <ele>235.66</ele>
        <time>2010-06-24T17:06:50Z</time>
      </trkpt>
      <trkpt lat="48.63282" lon="5.03668">
        <ele>236.14</ele>
        <time>2010-06-24T17:06:56Z</time>
      </trkpt>
      <trkpt lat="48.63285" lon="5.03675">
        <ele>236.14</ele>
        <time>2010-06-24T17:06:59Z</time>
      </trkpt>
      <trkpt lat="48.633" lon="5.03689">
        <ele>236.62</ele>
        <time>2010-06-24T17:07:06Z</time>
      </trkpt>
      <trkpt lat="48.63305" lon="5.03698">
        <ele>236.14</ele>
        <time>2010-06-24T17:07:12Z</time>
      </trkpt>
      <trkpt lat="48.63313" lon="5.03718">
        <ele>237.1</ele>
        <time>2010-06-24T17:07:19Z</time>
      </trkpt>
      <trkpt lat="48.63332" lon="5.03741">
        <ele>237.58</ele>
        <time>2010-06-24T17:07:26Z</time>
      </trkpt>
      <trkpt lat="48.63337" lon="5.03742">
        <ele>237.58</ele>
        <time>2010-06-24T17:07:28Z</time>
      </trkpt>
      <trkpt lat="48.63353" lon="5.03745">
        <ele>238.54</ele>
        <time>2010-06-24T17:07:33Z</time>
      </trkpt>
      <trkpt lat="48.63358" lon="5.03744">
        <ele>238.54</ele>
        <time>2010-06-24T17:07:35Z</time>
      </trkpt>
      <trkpt lat="48.63374" lon="5.03725">
        <ele>239.02</ele>
        <time>2010-06-24T17:07:42Z</time>
      </trkpt>
      <trkpt lat="48.63386" lon="5.03698">
        <ele>239.02</ele>
        <time>2010-06-24T17:07:50Z</time>
      </trkpt>
      <trkpt lat="48.63397" lon="5.03677">
        <ele>238.54</ele>
        <time>2010-06-24T17:07:56Z</time>
      </trkpt>
      <trkpt lat="48.6341" lon="5.03663">
        <ele>238.06</ele>
        <time>2010-06-24T17:08:01Z</time>
      </trkpt>
      <trkpt lat="48.63428" lon="5.03648">
        <ele>238.06</ele>
        <time>2010-06-24T17:08:07Z</time>
      </trkpt>
      <trkpt lat="48.63432" lon="5.03645">
        <ele>237.58</ele>
        <time>2010-06-24T17:08:08Z</time>
      </trkpt>
      <trkpt lat="48.63438" lon="5.03606">
        <ele>237.1</ele>
        <time>2010-06-24T17:08:15Z</time>
      </trkpt>
      <trkpt lat="48.63443" lon="5.03585">
        <ele>235.66</ele>
        <time>2010-06-24T17:08:19Z</time>
      </trkpt>
      <trkpt lat="48.63449" lon="5.03568">
        <ele>234.7</ele>
        <time>2010-06-24T17:08:24Z</time>
      </trkpt>
      <trkpt lat="48.63448" lon="5.03554">
        <ele>234.22</ele>
        <time>2010-06-24T17:08:29Z</time>
      </trkpt>
      <trkpt lat="48.63453" lon="5.03546">
        <ele>233.74</ele>
        <time>2010-06-24T17:08:34Z</time>
      </trkpt>
      <trkpt lat="48.6346" lon="5.03535">
        <ele>231.81</ele>
        <time>2010-06-24T17:08:39Z</time>
      </trkpt>
      <trkpt lat="48.6346" lon="5.03532">
        <ele>232.3</ele>
        <time>2010-06-24T17:08:40Z</time>
      </trkpt>
      <trkpt lat="48.63472" lon="5.03505">
        <ele>230.37</ele>
        <time>2010-06-24T17:08:46Z</time>
      </trkpt>
      <trkpt lat="48.63476" lon="5.035">
        <ele>229.89</ele>
        <time>2010-06-24T17:08:47Z</time>
      </trkpt>
      <trkpt lat="48.63481" lon="5.03494">
        <ele>229.89</ele>
        <time>2010-06-24T17:08:48Z</time>
      </trkpt>
      <trkpt lat="48.6349" lon="5.03485">
        <ele>228.45</ele>
        <time>2010-06-24T17:08:50Z</time>
      </trkpt>
      <trkpt lat="48.63492" lon="5.03484">
        <ele>228.45</ele>
        <time>2010-06-24T17:08:51Z</time>
      </trkpt>
      <trkpt lat="48.63507" lon="5.03463">
        <ele>226.53</ele>
        <time>2010-06-24T17:08:55Z</time>
      </trkpt>
      <trkpt lat="48.63509" lon="5.0346">
        <ele>226.05</ele>
        <time>2010-06-24T17:08:56Z</time>
      </trkpt>
      <trkpt lat="48.63511" lon="5.03458">
        <ele>225.57</ele>
        <time>2010-06-24T17:08:57Z</time>
      </trkpt>
      <trkpt lat="48.63513" lon="5.03457">
        <ele>225.57</ele>
        <time>2010-06-24T17:08:58Z</time>
      </trkpt>
      <trkpt lat="48.63514" lon="5.03456">
        <ele>225.57</ele>
        <time>2010-06-24T17:08:59Z</time>
      </trkpt>
      <trkpt lat="48.63514" lon="5.03457">
        <ele>226.05</ele>
        <time>2010-06-24T17:09:00Z</time>
      </trkpt>
      <trkpt lat="48.63515" lon="5.03457">
        <ele>226.05</ele>
        <time>2010-06-24T17:09:01Z</time>
      </trkpt>
      <trkpt lat="48.63521" lon="5.03458">
        <ele>226.53</ele>
        <time>2010-06-24T17:09:07Z</time>
      </trkpt>
      <trkpt lat="48.63521" lon="5.03458">
        <ele>227.01</ele>
        <time>2010-06-24T17:09:22Z</time>
      </trkpt>
      <trkpt lat="48.63521" lon="5.03458">
        <ele>226.53</ele>
        <time>2010-06-24T17:09:37Z</time>
      </trkpt>
      <trkpt lat="48.63522" lon="5.03458">
        <ele>226.53</ele>
        <time>2010-06-24T17:09:44Z</time>
      </trkpt>
      <trkpt lat="48.63523" lon="5.0346">
        <ele>226.53</ele>
        <time>2010-06-24T17:09:46Z</time>
      </trkpt>
      <trkpt lat="48.63535" lon="5.03468">
        <ele>225.57</ele>
        <time>2010-06-24T17:09:52Z</time>
      </trkpt>
      <trkpt lat="48.63544" lon="5.0346">
        <ele>225.09</ele>
        <time>2010-06-24T17:09:58Z</time>
      </trkpt>
      <trkpt lat="48.63559" lon="5.03446">
        <ele>224.61</ele>
        <time>2010-06-24T17:10:06Z</time>
      </trkpt>
      <trkpt lat="48.63567" lon="5.03445">
        <ele>225.09</ele>
        <time>2010-06-24T17:10:12Z</time>
      </trkpt>
      <trkpt lat="48.63568" lon="5.03446">
        <ele>224.61</ele>
        <time>2010-06-24T17:10:14Z</time>
      </trkpt>
      <trkpt lat="48.63581" lon="5.03451">
        <ele>225.57</ele>
        <time>2010-06-24T17:10:19Z</time>
      </trkpt>
      <trkpt lat="48.6359" lon="5.0344">
        <ele>226.53</ele>
        <time>2010-06-24T17:10:26Z</time>
      </trkpt>
      <trkpt lat="48.63592" lon="5.03434">
        <ele>226.53</ele>
        <time>2010-06-24T17:10:29Z</time>
      </trkpt>
      <trkpt lat="48.63592" lon="5.03428">
        <ele>226.53</ele>
        <time>2010-06-24T17:10:38Z</time>
      </trkpt>
      <trkpt lat="48.63592" lon="5.03424">
        <ele>226.53</ele>
        <time>2010-06-24T17:10:51Z</time>
      </trkpt>
      <trkpt lat="48.63591" lon="5.0342">
        <ele>227.01</ele>
        <time>2010-06-24T17:10:53Z</time>
      </trkpt>
      <trkpt lat="48.6359" lon="5.03412">
        <ele>226.53</ele>
        <time>2010-06-24T17:10:58Z</time>
      </trkpt>
      <trkpt lat="48.63589" lon="5.03406">
        <ele>226.53</ele>
        <time>2010-06-24T17:11:00Z</time>
      </trkpt>
      <trkpt lat="48.63589" lon="5.03382">
        <ele>227.01</ele>
        <time>2010-06-24T17:11:07Z</time>
      </trkpt>
      <trkpt lat="48.63587" lon="5.03359">
        <ele>226.53</ele>
        <time>2010-06-24T17:11:13Z</time>
      </trkpt>
      <trkpt lat="48.63586" lon="5.03358">
        <ele>226.53</ele>
        <time>2010-06-24T17:11:14Z</time>
      </trkpt>
      <trkpt lat="48.6358" lon="5.03332">
        <ele>226.05</ele>
        <time>2010-06-24T17:11:19Z</time>
      </trkpt>
      <trkpt lat="48.63574" lon="5.03324">
        <ele>226.05</ele>
        <time>2010-06-24T17:11:22Z</time>
      </trkpt>
      <trkpt lat="48.6357" lon="5.03305">
        <ele>225.57</ele>
        <time>2010-06-24T17:11:28Z</time>
      </trkpt>
      <trkpt lat="48.63563" lon="5.03272">
        <ele>225.09</ele>
        <time>2010-06-24T17:11:34Z</time>
      </trkpt>
      <trkpt lat="48.63556" lon="5.03243">
        <ele>224.61</ele>
        <time>2010-06-24T17:11:39Z</time>
      </trkpt>
      <trkpt lat="48.63551" lon="5.032">
        <ele>224.12</ele>
        <time>2010-06-24T17:11:45Z</time>
      </trkpt>
      <trkpt lat="48.63549" lon="5.0318">
        <ele>224.12</ele>
        <time>2010-06-24T17:11:49Z</time>
      </trkpt>
      <trkpt lat="48.63549" lon="5.03159">
        <ele>223.64</ele>
        <time>2010-06-24T17:11:54Z</time>
      </trkpt>
      <trkpt lat="48.6355" lon="5.03153">
        <ele>224.12</ele>
        <time>2010-06-24T17:11:56Z</time>
      </trkpt>
      <trkpt lat="48.63554" lon="5.03143">
        <ele>223.64</ele>
        <time>2010-06-24T17:11:59Z</time>
      </trkpt>
      <trkpt lat="48.63573" lon="5.03106">
        <ele>225.09</ele>
        <time>2010-06-24T17:12:05Z</time>
      </trkpt>
      <trkpt lat="48.63579" lon="5.03094">
        <ele>225.57</ele>
        <time>2010-06-24T17:12:07Z</time>
      </trkpt>
      <trkpt lat="48.63598" lon="5.03077">
        <ele>226.05</ele>
        <time>2010-06-24T17:12:12Z</time>
      </trkpt>
      <trkpt lat="48.63622" lon="5.03059">
        <ele>227.01</ele>
        <time>2010-06-24T17:12:18Z</time>
      </trkpt>
      <trkpt lat="48.63647" lon="5.03048">
        <ele>227.97</ele>
        <time>2010-06-24T17:12:24Z</time>
      </trkpt>
      <trkpt lat="48.63675" lon="5.03041">
        <ele>229.89</ele>
        <time>2010-06-24T17:12:31Z</time>
      </trkpt>
      <trkpt lat="48.63678" lon="5.0304">
        <ele>229.89</ele>
        <time>2010-06-24T17:12:32Z</time>
      </trkpt>
      <trkpt lat="48.63694" lon="5.03036">
        <ele>230.37</ele>
        <time>2010-06-24T17:12:37Z</time>
      </trkpt>
      <trkpt lat="48.63719" lon="5.03026">
        <ele>231.81</ele>
        <time>2010-06-24T17:12:44Z</time>
      </trkpt>
      <trkpt lat="48.63726" lon="5.03002">
        <ele>232.78</ele>
        <time>2010-06-24T17:12:51Z</time>
      </trkpt>
      <trkpt lat="48.63728" lon="5.02979">
        <ele>232.3</ele>
        <time>2010-06-24T17:12:57Z</time>
      </trkpt>
      <trkpt lat="48.63743" lon="5.02958">
        <ele>231.81</ele>
        <time>2010-06-24T17:13:04Z</time>
      </trkpt>
      <trkpt lat="48.63743" lon="5.02937">
        <ele>231.81</ele>
        <time>2010-06-24T17:13:09Z</time>
      </trkpt>
      <trkpt lat="48.63743" lon="5.02933">
        <ele>231.33</ele>
        <time>2010-06-24T17:13:10Z</time>
      </trkpt>
      <trkpt lat="48.63741" lon="5.02906">
        <ele>231.33</ele>
        <time>2010-06-24T17:13:17Z</time>
      </trkpt>
      <trkpt lat="48.63739" lon="5.0288">
        <ele>230.37</ele>
        <time>2010-06-24T17:13:23Z</time>
      </trkpt>
      <trkpt lat="48.63735" lon="5.02849">
        <ele>229.89</ele>
        <time>2010-06-24T17:13:30Z</time>
      </trkpt>
      <trkpt lat="48.63734" lon="5.02809">
        <ele>229.41</ele>
        <time>2010-06-24T17:13:37Z</time>
      </trkpt>
      <trkpt lat="48.63729" lon="5.02765">
        <ele>227.97</ele>
        <time>2010-06-24T17:13:45Z</time>
      </trkpt>
      <trkpt lat="48.63733" lon="5.02753">
        <ele>228.45</ele>
        <time>2010-06-24T17:13:49Z</time>
      </trkpt>
      <trkpt lat="48.6372" lon="5.02741">
        <ele>227.49</ele>
        <time>2010-06-24T17:13:55Z</time>
      </trkpt>
      <trkpt lat="48.63707" lon="5.02722">
        <ele>226.05</ele>
        <time>2010-06-24T17:14:01Z</time>
      </trkpt>
      <trkpt lat="48.63705" lon="5.02718">
        <ele>226.05</ele>
        <time>2010-06-24T17:14:05Z</time>
      </trkpt>
      <trkpt lat="48.63704" lon="5.02717">
        <ele>225.57</ele>
        <time>2010-06-24T17:14:13Z</time>
      </trkpt>
      <trkpt lat="48.63704" lon="5.02716">
        <ele>225.09</ele>
        <time>2010-06-24T17:14:18Z</time>
      </trkpt>
      <trkpt lat="48.63702" lon="5.02709">
        <ele>224.61</ele>
        <time>2010-06-24T17:14:22Z</time>
      </trkpt>
      <trkpt lat="48.63698" lon="5.027">
        <ele>223.16</ele>
        <time>2010-06-24T17:14:24Z</time>
      </trkpt>
      <trkpt lat="48.63691" lon="5.02695">
        <ele>222.68</ele>
        <time>2010-06-24T17:14:26Z</time>
      </trkpt>
      <trkpt lat="48.63687" lon="5.02693">
        <ele>222.68</ele>
        <time>2010-06-24T17:14:27Z</time>
      </trkpt>
      <trkpt lat="48.63683" lon="5.02689">
        <ele>222.68</ele>
        <time>2010-06-24T17:14:28Z</time>
      </trkpt>
      <trkpt lat="48.6368" lon="5.02683">
        <ele>223.16</ele>
        <time>2010-06-24T17:14:29Z</time>
      </trkpt>
      <trkpt lat="48.6368" lon="5.02676">
        <ele>222.68</ele>
        <time>2010-06-24T17:14:30Z</time>
      </trkpt>
      <trkpt lat="48.63681" lon="5.0267">
        <ele>223.16</ele>
        <time>2010-06-24T17:14:31Z</time>
      </trkpt>
      <trkpt lat="48.63682" lon="5.02664">
        <ele>222.68</ele>
        <time>2010-06-24T17:14:32Z</time>
      </trkpt>
      <trkpt lat="48.63692" lon="5.02639">
        <ele>222.68</ele>
        <time>2010-06-24T17:14:37Z</time>
      </trkpt>
      <trkpt lat="48.63704" lon="5.02596">
        <ele>221.72</ele>
        <time>2010-06-24T17:14:45Z</time>
      </trkpt>
      <trkpt lat="48.63707" lon="5.02583">
        <ele>221.72</ele>
        <time>2010-06-24T17:14:47Z</time>
      </trkpt>
      <trkpt lat="48.63712" lon="5.02555">
        <ele>221.24</ele>
        <time>2010-06-24T17:14:51Z</time>
      </trkpt>
      <trkpt lat="48.63713" lon="5.02548">
        <ele>220.76</ele>
        <time>2010-06-24T17:14:52Z</time>
      </trkpt>
      <trkpt lat="48.63713" lon="5.02541">
        <ele>221.24</ele>
        <time>2010-06-24T17:14:53Z</time>
      </trkpt>
      <trkpt lat="48.63714" lon="5.02533">
        <ele>220.28</ele>
        <time>2010-06-24T17:14:54Z</time>
      </trkpt>
      <trkpt lat="48.63714" lon="5.02525">
        <ele>219.8</ele>
        <time>2010-06-24T17:14:55Z</time>
      </trkpt>
      <trkpt lat="48.63715" lon="5.02517">
        <ele>220.28</ele>
        <time>2010-06-24T17:14:56Z</time>
      </trkpt>
      <trkpt lat="48.63719" lon="5.02442">
        <ele>217.88</ele>
        <time>2010-06-24T17:15:05Z</time>
      </trkpt>
      <trkpt lat="48.63719" lon="5.02424">
        <ele>217.88</ele>
        <time>2010-06-24T17:15:07Z</time>
      </trkpt>
      <trkpt lat="48.63718" lon="5.02415">
        <ele>217.88</ele>
        <time>2010-06-24T17:15:08Z</time>
      </trkpt>
      <trkpt lat="48.63716" lon="5.02407">
        <ele>217.4</ele>
        <time>2010-06-24T17:15:09Z</time>
      </trkpt>
      <trkpt lat="48.63714" lon="5.02399">
        <ele>216.91</ele>
        <time>2010-06-24T17:15:10Z</time>
      </trkpt>
      <trkpt lat="48.63713" lon="5.0239">
        <ele>216.91</ele>
        <time>2010-06-24T17:15:11Z</time>
      </trkpt>
      <trkpt lat="48.63712" lon="5.02382">
        <ele>216.43</ele>
        <time>2010-06-24T17:15:12Z</time>
      </trkpt>
      <trkpt lat="48.63711" lon="5.02373">
        <ele>216.43</ele>
        <time>2010-06-24T17:15:13Z</time>
      </trkpt>
      <trkpt lat="48.63694" lon="5.02301">
        <ele>213.55</ele>
        <time>2010-06-24T17:15:22Z</time>
      </trkpt>
      <trkpt lat="48.6369" lon="5.0229">
        <ele>213.55</ele>
        <time>2010-06-24T17:15:25Z</time>
      </trkpt>
      <trkpt lat="48.63688" lon="5.0229">
        <ele>213.07</ele>
        <time>2010-06-24T17:15:26Z</time>
      </trkpt>
      <trkpt lat="48.63687" lon="5.02289">
        <ele>213.07</ele>
        <time>2010-06-24T17:15:31Z</time>
      </trkpt>
      <trkpt lat="48.63687" lon="5.0229">
        <ele>213.55</ele>
        <time>2010-06-24T17:15:38Z</time>
      </trkpt>
      <trkpt lat="48.63687" lon="5.0229">
        <ele>212.11</ele>
        <time>2010-06-24T17:15:54Z</time>
      </trkpt>
      <trkpt lat="48.63687" lon="5.0229">
        <ele>215.47</ele>
        <time>2010-06-24T17:16:08Z</time>
      </trkpt>
    </trkseg>
  </trk>
</gpx>